<?xml version="1.0" encoding="UTF-8" standalone="no" ?>
<gpx xmlns="http://www.topografix.com/GPX/1/1" xmlns:xsi="http://www.w3.org/2001/XMLSchema-instance" xsi:schemaLocation="http://www.topografix.com/GPX/1/1 http://www.topografix.com/GPX/1/1/gpx.xsd" version="1.1" creator="VisuGPX - https://www.visugpx.com">
  <metadata>
    <name>Guin, Fribourg inverse</name>
  </metadata>
  <trk>
    <name><![CDATA[Guin, Fribourg]]></name>
    <extensions>
      <line xmlns="http://www.topografix.com/GPX/gpx_style/0/2">
        <color>FF0000</color>
        <width>4</width>
      </line>
    </extensions>
    <trkseg>
      <trkpt lat="46.84439" lon="7.17198">
        <ele>581.22</ele>
        <time>2021-03-31T13:16:58.357Z</time>
      </trkpt>
      <trkpt lat="46.84444" lon="7.17213">
        <ele>581.34</ele>
        <time>2021-03-31T13:16:54.212Z</time>
      </trkpt>
      <trkpt lat="46.84445" lon="7.17212">
        <ele>581.22</ele>
        <time>2021-03-31T13:16:50.954Z</time>
      </trkpt>
      <trkpt lat="46.84446" lon="7.17212">
        <ele>581.11</ele>
        <time>2021-03-31T13:16:47.947Z</time>
      </trkpt>
      <trkpt lat="46.84448" lon="7.17216">
        <ele>581.11</ele>
        <time>2021-03-31T13:16:44.410Z</time>
      </trkpt>
      <trkpt lat="46.84457" lon="7.17222">
        <ele>580.05</ele>
        <time>2021-03-31T13:16:15.552Z</time>
      </trkpt>
      <trkpt lat="46.84463" lon="7.17227">
        <ele>579.46</ele>
        <time>2021-03-31T13:15:59.139Z</time>
      </trkpt>
      <trkpt lat="46.8447" lon="7.17231">
        <ele>578.52</ele>
        <time>2021-03-31T13:15:32.148Z</time>
      </trkpt>
      <trkpt lat="46.84472" lon="7.17233">
        <ele>578.52</ele>
        <time>2021-03-31T13:15:29.619Z</time>
      </trkpt>
      <trkpt lat="46.84476" lon="7.17243">
        <ele>578.4</ele>
        <time>2021-03-31T13:15:20.019Z</time>
      </trkpt>
      <trkpt lat="46.8448" lon="7.17253">
        <ele>578.28</ele>
        <time>2021-03-31T13:15:10.418Z</time>
      </trkpt>
      <trkpt lat="46.84483" lon="7.17258">
        <ele>578.28</ele>
        <time>2021-03-31T13:15:05.670Z</time>
      </trkpt>
      <trkpt lat="46.84483" lon="7.17264">
        <ele>578.37</ele>
        <time>2021-03-31T13:15:04.375Z</time>
      </trkpt>
      <trkpt lat="46.84484" lon="7.17269">
        <ele>578.36</ele>
        <time>2021-03-31T13:15:00.558Z</time>
      </trkpt>
      <trkpt lat="46.84486" lon="7.17275">
        <ele>578.53</ele>
        <time>2021-03-31T13:14:59.332Z</time>
      </trkpt>
      <trkpt lat="46.8449" lon="7.17286">
        <ele>578.43</ele>
        <time>2021-03-31T13:14:49.369Z</time>
      </trkpt>
      <trkpt lat="46.84498" lon="7.17309">
        <ele>578.61</ele>
        <time>2021-03-31T13:14:42.932Z</time>
      </trkpt>
      <trkpt lat="46.84503" lon="7.1732">
        <ele>578.58</ele>
        <time>2021-03-31T13:14:33.208Z</time>
      </trkpt>
      <trkpt lat="46.84504" lon="7.1732">
        <ele>578.58</ele>
        <time>2021-03-31T13:14:32.165Z</time>
      </trkpt>
      <trkpt lat="46.84506" lon="7.17324">
        <ele>578.55</ele>
        <time>2021-03-31T13:14:28.316Z</time>
      </trkpt>
      <trkpt lat="46.84514" lon="7.17343">
        <ele>578.63</ele>
        <time>2021-03-31T13:14:13.574Z</time>
      </trkpt>
      <trkpt lat="46.84518" lon="7.17353">
        <ele>578.49</ele>
        <time>2021-03-31T13:14:03.708Z</time>
      </trkpt>
      <trkpt lat="46.8452" lon="7.17358">
        <ele>578.42</ele>
        <time>2021-03-31T13:13:58.776Z</time>
      </trkpt>
      <trkpt lat="46.84524" lon="7.17367">
        <ele>578.34</ele>
        <time>2021-03-31T13:13:50.265Z</time>
      </trkpt>
      <trkpt lat="46.84537" lon="7.17386">
        <ele>577.25</ele>
        <time>2021-03-31T13:13:14.546Z</time>
      </trkpt>
      <trkpt lat="46.84555" lon="7.1741">
        <ele>576.88</ele>
        <time>2021-03-31T13:12:45.014Z</time>
      </trkpt>
      <trkpt lat="46.84564" lon="7.17423">
        <ele>576.82</ele>
        <time>2021-03-31T13:12:31.211Z</time>
      </trkpt>
      <trkpt lat="46.84568" lon="7.17431">
        <ele>576.88</ele>
        <time>2021-03-31T13:12:28.694Z</time>
      </trkpt>
      <trkpt lat="46.84571" lon="7.17442">
        <ele>577.03</ele>
        <time>2021-03-31T13:12:26.034Z</time>
      </trkpt>
      <trkpt lat="46.84573" lon="7.17448">
        <ele>576.97</ele>
        <time>2021-03-31T13:12:20.617Z</time>
      </trkpt>
      <trkpt lat="46.84576" lon="7.17452">
        <ele>576.61</ele>
        <time>2021-03-31T13:12:10.694Z</time>
      </trkpt>
      <trkpt lat="46.84581" lon="7.17459">
        <ele>576.21</ele>
        <time>2021-03-31T13:11:57.383Z</time>
      </trkpt>
      <trkpt lat="46.84583" lon="7.17463">
        <ele>576.13</ele>
        <time>2021-03-31T13:11:52.871Z</time>
      </trkpt>
      <trkpt lat="46.84585" lon="7.17467">
        <ele>576.21</ele>
        <time>2021-03-31T13:11:51.821Z</time>
      </trkpt>
      <trkpt lat="46.84586" lon="7.17471">
        <ele>576.07</ele>
        <time>2021-03-31T13:11:46.573Z</time>
      </trkpt>
      <trkpt lat="46.84587" lon="7.17476">
        <ele>576.17</ele>
        <time>2021-03-31T13:11:45.522Z</time>
      </trkpt>
      <trkpt lat="46.84595" lon="7.17491">
        <ele>576.3</ele>
        <time>2021-03-31T13:11:40.764Z</time>
      </trkpt>
      <trkpt lat="46.846" lon="7.17498">
        <ele>576.28</ele>
        <time>2021-03-31T13:11:33.343Z</time>
      </trkpt>
      <trkpt lat="46.84607" lon="7.17506">
        <ele>576.11</ele>
        <time>2021-03-31T13:11:22.100Z</time>
      </trkpt>
      <trkpt lat="46.84611" lon="7.1751">
        <ele>576.13</ele>
        <time>2021-03-31T13:11:17.344Z</time>
      </trkpt>
      <trkpt lat="46.84612" lon="7.17511">
        <ele>576.15</ele>
        <time>2021-03-31T13:11:16.936Z</time>
      </trkpt>
      <trkpt lat="46.84613" lon="7.17511">
        <ele>576.15</ele>
        <time>2021-03-31T13:11:15.892Z</time>
      </trkpt>
      <trkpt lat="46.84616" lon="7.17514">
        <ele>576.17</ele>
        <time>2021-03-31T13:11:12.394Z</time>
      </trkpt>
      <trkpt lat="46.8462" lon="7.17517">
        <ele>576.32</ele>
        <time>2021-03-31T13:11:11.140Z</time>
      </trkpt>
      <trkpt lat="46.84628" lon="7.17526">
        <ele>577.24</ele>
        <time>2021-03-31T13:11:08.841Z</time>
      </trkpt>
      <trkpt lat="46.84634" lon="7.17529">
        <ele>578.02</ele>
        <time>2021-03-31T13:11:07.397Z</time>
      </trkpt>
      <trkpt lat="46.84641" lon="7.17516">
        <ele>577.99</ele>
        <time>2021-03-31T13:10:55.293Z</time>
      </trkpt>
      <trkpt lat="46.84646" lon="7.17506">
        <ele>577.96</ele>
        <time>2021-03-31T13:10:46.155Z</time>
      </trkpt>
      <trkpt lat="46.84652" lon="7.17496">
        <ele>577.79</ele>
        <time>2021-03-31T13:10:34.699Z</time>
      </trkpt>
      <trkpt lat="46.84656" lon="7.17489">
        <ele>577.04</ele>
        <time>2021-03-31T13:10:13.614Z</time>
      </trkpt>
      <trkpt lat="46.8466" lon="7.17479">
        <ele>576.81</ele>
        <time>2021-03-31T13:10:02.351Z</time>
      </trkpt>
      <trkpt lat="46.84667" lon="7.17463">
        <ele>576.45</ele>
        <time>2021-03-31T13:09:44.182Z</time>
      </trkpt>
      <trkpt lat="46.84676" lon="7.17448">
        <ele>576.49</ele>
        <time>2021-03-31T13:09:30.551Z</time>
      </trkpt>
      <trkpt lat="46.84681" lon="7.17442">
        <ele>576.73</ele>
        <time>2021-03-31T13:09:28.812Z</time>
      </trkpt>
      <trkpt lat="46.84687" lon="7.17433">
        <ele>576.96</ele>
        <time>2021-03-31T13:09:26.241Z</time>
      </trkpt>
      <trkpt lat="46.84697" lon="7.17418">
        <ele>577.4</ele>
        <time>2021-03-31T13:09:22.132Z</time>
      </trkpt>
      <trkpt lat="46.84702" lon="7.17409">
        <ele>577.45</ele>
        <time>2021-03-31T13:09:14.585Z</time>
      </trkpt>
      <trkpt lat="46.84707" lon="7.174">
        <ele>577.24</ele>
        <time>2021-03-31T13:09:03.659Z</time>
      </trkpt>
      <trkpt lat="46.84716" lon="7.17384">
        <ele>577.57</ele>
        <time>2021-03-31T13:08:59.255Z</time>
      </trkpt>
      <trkpt lat="46.84721" lon="7.17373">
        <ele>577.2</ele>
        <time>2021-03-31T13:08:44.167Z</time>
      </trkpt>
      <trkpt lat="46.84725" lon="7.17363">
        <ele>577.02</ele>
        <time>2021-03-31T13:08:33.726Z</time>
      </trkpt>
      <trkpt lat="46.84727" lon="7.17355">
        <ele>576.87</ele>
        <time>2021-03-31T13:08:25.770Z</time>
      </trkpt>
      <trkpt lat="46.84728" lon="7.17344">
        <ele>576.75</ele>
        <time>2021-03-31T13:08:16.508Z</time>
      </trkpt>
      <trkpt lat="46.84729" lon="7.17334">
        <ele>576.66</ele>
        <time>2021-03-31T13:08:08.317Z</time>
      </trkpt>
      <trkpt lat="46.8473" lon="7.17317">
        <ele>576.58</ele>
        <time>2021-03-31T13:07:55.323Z</time>
      </trkpt>
      <trkpt lat="46.84731" lon="7.17305">
        <ele>576.51</ele>
        <time>2021-03-31T13:07:45.969Z</time>
      </trkpt>
      <trkpt lat="46.84733" lon="7.17296">
        <ele>576.58</ele>
        <time>2021-03-31T13:07:43.627Z</time>
      </trkpt>
      <trkpt lat="46.84734" lon="7.17287">
        <ele>576.59</ele>
        <time>2021-03-31T13:07:37.275Z</time>
      </trkpt>
      <trkpt lat="46.84734" lon="7.17285">
        <ele>576.64</ele>
        <time>2021-03-31T13:07:36.905Z</time>
      </trkpt>
      <trkpt lat="46.84737" lon="7.17285">
        <ele>576.64</ele>
        <time>2021-03-31T13:07:33.775Z</time>
      </trkpt>
      <trkpt lat="46.84739" lon="7.17287">
        <ele>576.76</ele>
        <time>2021-03-31T13:07:33.194Z</time>
      </trkpt>
      <trkpt lat="46.84742" lon="7.17291">
        <ele>576.87</ele>
        <time>2021-03-31T13:07:31.984Z</time>
      </trkpt>
      <trkpt lat="46.84748" lon="7.17299">
        <ele>577.11</ele>
        <time>2021-03-31T13:07:29.627Z</time>
      </trkpt>
      <trkpt lat="46.84752" lon="7.17307">
        <ele>577.46</ele>
        <time>2021-03-31T13:07:28.031Z</time>
      </trkpt>
      <trkpt lat="46.84755" lon="7.17312">
        <ele>578.28</ele>
        <time>2021-03-31T13:07:26.995Z</time>
      </trkpt>
      <trkpt lat="46.84769" lon="7.17328">
        <ele>581.11</ele>
        <time>2021-03-31T13:07:22.948Z</time>
      </trkpt>
      <trkpt lat="46.84771" lon="7.17331">
        <ele>581.46</ele>
        <time>2021-03-31T13:07:22.296Z</time>
      </trkpt>
      <trkpt lat="46.84773" lon="7.17333">
        <ele>581.77</ele>
        <time>2021-03-31T13:07:21.744Z</time>
      </trkpt>
      <trkpt lat="46.84777" lon="7.17337">
        <ele>582.32</ele>
        <time>2021-03-31T13:07:20.640Z</time>
      </trkpt>
      <trkpt lat="46.84781" lon="7.17342">
        <ele>582.71</ele>
        <time>2021-03-31T13:07:19.442Z</time>
      </trkpt>
      <trkpt lat="46.84789" lon="7.17355">
        <ele>583.42</ele>
        <time>2021-03-31T13:07:16.801Z</time>
      </trkpt>
      <trkpt lat="46.84795" lon="7.17368">
        <ele>583.65</ele>
        <time>2021-03-31T13:07:13.396Z</time>
      </trkpt>
      <trkpt lat="46.84805" lon="7.1739">
        <ele>583.65</ele>
        <time>2021-03-31T13:06:54.541Z</time>
      </trkpt>
      <trkpt lat="46.84819" lon="7.17422">
        <ele>584.83</ele>
        <time>2021-03-31T13:06:48.081Z</time>
      </trkpt>
      <trkpt lat="46.84836" lon="7.17463">
        <ele>585.38</ele>
        <time>2021-03-31T13:06:37.079Z</time>
      </trkpt>
      <trkpt lat="46.84847" lon="7.17489">
        <ele>585.45</ele>
        <time>2021-03-31T13:06:16.322Z</time>
      </trkpt>
      <trkpt lat="46.8485" lon="7.17498">
        <ele>585.73</ele>
        <time>2021-03-31T13:06:14.547Z</time>
      </trkpt>
      <trkpt lat="46.84851" lon="7.17498">
        <ele>585.73</ele>
        <time>2021-03-31T13:06:13.503Z</time>
      </trkpt>
      <trkpt lat="46.84857" lon="7.17514">
        <ele>586</ele>
        <time>2021-03-31T13:06:09.551Z</time>
      </trkpt>
      <trkpt lat="46.84903" lon="7.17636">
        <ele>587.96</ele>
        <time>2021-03-31T13:05:38.999Z</time>
      </trkpt>
      <trkpt lat="46.8491" lon="7.17656">
        <ele>588.59</ele>
        <time>2021-03-31T13:05:35.020Z</time>
      </trkpt>
      <trkpt lat="46.84914" lon="7.17667">
        <ele>588.9</ele>
        <time>2021-03-31T13:05:32.712Z</time>
      </trkpt>
      <trkpt lat="46.84915" lon="7.17674">
        <ele>589.22</ele>
        <time>2021-03-31T13:05:31.682Z</time>
      </trkpt>
      <trkpt lat="46.84916" lon="7.17679">
        <ele>589.53</ele>
        <time>2021-03-31T13:05:30.871Z</time>
      </trkpt>
      <trkpt lat="46.84916" lon="7.17686">
        <ele>589.92</ele>
        <time>2021-03-31T13:05:29.781Z</time>
      </trkpt>
      <trkpt lat="46.84916" lon="7.17694">
        <ele>590.78</ele>
        <time>2021-03-31T13:05:28.535Z</time>
      </trkpt>
      <trkpt lat="46.84916" lon="7.17695">
        <ele>591.15</ele>
        <time>2021-03-31T13:05:28.379Z</time>
      </trkpt>
      <trkpt lat="46.84916" lon="7.1771">
        <ele>591.53</ele>
        <time>2021-03-31T13:05:25.619Z</time>
      </trkpt>
      <trkpt lat="46.84916" lon="7.17714">
        <ele>591.64</ele>
        <time>2021-03-31T13:05:24.905Z</time>
      </trkpt>
      <trkpt lat="46.84917" lon="7.17718">
        <ele>591.76</ele>
        <time>2021-03-31T13:05:24.152Z</time>
      </trkpt>
      <trkpt lat="46.84919" lon="7.17723">
        <ele>591.76</ele>
        <time>2021-03-31T13:05:20.018Z</time>
      </trkpt>
      <trkpt lat="46.84931" lon="7.17712">
        <ele>591.79</ele>
        <time>2021-03-31T13:05:05.702Z</time>
      </trkpt>
      <trkpt lat="46.84951" lon="7.1769">
        <ele>591.44</ele>
        <time>2021-03-31T13:04:35.746Z</time>
      </trkpt>
      <trkpt lat="46.84968" lon="7.17673">
        <ele>591.04</ele>
        <time>2021-03-31T13:04:09.601Z</time>
      </trkpt>
      <trkpt lat="46.84974" lon="7.17666">
        <ele>590.8</ele>
        <time>2021-03-31T13:03:58.375Z</time>
      </trkpt>
      <trkpt lat="46.8501" lon="7.17628">
        <ele>589.44</ele>
        <time>2021-03-31T13:02:53.968Z</time>
      </trkpt>
      <trkpt lat="46.85035" lon="7.17601">
        <ele>588.39</ele>
        <time>2021-03-31T13:02:06.998Z</time>
      </trkpt>
      <trkpt lat="46.85051" lon="7.1758">
        <ele>587.93</ele>
        <time>2021-03-31T13:01:39.091Z</time>
      </trkpt>
      <trkpt lat="46.8507" lon="7.17552">
        <ele>587.37</ele>
        <time>2021-03-31T13:01:04.329Z</time>
      </trkpt>
      <trkpt lat="46.85112" lon="7.17487">
        <ele>586.24</ele>
        <time>2021-03-31T12:59:47.503Z</time>
      </trkpt>
      <trkpt lat="46.85131" lon="7.17457">
        <ele>584.98</ele>
        <time>2021-03-31T12:58:58.076Z</time>
      </trkpt>
      <trkpt lat="46.85142" lon="7.1744">
        <ele>584.51</ele>
        <time>2021-03-31T12:58:35.227Z</time>
      </trkpt>
      <trkpt lat="46.85148" lon="7.17433">
        <ele>584.25</ele>
        <time>2021-03-31T12:58:23.613Z</time>
      </trkpt>
      <trkpt lat="46.85155" lon="7.17426">
        <ele>584.11</ele>
        <time>2021-03-31T12:58:13.186Z</time>
      </trkpt>
      <trkpt lat="46.85162" lon="7.17421">
        <ele>583.84</ele>
        <time>2021-03-31T12:58:01.274Z</time>
      </trkpt>
      <trkpt lat="46.85198" lon="7.17392">
        <ele>582.92</ele>
        <time>2021-03-31T12:57:07.318Z</time>
      </trkpt>
      <trkpt lat="46.85234" lon="7.17358">
        <ele>582.45</ele>
        <time>2021-03-31T12:56:17.598Z</time>
      </trkpt>
      <trkpt lat="46.85243" lon="7.17349">
        <ele>582.29</ele>
        <time>2021-03-31T12:56:04.453Z</time>
      </trkpt>
      <trkpt lat="46.85248" lon="7.17345">
        <ele>582.28</ele>
        <time>2021-03-31T12:55:58.408Z</time>
      </trkpt>
      <trkpt lat="46.85251" lon="7.17341">
        <ele>582.35</ele>
        <time>2021-03-31T12:55:57.053Z</time>
      </trkpt>
      <trkpt lat="46.85252" lon="7.17338">
        <ele>582.22</ele>
        <time>2021-03-31T12:55:52.689Z</time>
      </trkpt>
      <trkpt lat="46.85253" lon="7.17334">
        <ele>582.19</ele>
        <time>2021-03-31T12:55:49.333Z</time>
      </trkpt>
      <trkpt lat="46.85254" lon="7.1733">
        <ele>582.18</ele>
        <time>2021-03-31T12:55:46.195Z</time>
      </trkpt>
      <trkpt lat="46.85254" lon="7.17325">
        <ele>582.15</ele>
        <time>2021-03-31T12:55:42.315Z</time>
      </trkpt>
      <trkpt lat="46.85253" lon="7.17322">
        <ele>582.17</ele>
        <time>2021-03-31T12:55:41.466Z</time>
      </trkpt>
      <trkpt lat="46.85251" lon="7.17318">
        <ele>582.22</ele>
        <time>2021-03-31T12:55:40.301Z</time>
      </trkpt>
      <trkpt lat="46.85247" lon="7.17314">
        <ele>582.21</ele>
        <time>2021-03-31T12:55:35.146Z</time>
      </trkpt>
      <trkpt lat="46.85237" lon="7.17303">
        <ele>582.16</ele>
        <time>2021-03-31T12:55:21.590Z</time>
      </trkpt>
      <trkpt lat="46.85221" lon="7.17285">
        <ele>582.19</ele>
        <time>2021-03-31T12:55:00.992Z</time>
      </trkpt>
      <trkpt lat="46.85201" lon="7.17263">
        <ele>582.48</ele>
        <time>2021-03-31T12:54:52.029Z</time>
      </trkpt>
      <trkpt lat="46.85164" lon="7.17222">
        <ele>583.76</ele>
        <time>2021-03-31T12:54:38.265Z</time>
      </trkpt>
      <trkpt lat="46.85135" lon="7.17189">
        <ele>582.74</ele>
        <time>2021-03-31T12:53:46.841Z</time>
      </trkpt>
      <trkpt lat="46.85119" lon="7.17168">
        <ele>581.55</ele>
        <time>2021-03-31T12:53:06.183Z</time>
      </trkpt>
      <trkpt lat="46.85113" lon="7.17161">
        <ele>581.21</ele>
        <time>2021-03-31T12:52:52.703Z</time>
      </trkpt>
      <trkpt lat="46.85114" lon="7.17161">
        <ele>581.21</ele>
        <time>2021-03-31T12:52:51.660Z</time>
      </trkpt>
      <trkpt lat="46.851" lon="7.17142">
        <ele>580.87</ele>
        <time>2021-03-31T12:52:27.843Z</time>
      </trkpt>
      <trkpt lat="46.85094" lon="7.17134">
        <ele>580.73</ele>
        <time>2021-03-31T12:52:17.779Z</time>
      </trkpt>
      <trkpt lat="46.85082" lon="7.17121">
        <ele>580.61</ele>
        <time>2021-03-31T12:52:00.955Z</time>
      </trkpt>
      <trkpt lat="46.85073" lon="7.17112">
        <ele>580.34</ele>
        <time>2021-03-31T12:51:46.238Z</time>
      </trkpt>
      <trkpt lat="46.85057" lon="7.17098">
        <ele>580.04</ele>
        <time>2021-03-31T12:51:23.416Z</time>
      </trkpt>
      <trkpt lat="46.85003" lon="7.17048">
        <ele>576.55</ele>
        <time>2021-03-31T12:49:23.154Z</time>
      </trkpt>
      <trkpt lat="46.84991" lon="7.17035">
        <ele>575.58</ele>
        <time>2021-03-31T12:48:52.942Z</time>
      </trkpt>
      <trkpt lat="46.84984" lon="7.17028">
        <ele>574.97</ele>
        <time>2021-03-31T12:48:34.870Z</time>
      </trkpt>
      <trkpt lat="46.84976" lon="7.17015">
        <ele>574.82</ele>
        <time>2021-03-31T12:48:20.768Z</time>
      </trkpt>
      <trkpt lat="46.84972" lon="7.17009">
        <ele>574.76</ele>
        <time>2021-03-31T12:48:14.153Z</time>
      </trkpt>
      <trkpt lat="46.84969" lon="7.17001">
        <ele>574.73</ele>
        <time>2021-03-31T12:48:07.341Z</time>
      </trkpt>
      <trkpt lat="46.84967" lon="7.16995">
        <ele>574.73</ele>
        <time>2021-03-31T12:48:02.577Z</time>
      </trkpt>
      <trkpt lat="46.84964" lon="7.16988">
        <ele>574.88</ele>
        <time>2021-03-31T12:48:00.884Z</time>
      </trkpt>
      <trkpt lat="46.84962" lon="7.1698">
        <ele>574.96</ele>
        <time>2021-03-31T12:47:58.854Z</time>
      </trkpt>
      <trkpt lat="46.84961" lon="7.16973">
        <ele>575.16</ele>
        <time>2021-03-31T12:47:57.586Z</time>
      </trkpt>
      <trkpt lat="46.84955" lon="7.16939">
        <ele>576.1</ele>
        <time>2021-03-31T12:47:51.255Z</time>
      </trkpt>
      <trkpt lat="46.84953" lon="7.16925">
        <ele>576.57</ele>
        <time>2021-03-31T12:47:48.880Z</time>
      </trkpt>
      <trkpt lat="46.8495" lon="7.16913">
        <ele>577.06</ele>
        <time>2021-03-31T12:47:46.897Z</time>
      </trkpt>
      <trkpt lat="46.84947" lon="7.16905">
        <ele>577.42</ele>
        <time>2021-03-31T12:47:45.501Z</time>
      </trkpt>
      <trkpt lat="46.84949" lon="7.16902">
        <ele>577.49</ele>
        <time>2021-03-31T12:47:44.622Z</time>
      </trkpt>
      <trkpt lat="46.84951" lon="7.16898">
        <ele>577.53</ele>
        <time>2021-03-31T12:47:43.411Z</time>
      </trkpt>
      <trkpt lat="46.84952" lon="7.16895">
        <ele>577.51</ele>
        <time>2021-03-31T12:47:40.821Z</time>
      </trkpt>
      <trkpt lat="46.84961" lon="7.1688">
        <ele>576.55</ele>
        <time>2021-03-31T12:47:12.088Z</time>
      </trkpt>
      <trkpt lat="46.84968" lon="7.16869">
        <ele>576.25</ele>
        <time>2021-03-31T12:46:57.449Z</time>
      </trkpt>
      <trkpt lat="46.84979" lon="7.16852">
        <ele>576.32</ele>
        <time>2021-03-31T12:46:41.795Z</time>
      </trkpt>
      <trkpt lat="46.84987" lon="7.16838">
        <ele>576.62</ele>
        <time>2021-03-31T12:46:37.950Z</time>
      </trkpt>
      <trkpt lat="46.84999" lon="7.16817">
        <ele>576.47</ele>
        <time>2021-03-31T12:46:16.871Z</time>
      </trkpt>
      <trkpt lat="46.8501" lon="7.168">
        <ele>576.27</ele>
        <time>2021-03-31T12:45:58.008Z</time>
      </trkpt>
      <trkpt lat="46.8503" lon="7.16772">
        <ele>575.21</ele>
        <time>2021-03-31T12:45:13.507Z</time>
      </trkpt>
      <trkpt lat="46.85039" lon="7.16759">
        <ele>574.76</ele>
        <time>2021-03-31T12:44:53.924Z</time>
      </trkpt>
      <trkpt lat="46.85044" lon="7.16753">
        <ele>574.44</ele>
        <time>2021-03-31T12:44:42.161Z</time>
      </trkpt>
      <trkpt lat="46.85049" lon="7.16748">
        <ele>574.06</ele>
        <time>2021-03-31T12:44:30.102Z</time>
      </trkpt>
      <trkpt lat="46.85055" lon="7.16743">
        <ele>573.97</ele>
        <time>2021-03-31T12:44:21.918Z</time>
      </trkpt>
      <trkpt lat="46.85061" lon="7.1674">
        <ele>573.85</ele>
        <time>2021-03-31T12:44:13.912Z</time>
      </trkpt>
      <trkpt lat="46.85068" lon="7.16736">
        <ele>573.74</ele>
        <time>2021-03-31T12:44:04.855Z</time>
      </trkpt>
      <trkpt lat="46.85075" lon="7.16732">
        <ele>573.43</ele>
        <time>2021-03-31T12:43:52.249Z</time>
      </trkpt>
      <trkpt lat="46.85088" lon="7.16729">
        <ele>572.9</ele>
        <time>2021-03-31T12:43:30.486Z</time>
      </trkpt>
      <trkpt lat="46.851" lon="7.16727">
        <ele>572.46</ele>
        <time>2021-03-31T12:43:11.570Z</time>
      </trkpt>
      <trkpt lat="46.8511" lon="7.16725">
        <ele>572.12</ele>
        <time>2021-03-31T12:42:56.336Z</time>
      </trkpt>
      <trkpt lat="46.85117" lon="7.16723">
        <ele>571.86</ele>
        <time>2021-03-31T12:42:45.161Z</time>
      </trkpt>
      <trkpt lat="46.85131" lon="7.16717">
        <ele>571.63</ele>
        <time>2021-03-31T12:42:27.366Z</time>
      </trkpt>
      <trkpt lat="46.85141" lon="7.16713">
        <ele>570.78</ele>
        <time>2021-03-31T12:42:03.431Z</time>
      </trkpt>
      <trkpt lat="46.85147" lon="7.16709">
        <ele>570.14</ele>
        <time>2021-03-31T12:41:46.035Z</time>
      </trkpt>
      <trkpt lat="46.85155" lon="7.16704">
        <ele>569.26</ele>
        <time>2021-03-31T12:41:22.156Z</time>
      </trkpt>
      <trkpt lat="46.85161" lon="7.16701">
        <ele>568.39</ele>
        <time>2021-03-31T12:40:56.631Z</time>
      </trkpt>
      <trkpt lat="46.85154" lon="7.1668">
        <ele>572.13</ele>
        <time>2021-03-31T12:40:52.993Z</time>
      </trkpt>
      <trkpt lat="46.85137" lon="7.16656">
        <ele>574.15</ele>
        <time>2021-03-31T12:40:47.612Z</time>
      </trkpt>
      <trkpt lat="46.85124" lon="7.16629">
        <ele>574.41</ele>
        <time>2021-03-31T12:40:39.516Z</time>
      </trkpt>
      <trkpt lat="46.85118" lon="7.1662">
        <ele>574.39</ele>
        <time>2021-03-31T12:40:30.351Z</time>
      </trkpt>
      <trkpt lat="46.85119" lon="7.1662">
        <ele>574.39</ele>
        <time>2021-03-31T12:40:29.307Z</time>
      </trkpt>
      <trkpt lat="46.85112" lon="7.1661">
        <ele>574.38</ele>
        <time>2021-03-31T12:40:18.998Z</time>
      </trkpt>
      <trkpt lat="46.85102" lon="7.1659">
        <ele>574.04</ele>
        <time>2021-03-31T12:39:57.333Z</time>
      </trkpt>
      <trkpt lat="46.85095" lon="7.16571">
        <ele>573.86</ele>
        <time>2021-03-31T12:39:39.993Z</time>
      </trkpt>
      <trkpt lat="46.85079" lon="7.1654">
        <ele>572.92</ele>
        <time>2021-03-31T12:38:58.978Z</time>
      </trkpt>
      <trkpt lat="46.85069" lon="7.16527">
        <ele>572.2</ele>
        <time>2021-03-31T12:38:33.936Z</time>
      </trkpt>
      <trkpt lat="46.85064" lon="7.16508">
        <ele>570.05</ele>
        <time>2021-03-31T12:37:37.892Z</time>
      </trkpt>
      <trkpt lat="46.85058" lon="7.16496">
        <ele>567.94</ele>
        <time>2021-03-31T12:36:56.969Z</time>
      </trkpt>
      <trkpt lat="46.85055" lon="7.16487">
        <ele>565.09</ele>
        <time>2021-03-31T12:36:29.406Z</time>
      </trkpt>
      <trkpt lat="46.85059" lon="7.16478">
        <ele>563.49</ele>
        <time>2021-03-31T12:35:59.858Z</time>
      </trkpt>
      <trkpt lat="46.85068" lon="7.16457">
        <ele>560.6</ele>
        <time>2021-03-31T12:34:51.633Z</time>
      </trkpt>
      <trkpt lat="46.85069" lon="7.16454">
        <ele>560.25</ele>
        <time>2021-03-31T12:34:42.445Z</time>
      </trkpt>
      <trkpt lat="46.85069" lon="7.16447">
        <ele>559.33</ele>
        <time>2021-03-31T12:34:23.175Z</time>
      </trkpt>
      <trkpt lat="46.85068" lon="7.16442">
        <ele>558.46</ele>
        <time>2021-03-31T12:34:08.833Z</time>
      </trkpt>
      <trkpt lat="46.85067" lon="7.16437">
        <ele>557.53</ele>
        <time>2021-03-31T12:33:54.492Z</time>
      </trkpt>
      <trkpt lat="46.85065" lon="7.16433">
        <ele>556.7</ele>
        <time>2021-03-31T12:33:40.851Z</time>
      </trkpt>
      <trkpt lat="46.85062" lon="7.1643">
        <ele>555.54</ele>
        <time>2021-03-31T12:33:26.221Z</time>
      </trkpt>
      <trkpt lat="46.85059" lon="7.16427">
        <ele>554.65</ele>
        <time>2021-03-31T12:33:11.591Z</time>
      </trkpt>
      <trkpt lat="46.85056" lon="7.16425">
        <ele>554.05</ele>
        <time>2021-03-31T12:32:58.319Z</time>
      </trkpt>
      <trkpt lat="46.85051" lon="7.16424">
        <ele>552.6</ele>
        <time>2021-03-31T12:32:38.005Z</time>
      </trkpt>
      <trkpt lat="46.85045" lon="7.16423">
        <ele>551.41</ele>
        <time>2021-03-31T12:32:13.697Z</time>
      </trkpt>
      <trkpt lat="46.8504" lon="7.1643">
        <ele>553.11</ele>
        <time>2021-03-31T12:32:12.121Z</time>
      </trkpt>
      <trkpt lat="46.85035" lon="7.16434">
        <ele>553.37</ele>
        <time>2021-03-31T12:32:10.706Z</time>
      </trkpt>
      <trkpt lat="46.85029" lon="7.16444">
        <ele>555</ele>
        <time>2021-03-31T12:32:08.634Z</time>
      </trkpt>
      <trkpt lat="46.85026" lon="7.16449">
        <ele>555.85</ele>
        <time>2021-03-31T12:32:07.598Z</time>
      </trkpt>
      <trkpt lat="46.85022" lon="7.16443">
        <ele>556.32</ele>
        <time>2021-03-31T12:32:06.293Z</time>
      </trkpt>
      <trkpt lat="46.85016" lon="7.16446">
        <ele>557.12</ele>
        <time>2021-03-31T12:32:04.849Z</time>
      </trkpt>
      <trkpt lat="46.85013" lon="7.16445">
        <ele>557.55</ele>
        <time>2021-03-31T12:32:04.148Z</time>
      </trkpt>
      <trkpt lat="46.85011" lon="7.16437">
        <ele>559.19</ele>
        <time>2021-03-31T12:32:02.822Z</time>
      </trkpt>
      <trkpt lat="46.8501" lon="7.16422">
        <ele>562.05</ele>
        <time>2021-03-31T12:32:00.475Z</time>
      </trkpt>
      <trkpt lat="46.8501" lon="7.16414">
        <ele>563.08</ele>
        <time>2021-03-31T12:31:59.229Z</time>
      </trkpt>
      <trkpt lat="46.85009" lon="7.16406">
        <ele>563.86</ele>
        <time>2021-03-31T12:31:57.962Z</time>
      </trkpt>
      <trkpt lat="46.85006" lon="7.16399">
        <ele>564.55</ele>
        <time>2021-03-31T12:31:56.675Z</time>
      </trkpt>
      <trkpt lat="46.85002" lon="7.16394">
        <ele>565.68</ele>
        <time>2021-03-31T12:31:55.477Z</time>
      </trkpt>
      <trkpt lat="46.84999" lon="7.16392">
        <ele>566.71</ele>
        <time>2021-03-31T12:31:54.726Z</time>
      </trkpt>
      <trkpt lat="46.84993" lon="7.16389">
        <ele>567.84</ele>
        <time>2021-03-31T12:31:53.282Z</time>
      </trkpt>
      <trkpt lat="46.84988" lon="7.16388">
        <ele>568.18</ele>
        <time>2021-03-31T12:31:52.133Z</time>
      </trkpt>
      <trkpt lat="46.84975" lon="7.16387">
        <ele>569.48</ele>
        <time>2021-03-31T12:31:49.168Z</time>
      </trkpt>
      <trkpt lat="46.84967" lon="7.16388">
        <ele>570.69</ele>
        <time>2021-03-31T12:31:47.340Z</time>
      </trkpt>
      <trkpt lat="46.84963" lon="7.16387">
        <ele>571.47</ele>
        <time>2021-03-31T12:31:46.416Z</time>
      </trkpt>
      <trkpt lat="46.84959" lon="7.16381">
        <ele>572.94</ele>
        <time>2021-03-31T12:31:45.111Z</time>
      </trkpt>
      <trkpt lat="46.84956" lon="7.16377">
        <ele>573.46</ele>
        <time>2021-03-31T12:31:44.186Z</time>
      </trkpt>
      <trkpt lat="46.84953" lon="7.16374">
        <ele>573.8</ele>
        <time>2021-03-31T12:31:43.358Z</time>
      </trkpt>
      <trkpt lat="46.84952" lon="7.16374">
        <ele>573.78</ele>
        <time>2021-03-31T12:31:42.081Z</time>
      </trkpt>
      <trkpt lat="46.84949" lon="7.16375">
        <ele>573.89</ele>
        <time>2021-03-31T12:31:41.242Z</time>
      </trkpt>
      <trkpt lat="46.84946" lon="7.16354">
        <ele>573.79</ele>
        <time>2021-03-31T12:31:24.911Z</time>
      </trkpt>
      <trkpt lat="46.84944" lon="7.16345">
        <ele>573.67</ele>
        <time>2021-03-31T12:31:16.775Z</time>
      </trkpt>
      <trkpt lat="46.84943" lon="7.16337">
        <ele>573.67</ele>
        <time>2021-03-31T12:31:10.970Z</time>
      </trkpt>
      <trkpt lat="46.8494" lon="7.16331">
        <ele>573.63</ele>
        <time>2021-03-31T12:31:05.253Z</time>
      </trkpt>
      <trkpt lat="46.84937" lon="7.16325">
        <ele>573.66</ele>
        <time>2021-03-31T12:31:00.388Z</time>
      </trkpt>
      <trkpt lat="46.84929" lon="7.16315">
        <ele>573.93</ele>
        <time>2021-03-31T12:30:57.202Z</time>
      </trkpt>
      <trkpt lat="46.84924" lon="7.16306">
        <ele>573.85</ele>
        <time>2021-03-31T12:30:48.084Z</time>
      </trkpt>
      <trkpt lat="46.84922" lon="7.16301">
        <ele>573.79</ele>
        <time>2021-03-31T12:30:43.283Z</time>
      </trkpt>
      <trkpt lat="46.84919" lon="7.16294">
        <ele>573.64</ele>
        <time>2021-03-31T12:30:35.493Z</time>
      </trkpt>
      <trkpt lat="46.84916" lon="7.16281">
        <ele>573.18</ele>
        <time>2021-03-31T12:30:18.479Z</time>
      </trkpt>
      <trkpt lat="46.84914" lon="7.16273">
        <ele>572.98</ele>
        <time>2021-03-31T12:30:09.610Z</time>
      </trkpt>
      <trkpt lat="46.84911" lon="7.16268">
        <ele>572.93</ele>
        <time>2021-03-31T12:30:04.332Z</time>
      </trkpt>
      <trkpt lat="46.84907" lon="7.16263">
        <ele>572.83</ele>
        <time>2021-03-31T12:29:57.682Z</time>
      </trkpt>
      <trkpt lat="46.84893" lon="7.16253">
        <ele>572.36</ele>
        <time>2021-03-31T12:29:35.213Z</time>
      </trkpt>
      <trkpt lat="46.84888" lon="7.16248">
        <ele>572</ele>
        <time>2021-03-31T12:29:23.432Z</time>
      </trkpt>
      <trkpt lat="46.84884" lon="7.16243">
        <ele>571.71</ele>
        <time>2021-03-31T12:29:13.496Z</time>
      </trkpt>
      <trkpt lat="46.84881" lon="7.16238">
        <ele>571.27</ele>
        <time>2021-03-31T12:29:01.533Z</time>
      </trkpt>
      <trkpt lat="46.84877" lon="7.16229">
        <ele>570.83</ele>
        <time>2021-03-31T12:28:47.204Z</time>
      </trkpt>
      <trkpt lat="46.84872" lon="7.16217">
        <ele>570.3</ele>
        <time>2021-03-31T12:28:29.055Z</time>
      </trkpt>
      <trkpt lat="46.8487" lon="7.16208">
        <ele>570.05</ele>
        <time>2021-03-31T12:28:18.602Z</time>
      </trkpt>
      <trkpt lat="46.84868" lon="7.16198">
        <ele>569.88</ele>
        <time>2021-03-31T12:28:09.086Z</time>
      </trkpt>
      <trkpt lat="46.84868" lon="7.16199">
        <ele>569.88</ele>
        <time>2021-03-31T12:28:08.372Z</time>
      </trkpt>
      <trkpt lat="46.84867" lon="7.16197">
        <ele>569.71</ele>
        <time>2021-03-31T12:28:03.759Z</time>
      </trkpt>
      <trkpt lat="46.84866" lon="7.16184">
        <ele>569.44</ele>
        <time>2021-03-31T12:27:50.855Z</time>
      </trkpt>
      <trkpt lat="46.84865" lon="7.16167">
        <ele>569.15</ele>
        <time>2021-03-31T12:27:35.087Z</time>
      </trkpt>
      <trkpt lat="46.84863" lon="7.16153">
        <ele>568.85</ele>
        <time>2021-03-31T12:27:20.891Z</time>
      </trkpt>
      <trkpt lat="46.84861" lon="7.16137">
        <ele>568.66</ele>
        <time>2021-03-31T12:27:07.129Z</time>
      </trkpt>
      <trkpt lat="46.84856" lon="7.16112">
        <ele>568.26</ele>
        <time>2021-03-31T12:26:43.724Z</time>
      </trkpt>
      <trkpt lat="46.84855" lon="7.16103">
        <ele>568.07</ele>
        <time>2021-03-31T12:26:34.697Z</time>
      </trkpt>
      <trkpt lat="46.84853" lon="7.1606">
        <ele>567.35</ele>
        <time>2021-03-31T12:25:55.068Z</time>
      </trkpt>
      <trkpt lat="46.84852" lon="7.16033">
        <ele>567.09</ele>
        <time>2021-03-31T12:25:32.916Z</time>
      </trkpt>
      <trkpt lat="46.8485" lon="7.16012">
        <ele>566.58</ele>
        <time>2021-03-31T12:25:10.590Z</time>
      </trkpt>
      <trkpt lat="46.84847" lon="7.15992">
        <ele>566.38</ele>
        <time>2021-03-31T12:24:53.776Z</time>
      </trkpt>
      <trkpt lat="46.84846" lon="7.15983">
        <ele>566.16</ele>
        <time>2021-03-31T12:24:44.161Z</time>
      </trkpt>
      <trkpt lat="46.84846" lon="7.15976">
        <ele>566.36</ele>
        <time>2021-03-31T12:24:42.930Z</time>
      </trkpt>
      <trkpt lat="46.84848" lon="7.15965">
        <ele>566.3</ele>
        <time>2021-03-31T12:24:34.189Z</time>
      </trkpt>
      <trkpt lat="46.84852" lon="7.15949">
        <ele>566.07</ele>
        <time>2021-03-31T12:24:19.346Z</time>
      </trkpt>
      <trkpt lat="46.84854" lon="7.15939">
        <ele>565.98</ele>
        <time>2021-03-31T12:24:10.937Z</time>
      </trkpt>
      <trkpt lat="46.84854" lon="7.15932">
        <ele>565.97</ele>
        <time>2021-03-31T12:24:05.843Z</time>
      </trkpt>
      <trkpt lat="46.84854" lon="7.15926">
        <ele>566.07</ele>
        <time>2021-03-31T12:24:04.583Z</time>
      </trkpt>
      <trkpt lat="46.84851" lon="7.15909">
        <ele>565.86</ele>
        <time>2021-03-31T12:23:49.662Z</time>
      </trkpt>
      <trkpt lat="46.84845" lon="7.1587">
        <ele>565.21</ele>
        <time>2021-03-31T12:23:13.186Z</time>
      </trkpt>
      <trkpt lat="46.84843" lon="7.15858">
        <ele>564.56</ele>
        <time>2021-03-31T12:22:54.466Z</time>
      </trkpt>
      <trkpt lat="46.84842" lon="7.15827">
        <ele>563.89</ele>
        <time>2021-03-31T12:22:23.306Z</time>
      </trkpt>
      <trkpt lat="46.84842" lon="7.15809">
        <ele>563.64</ele>
        <time>2021-03-31T12:22:07.522Z</time>
      </trkpt>
      <trkpt lat="46.84842" lon="7.15782">
        <ele>563.74</ele>
        <time>2021-03-31T12:21:49.727Z</time>
      </trkpt>
      <trkpt lat="46.84843" lon="7.15744">
        <ele>563.86</ele>
        <time>2021-03-31T12:21:24.377Z</time>
      </trkpt>
      <trkpt lat="46.84845" lon="7.15708">
        <ele>564.14</ele>
        <time>2021-03-31T12:21:15.501Z</time>
      </trkpt>
      <trkpt lat="46.84847" lon="7.15691">
        <ele>564.69</ele>
        <time>2021-03-31T12:21:12.599Z</time>
      </trkpt>
      <trkpt lat="46.84848" lon="7.15655">
        <ele>563.38</ele>
        <time>2021-03-31T12:20:26.681Z</time>
      </trkpt>
      <trkpt lat="46.84848" lon="7.1564">
        <ele>561.54</ele>
        <time>2021-03-31T12:19:45.385Z</time>
      </trkpt>
      <trkpt lat="46.84847" lon="7.15628">
        <ele>560.81</ele>
        <time>2021-03-31T12:19:25.245Z</time>
      </trkpt>
      <trkpt lat="46.84844" lon="7.1561">
        <ele>560.32</ele>
        <time>2021-03-31T12:19:04.768Z</time>
      </trkpt>
      <trkpt lat="46.84842" lon="7.15596">
        <ele>559.86</ele>
        <time>2021-03-31T12:18:47.259Z</time>
      </trkpt>
      <trkpt lat="46.84834" lon="7.15557">
        <ele>559.65</ele>
        <time>2021-03-31T12:18:16.042Z</time>
      </trkpt>
      <trkpt lat="46.84833" lon="7.15548">
        <ele>559.35</ele>
        <time>2021-03-31T12:18:04.801Z</time>
      </trkpt>
      <trkpt lat="46.84833" lon="7.15541">
        <ele>559.45</ele>
        <time>2021-03-31T12:18:03.272Z</time>
      </trkpt>
      <trkpt lat="46.84833" lon="7.15531">
        <ele>559.31</ele>
        <time>2021-03-31T12:17:54.487Z</time>
      </trkpt>
      <trkpt lat="46.84836" lon="7.15489">
        <ele>557.64</ele>
        <time>2021-03-31T12:16:58.937Z</time>
      </trkpt>
      <trkpt lat="46.84836" lon="7.15477">
        <ele>556.79</ele>
        <time>2021-03-31T12:16:35.861Z</time>
      </trkpt>
      <trkpt lat="46.84836" lon="7.1547">
        <ele>556.28</ele>
        <time>2021-03-31T12:16:21.986Z</time>
      </trkpt>
      <trkpt lat="46.84836" lon="7.15464">
        <ele>555.93</ele>
        <time>2021-03-31T12:16:12.246Z</time>
      </trkpt>
      <trkpt lat="46.84831" lon="7.15434">
        <ele>554.75</ele>
        <time>2021-03-31T12:15:32.166Z</time>
      </trkpt>
      <trkpt lat="46.84829" lon="7.15406">
        <ele>554.37</ele>
        <time>2021-03-31T12:15:07.638Z</time>
      </trkpt>
      <trkpt lat="46.8483" lon="7.15402">
        <ele>553.94</ele>
        <time>2021-03-31T12:14:55.913Z</time>
      </trkpt>
      <trkpt lat="46.84828" lon="7.15387">
        <ele>553.16</ele>
        <time>2021-03-31T12:14:33.170Z</time>
      </trkpt>
      <trkpt lat="46.84825" lon="7.15371">
        <ele>552.3</ele>
        <time>2021-03-31T12:14:08.254Z</time>
      </trkpt>
      <trkpt lat="46.84822" lon="7.1536">
        <ele>551.62</ele>
        <time>2021-03-31T12:13:49.245Z</time>
      </trkpt>
      <trkpt lat="46.84821" lon="7.15353">
        <ele>551.04</ele>
        <time>2021-03-31T12:13:33.036Z</time>
      </trkpt>
      <trkpt lat="46.84821" lon="7.15342">
        <ele>550.05</ele>
        <time>2021-03-31T12:13:03.537Z</time>
      </trkpt>
      <trkpt lat="46.84818" lon="7.15337">
        <ele>549.31</ele>
        <time>2021-03-31T12:12:45.226Z</time>
      </trkpt>
      <trkpt lat="46.84815" lon="7.15329">
        <ele>547.82</ele>
        <time>2021-03-31T12:12:20.108Z</time>
      </trkpt>
      <trkpt lat="46.84812" lon="7.1532">
        <ele>546.17</ele>
        <time>2021-03-31T12:11:52.544Z</time>
      </trkpt>
      <trkpt lat="46.8481" lon="7.1531">
        <ele>545.19</ele>
        <time>2021-03-31T12:11:23.861Z</time>
      </trkpt>
      <trkpt lat="46.84809" lon="7.15304">
        <ele>544.53</ele>
        <time>2021-03-31T12:11:06.859Z</time>
      </trkpt>
      <trkpt lat="46.84807" lon="7.15291">
        <ele>543.35</ele>
        <time>2021-03-31T12:10:32.157Z</time>
      </trkpt>
      <trkpt lat="46.84804" lon="7.15271">
        <ele>541.77</ele>
        <time>2021-03-31T12:09:48.724Z</time>
      </trkpt>
      <trkpt lat="46.84802" lon="7.15262">
        <ele>540.16</ele>
        <time>2021-03-31T12:09:22.671Z</time>
      </trkpt>
      <trkpt lat="46.84798" lon="7.15252">
        <ele>539.17</ele>
        <time>2021-03-31T12:08:54.261Z</time>
      </trkpt>
      <trkpt lat="46.84797" lon="7.15249">
        <ele>538.92</ele>
        <time>2021-03-31T12:08:47.433Z</time>
      </trkpt>
      <trkpt lat="46.84797" lon="7.15247">
        <ele>538.51</ele>
        <time>2021-03-31T12:08:41.927Z</time>
      </trkpt>
      <trkpt lat="46.84798" lon="7.15242">
        <ele>538.01</ele>
        <time>2021-03-31T12:08:27.585Z</time>
      </trkpt>
      <trkpt lat="46.84799" lon="7.15234">
        <ele>536.78</ele>
        <time>2021-03-31T12:08:05.196Z</time>
      </trkpt>
      <trkpt lat="46.84798" lon="7.15223">
        <ele>535.38</ele>
        <time>2021-03-31T12:07:34.645Z</time>
      </trkpt>
      <trkpt lat="46.84796" lon="7.15217">
        <ele>534.63</ele>
        <time>2021-03-31T12:07:16.270Z</time>
      </trkpt>
      <trkpt lat="46.84794" lon="7.1521">
        <ele>533.64</ele>
        <time>2021-03-31T12:06:55.384Z</time>
      </trkpt>
      <trkpt lat="46.84792" lon="7.15203">
        <ele>533.07</ele>
        <time>2021-03-31T12:06:39.807Z</time>
      </trkpt>
      <trkpt lat="46.8479" lon="7.15197">
        <ele>532.74</ele>
        <time>2021-03-31T12:06:30.052Z</time>
      </trkpt>
      <trkpt lat="46.84783" lon="7.15182">
        <ele>532.16</ele>
        <time>2021-03-31T12:06:07.868Z</time>
      </trkpt>
      <trkpt lat="46.84778" lon="7.15175">
        <ele>532.16</ele>
        <time>2021-03-31T12:06:00.644Z</time>
      </trkpt>
      <trkpt lat="46.84772" lon="7.15168">
        <ele>532.16</ele>
        <time>2021-03-31T12:05:52.633Z</time>
      </trkpt>
      <trkpt lat="46.84766" lon="7.15162">
        <ele>532.08</ele>
        <time>2021-03-31T12:05:44.196Z</time>
      </trkpt>
      <trkpt lat="46.84759" lon="7.15155">
        <ele>532</ele>
        <time>2021-03-31T12:05:34.509Z</time>
      </trkpt>
      <trkpt lat="46.84753" lon="7.15151">
        <ele>531.83</ele>
        <time>2021-03-31T12:05:25.500Z</time>
      </trkpt>
      <trkpt lat="46.84749" lon="7.15149">
        <ele>532</ele>
        <time>2021-03-31T12:05:24.396Z</time>
      </trkpt>
      <trkpt lat="46.84743" lon="7.15146">
        <ele>532</ele>
        <time>2021-03-31T12:05:17.779Z</time>
      </trkpt>
      <trkpt lat="46.84734" lon="7.15141">
        <ele>532</ele>
        <time>2021-03-31T12:05:07.731Z</time>
      </trkpt>
      <trkpt lat="46.8473" lon="7.1514">
        <ele>532.08</ele>
        <time>2021-03-31T12:05:06.417Z</time>
      </trkpt>
      <trkpt lat="46.84727" lon="7.15139">
        <ele>532.08</ele>
        <time>2021-03-31T12:05:03.206Z</time>
      </trkpt>
      <trkpt lat="46.84722" lon="7.15135">
        <ele>532</ele>
        <time>2021-03-31T12:04:56.380Z</time>
      </trkpt>
      <trkpt lat="46.84715" lon="7.15128">
        <ele>531.83</ele>
        <time>2021-03-31T12:04:45.539Z</time>
      </trkpt>
      <trkpt lat="46.8471" lon="7.15125">
        <ele>531.91</ele>
        <time>2021-03-31T12:04:43.681Z</time>
      </trkpt>
      <trkpt lat="46.84694" lon="7.15107">
        <ele>531.83</ele>
        <time>2021-03-31T12:04:21.819Z</time>
      </trkpt>
      <trkpt lat="46.84689" lon="7.15101">
        <ele>531.83</ele>
        <time>2021-03-31T12:04:15.069Z</time>
      </trkpt>
      <trkpt lat="46.84684" lon="7.15093">
        <ele>531.83</ele>
        <time>2021-03-31T12:04:07.333Z</time>
      </trkpt>
      <trkpt lat="46.8468" lon="7.15087">
        <ele>531.83</ele>
        <time>2021-03-31T12:04:01.353Z</time>
      </trkpt>
      <trkpt lat="46.84678" lon="7.1508">
        <ele>531.83</ele>
        <time>2021-03-31T12:03:55.938Z</time>
      </trkpt>
      <trkpt lat="46.84678" lon="7.15081">
        <ele>531.83</ele>
        <time>2021-03-31T12:03:55.224Z</time>
      </trkpt>
      <trkpt lat="46.84676" lon="7.15077">
        <ele>531.83</ele>
        <time>2021-03-31T12:03:51.688Z</time>
      </trkpt>
      <trkpt lat="46.84672" lon="7.15064">
        <ele>531.75</ele>
        <time>2021-03-31T12:03:40.686Z</time>
      </trkpt>
      <trkpt lat="46.84666" lon="7.15044">
        <ele>531.91</ele>
        <time>2021-03-31T12:03:35.275Z</time>
      </trkpt>
      <trkpt lat="46.84664" lon="7.15039">
        <ele>531.83</ele>
        <time>2021-03-31T12:03:30.202Z</time>
      </trkpt>
      <trkpt lat="46.84663" lon="7.15037">
        <ele>531.91</ele>
        <time>2021-03-31T12:03:29.787Z</time>
      </trkpt>
      <trkpt lat="46.84657" lon="7.1503">
        <ele>532</ele>
        <time>2021-03-31T12:03:27.043Z</time>
      </trkpt>
      <trkpt lat="46.84654" lon="7.15032">
        <ele>532</ele>
        <time>2021-03-31T12:03:23.602Z</time>
      </trkpt>
      <trkpt lat="46.84652" lon="7.1503">
        <ele>532.24</ele>
        <time>2021-03-31T12:03:23.051Z</time>
      </trkpt>
      <trkpt lat="46.8465" lon="7.15032">
        <ele>532.57</ele>
        <time>2021-03-31T12:03:22.499Z</time>
      </trkpt>
      <trkpt lat="46.84644" lon="7.15027">
        <ele>532.57</ele>
        <time>2021-03-31T12:03:15.291Z</time>
      </trkpt>
      <trkpt lat="46.84641" lon="7.15025">
        <ele>532.24</ele>
        <time>2021-03-31T12:03:06.336Z</time>
      </trkpt>
      <trkpt lat="46.84636" lon="7.15017">
        <ele>532</ele>
        <time>2021-03-31T12:02:55.339Z</time>
      </trkpt>
      <trkpt lat="46.84631" lon="7.15008">
        <ele>531.91</ele>
        <time>2021-03-31T12:02:46.103Z</time>
      </trkpt>
      <trkpt lat="46.84626" lon="7.15013">
        <ele>533.19</ele>
        <time>2021-03-31T12:02:44.723Z</time>
      </trkpt>
      <trkpt lat="46.84631" lon="7.15032">
        <ele>534.11</ele>
        <time>2021-03-31T12:02:41.805Z</time>
      </trkpt>
      <trkpt lat="46.84638" lon="7.1506">
        <ele>535.41</ele>
        <time>2021-03-31T12:02:37.455Z</time>
      </trkpt>
      <trkpt lat="46.84638" lon="7.15063">
        <ele>535.35</ele>
        <time>2021-03-31T12:02:34.531Z</time>
      </trkpt>
      <trkpt lat="46.84638" lon="7.15065">
        <ele>535.51</ele>
        <time>2021-03-31T12:02:34.219Z</time>
      </trkpt>
      <trkpt lat="46.84637" lon="7.15066">
        <ele>535.75</ele>
        <time>2021-03-31T12:02:33.943Z</time>
      </trkpt>
      <trkpt lat="46.84636" lon="7.15067">
        <ele>536.01</ele>
        <time>2021-03-31T12:02:33.667Z</time>
      </trkpt>
      <trkpt lat="46.84634" lon="7.15067">
        <ele>536.53</ele>
        <time>2021-03-31T12:02:33.212Z</time>
      </trkpt>
      <trkpt lat="46.84631" lon="7.15065">
        <ele>536.9</ele>
        <time>2021-03-31T12:02:32.461Z</time>
      </trkpt>
      <trkpt lat="46.84625" lon="7.15059">
        <ele>537.78</ele>
        <time>2021-03-31T12:02:30.806Z</time>
      </trkpt>
      <trkpt lat="46.84614" lon="7.15045">
        <ele>540.42</ele>
        <time>2021-03-31T12:02:27.485Z</time>
      </trkpt>
      <trkpt lat="46.84603" lon="7.15035">
        <ele>540.58</ele>
        <time>2021-03-31T12:02:22.891Z</time>
      </trkpt>
      <trkpt lat="46.846" lon="7.15031">
        <ele>540.66</ele>
        <time>2021-03-31T12:02:21.576Z</time>
      </trkpt>
      <trkpt lat="46.8459" lon="7.15013">
        <ele>541.3</ele>
        <time>2021-03-31T12:02:17.443Z</time>
      </trkpt>
      <trkpt lat="46.84584" lon="7.15005">
        <ele>541.82</ele>
        <time>2021-03-31T12:02:15.714Z</time>
      </trkpt>
      <trkpt lat="46.84575" lon="7.14989">
        <ele>543.36</ele>
        <time>2021-03-31T12:02:12.488Z</time>
      </trkpt>
      <trkpt lat="46.84572" lon="7.14983">
        <ele>543.28</ele>
        <time>2021-03-31T12:02:06.289Z</time>
      </trkpt>
      <trkpt lat="46.84569" lon="7.14979">
        <ele>543.35</ele>
        <time>2021-03-31T12:02:04.935Z</time>
      </trkpt>
      <trkpt lat="46.84566" lon="7.14976">
        <ele>543.67</ele>
        <time>2021-03-31T12:02:04.107Z</time>
      </trkpt>
      <trkpt lat="46.84563" lon="7.14973">
        <ele>543.86</ele>
        <time>2021-03-31T12:02:03.256Z</time>
      </trkpt>
      <trkpt lat="46.84559" lon="7.14972">
        <ele>544.33</ele>
        <time>2021-03-31T12:02:02.332Z</time>
      </trkpt>
      <trkpt lat="46.84556" lon="7.14971">
        <ele>544.87</ele>
        <time>2021-03-31T12:02:01.631Z</time>
      </trkpt>
      <trkpt lat="46.84552" lon="7.14971">
        <ele>545.86</ele>
        <time>2021-03-31T12:02:00.720Z</time>
      </trkpt>
      <trkpt lat="46.84547" lon="7.14971">
        <ele>546.74</ele>
        <time>2021-03-31T12:01:59.581Z</time>
      </trkpt>
      <trkpt lat="46.84532" lon="7.14975">
        <ele>549.31</ele>
        <time>2021-03-31T12:01:56.109Z</time>
      </trkpt>
      <trkpt lat="46.84513" lon="7.14981">
        <ele>552.17</ele>
        <time>2021-03-31T12:01:51.683Z</time>
      </trkpt>
      <trkpt lat="46.84504" lon="7.14984">
        <ele>553.4</ele>
        <time>2021-03-31T12:01:49.580Z</time>
      </trkpt>
      <trkpt lat="46.84495" lon="7.14987">
        <ele>554.55</ele>
        <time>2021-03-31T12:01:47.478Z</time>
      </trkpt>
      <trkpt lat="46.84493" lon="7.14988">
        <ele>554.89</ele>
        <time>2021-03-31T12:01:46.997Z</time>
      </trkpt>
      <trkpt lat="46.84491" lon="7.14989">
        <ele>555.24</ele>
        <time>2021-03-31T12:01:46.516Z</time>
      </trkpt>
      <trkpt lat="46.8449" lon="7.14991">
        <ele>555.54</ele>
        <time>2021-03-31T12:01:46.130Z</time>
      </trkpt>
      <trkpt lat="46.84481" lon="7.14986">
        <ele>555.44</ele>
        <time>2021-03-31T12:01:35.026Z</time>
      </trkpt>
      <trkpt lat="46.84479" lon="7.14982">
        <ele>555.06</ele>
        <time>2021-03-31T12:01:24.596Z</time>
      </trkpt>
      <trkpt lat="46.84476" lon="7.14973">
        <ele>554.46</ele>
        <time>2021-03-31T12:01:08.012Z</time>
      </trkpt>
      <trkpt lat="46.84473" lon="7.14961">
        <ele>554.26</ele>
        <time>2021-03-31T12:00:56.473Z</time>
      </trkpt>
      <trkpt lat="46.84469" lon="7.14945">
        <ele>553.89</ele>
        <time>2021-03-31T12:00:39.326Z</time>
      </trkpt>
      <trkpt lat="46.84467" lon="7.14938">
        <ele>553.66</ele>
        <time>2021-03-31T12:00:30.209Z</time>
      </trkpt>
      <trkpt lat="46.84465" lon="7.14933">
        <ele>553.6</ele>
        <time>2021-03-31T12:00:25.409Z</time>
      </trkpt>
      <trkpt lat="46.84462" lon="7.14927">
        <ele>553.46</ele>
        <time>2021-03-31T12:00:18.314Z</time>
      </trkpt>
      <trkpt lat="46.8446" lon="7.14923">
        <ele>553.35</ele>
        <time>2021-03-31T12:00:13.281Z</time>
      </trkpt>
      <trkpt lat="46.84454" lon="7.14917">
        <ele>553.24</ele>
        <time>2021-03-31T12:00:04.474Z</time>
      </trkpt>
      <trkpt lat="46.84448" lon="7.14912">
        <ele>553.21</ele>
        <time>2021-03-31T11:59:56.968Z</time>
      </trkpt>
      <trkpt lat="46.8444" lon="7.14907">
        <ele>553.38</ele>
        <time>2021-03-31T11:59:54.144Z</time>
      </trkpt>
      <trkpt lat="46.84426" lon="7.149">
        <ele>553.68</ele>
        <time>2021-03-31T11:59:49.383Z</time>
      </trkpt>
      <trkpt lat="46.84416" lon="7.14897">
        <ele>554.05</ele>
        <time>2021-03-31T11:59:46.615Z</time>
      </trkpt>
      <trkpt lat="46.84406" lon="7.14895">
        <ele>554.37</ele>
        <time>2021-03-31T11:59:43.751Z</time>
      </trkpt>
      <trkpt lat="46.84401" lon="7.14895">
        <ele>554.56</ele>
        <time>2021-03-31T11:59:42.418Z</time>
      </trkpt>
      <trkpt lat="46.84258" lon="7.14908">
        <ele>563.21</ele>
        <time>2021-03-31T11:59:11.030Z</time>
      </trkpt>
      <trkpt lat="46.8425" lon="7.14909">
        <ele>563.92</ele>
        <time>2021-03-31T11:59:09.202Z</time>
      </trkpt>
      <trkpt lat="46.84202" lon="7.14914">
        <ele>564.63</ele>
        <time>2021-03-31T11:58:52.650Z</time>
      </trkpt>
      <trkpt lat="46.84176" lon="7.14919">
        <ele>565.49</ele>
        <time>2021-03-31T11:58:45.289Z</time>
      </trkpt>
      <trkpt lat="46.84161" lon="7.14923">
        <ele>565.59</ele>
        <time>2021-03-31T11:58:30.830Z</time>
      </trkpt>
      <trkpt lat="46.84146" lon="7.14928">
        <ele>565.74</ele>
        <time>2021-03-31T11:58:25.185Z</time>
      </trkpt>
      <trkpt lat="46.84126" lon="7.14936">
        <ele>565.97</ele>
        <time>2021-03-31T11:58:17.711Z</time>
      </trkpt>
      <trkpt lat="46.84108" lon="7.14945">
        <ele>565.95</ele>
        <time>2021-03-31T11:57:57.664Z</time>
      </trkpt>
      <trkpt lat="46.84094" lon="7.14956">
        <ele>566.34</ele>
        <time>2021-03-31T11:57:52.793Z</time>
      </trkpt>
      <trkpt lat="46.84082" lon="7.14968">
        <ele>566.88</ele>
        <time>2021-03-31T11:57:48.886Z</time>
      </trkpt>
      <trkpt lat="46.84086" lon="7.14979">
        <ele>567.59</ele>
        <time>2021-03-31T11:57:46.945Z</time>
      </trkpt>
      <trkpt lat="46.84087" lon="7.14994">
        <ele>568.23</ele>
        <time>2021-03-31T11:57:44.717Z</time>
      </trkpt>
      <trkpt lat="46.84087" lon="7.15002">
        <ele>568.91</ele>
        <time>2021-03-31T11:57:43.471Z</time>
      </trkpt>
      <trkpt lat="46.84085" lon="7.15012">
        <ele>569.59</ele>
        <time>2021-03-31T11:57:41.848Z</time>
      </trkpt>
      <trkpt lat="46.84081" lon="7.15021">
        <ele>570.15</ele>
        <time>2021-03-31T11:57:40.176Z</time>
      </trkpt>
      <trkpt lat="46.84059" lon="7.15073">
        <ele>572.27</ele>
        <time>2021-03-31T11:57:30.248Z</time>
      </trkpt>
      <trkpt lat="46.84051" lon="7.1509">
        <ele>573.12</ele>
        <time>2021-03-31T11:57:27.153Z</time>
      </trkpt>
      <trkpt lat="46.84047" lon="7.15097">
        <ele>574.33</ele>
        <time>2021-03-31T11:57:25.732Z</time>
      </trkpt>
      <trkpt lat="46.84043" lon="7.151">
        <ele>574.67</ele>
        <time>2021-03-31T11:57:24.708Z</time>
      </trkpt>
      <trkpt lat="46.84009" lon="7.15118">
        <ele>574.78</ele>
        <time>2021-03-31T11:56:48.651Z</time>
      </trkpt>
      <trkpt lat="46.83996" lon="7.15123">
        <ele>574.68</ele>
        <time>2021-03-31T11:56:33.597Z</time>
      </trkpt>
      <trkpt lat="46.83979" lon="7.15129">
        <ele>574.74</ele>
        <time>2021-03-31T11:56:16.257Z</time>
      </trkpt>
      <trkpt lat="46.83957" lon="7.15134">
        <ele>574.57</ele>
        <time>2021-03-31T11:55:51.275Z</time>
      </trkpt>
      <trkpt lat="46.83933" lon="7.15139">
        <ele>574.45</ele>
        <time>2021-03-31T11:55:24.774Z</time>
      </trkpt>
      <trkpt lat="46.83908" lon="7.15144">
        <ele>574.1</ele>
        <time>2021-03-31T11:54:54.608Z</time>
      </trkpt>
      <trkpt lat="46.83895" lon="7.15147">
        <ele>573.9</ele>
        <time>2021-03-31T11:54:38.652Z</time>
      </trkpt>
      <trkpt lat="46.83887" lon="7.15149">
        <ele>573.87</ele>
        <time>2021-03-31T11:54:29.885Z</time>
      </trkpt>
      <trkpt lat="46.83877" lon="7.15151">
        <ele>573.84</ele>
        <time>2021-03-31T11:54:19.057Z</time>
      </trkpt>
      <trkpt lat="46.83859" lon="7.1516">
        <ele>573.78</ele>
        <time>2021-03-31T11:53:58.613Z</time>
      </trkpt>
      <trkpt lat="46.83836" lon="7.15175">
        <ele>573.95</ele>
        <time>2021-03-31T11:53:34.793Z</time>
      </trkpt>
      <trkpt lat="46.83813" lon="7.15193">
        <ele>574.71</ele>
        <time>2021-03-31T11:53:27.187Z</time>
      </trkpt>
      <trkpt lat="46.83788" lon="7.15212">
        <ele>576.32</ele>
        <time>2021-03-31T11:53:20.851Z</time>
      </trkpt>
      <trkpt lat="46.83773" lon="7.15226">
        <ele>577.75</ele>
        <time>2021-03-31T11:53:16.798Z</time>
      </trkpt>
      <trkpt lat="46.83756" lon="7.15242">
        <ele>579.58</ele>
        <time>2021-03-31T11:53:12.194Z</time>
      </trkpt>
      <trkpt lat="46.83746" lon="7.15252">
        <ele>580.58</ele>
        <time>2021-03-31T11:53:09.435Z</time>
      </trkpt>
      <trkpt lat="46.83732" lon="7.15266">
        <ele>581.57</ele>
        <time>2021-03-31T11:53:05.658Z</time>
      </trkpt>
      <trkpt lat="46.83728" lon="7.15271">
        <ele>581.88</ele>
        <time>2021-03-31T11:53:04.492Z</time>
      </trkpt>
      <trkpt lat="46.8372" lon="7.15281">
        <ele>582.3</ele>
        <time>2021-03-31T11:53:01.737Z</time>
      </trkpt>
      <trkpt lat="46.83713" lon="7.15294">
        <ele>582.44</ele>
        <time>2021-03-31T11:52:57.725Z</time>
      </trkpt>
      <trkpt lat="46.83703" lon="7.15311">
        <ele>582.59</ele>
        <time>2021-03-31T11:52:52.099Z</time>
      </trkpt>
      <trkpt lat="46.83676" lon="7.15361">
        <ele>581.99</ele>
        <time>2021-03-31T11:52:00.059Z</time>
      </trkpt>
      <trkpt lat="46.83665" lon="7.15382">
        <ele>581.35</ele>
        <time>2021-03-31T11:51:32.127Z</time>
      </trkpt>
      <trkpt lat="46.8365" lon="7.15414">
        <ele>579.91</ele>
        <time>2021-03-31T11:50:42.311Z</time>
      </trkpt>
      <trkpt lat="46.83642" lon="7.15434">
        <ele>579.04</ele>
        <time>2021-03-31T11:50:12.432Z</time>
      </trkpt>
      <trkpt lat="46.83633" lon="7.15456">
        <ele>578.55</ele>
        <time>2021-03-31T11:49:47.836Z</time>
      </trkpt>
      <trkpt lat="46.83628" lon="7.15476">
        <ele>578.35</ele>
        <time>2021-03-31T11:49:30.447Z</time>
      </trkpt>
      <trkpt lat="46.83626" lon="7.15482">
        <ele>578.14</ele>
        <time>2021-03-31T11:49:22.329Z</time>
      </trkpt>
      <trkpt lat="46.83607" lon="7.15555">
        <ele>577.66</ele>
        <time>2021-03-31T11:48:21.568Z</time>
      </trkpt>
      <trkpt lat="46.83601" lon="7.15578">
        <ele>577.4</ele>
        <time>2021-03-31T11:48:01.100Z</time>
      </trkpt>
      <trkpt lat="46.83597" lon="7.15576">
        <ele>577.42</ele>
        <time>2021-03-31T11:47:56.986Z</time>
      </trkpt>
      <trkpt lat="46.83597" lon="7.15574">
        <ele>577.42</ele>
        <time>2021-03-31T11:47:55.559Z</time>
      </trkpt>
      <trkpt lat="46.83597" lon="7.15568">
        <ele>576.8</ele>
        <time>2021-03-31T11:47:39.036Z</time>
      </trkpt>
      <trkpt lat="46.83599" lon="7.15547">
        <ele>574.62</ele>
        <time>2021-03-31T11:46:40.651Z</time>
      </trkpt>
      <trkpt lat="46.83602" lon="7.15529">
        <ele>574.1</ele>
        <time>2021-03-31T11:46:19.461Z</time>
      </trkpt>
      <trkpt lat="46.83603" lon="7.1552">
        <ele>573.68</ele>
        <time>2021-03-31T11:46:06.621Z</time>
      </trkpt>
      <trkpt lat="46.83602" lon="7.15515">
        <ele>573.37</ele>
        <time>2021-03-31T11:45:58.037Z</time>
      </trkpt>
      <trkpt lat="46.836" lon="7.1551">
        <ele>573.37</ele>
        <time>2021-03-31T11:45:53.902Z</time>
      </trkpt>
      <trkpt lat="46.8359" lon="7.15502">
        <ele>573.37</ele>
        <time>2021-03-31T11:45:42.006Z</time>
      </trkpt>
      <trkpt lat="46.83579" lon="7.15498">
        <ele>573.4</ele>
        <time>2021-03-31T11:45:30.637Z</time>
      </trkpt>
      <trkpt lat="46.83567" lon="7.15497">
        <ele>573.24</ele>
        <time>2021-03-31T11:45:16.352Z</time>
      </trkpt>
      <trkpt lat="46.83548" lon="7.15496">
        <ele>573.26</ele>
        <time>2021-03-31T11:44:56.825Z</time>
      </trkpt>
      <trkpt lat="46.83537" lon="7.15496">
        <ele>572.98</ele>
        <time>2021-03-31T11:44:41.855Z</time>
      </trkpt>
      <trkpt lat="46.83528" lon="7.15494">
        <ele>572.77</ele>
        <time>2021-03-31T11:44:29.810Z</time>
      </trkpt>
      <trkpt lat="46.83487" lon="7.1548">
        <ele>571.73</ele>
        <time>2021-03-31T11:43:33.021Z</time>
      </trkpt>
      <trkpt lat="46.8347" lon="7.15474">
        <ele>571.42</ele>
        <time>2021-03-31T11:43:11.232Z</time>
      </trkpt>
      <trkpt lat="46.83435" lon="7.15466">
        <ele>570.45</ele>
        <time>2021-03-31T11:42:21.886Z</time>
      </trkpt>
      <trkpt lat="46.83421" lon="7.15463">
        <ele>570.63</ele>
        <time>2021-03-31T11:42:16.892Z</time>
      </trkpt>
      <trkpt lat="46.8341" lon="7.1546">
        <ele>570.38</ele>
        <time>2021-03-31T11:42:02.210Z</time>
      </trkpt>
      <trkpt lat="46.83411" lon="7.1546">
        <ele>570.38</ele>
        <time>2021-03-31T11:42:01.166Z</time>
      </trkpt>
      <trkpt lat="46.83404" lon="7.15458">
        <ele>570.14</ele>
        <time>2021-03-31T11:41:50.406Z</time>
      </trkpt>
      <trkpt lat="46.83391" lon="7.15453">
        <ele>570.05</ele>
        <time>2021-03-31T11:41:35.461Z</time>
      </trkpt>
      <trkpt lat="46.83379" lon="7.15445">
        <ele>570.01</ele>
        <time>2021-03-31T11:41:21.303Z</time>
      </trkpt>
      <trkpt lat="46.83366" lon="7.1543">
        <ele>570.15</ele>
        <time>2021-03-31T11:41:15.120Z</time>
      </trkpt>
      <trkpt lat="46.83351" lon="7.15411">
        <ele>570.21</ele>
        <time>2021-03-31T11:40:55.323Z</time>
      </trkpt>
      <trkpt lat="46.83341" lon="7.15395">
        <ele>570.17</ele>
        <time>2021-03-31T11:40:39.458Z</time>
      </trkpt>
      <trkpt lat="46.83331" lon="7.15383">
        <ele>570.14</ele>
        <time>2021-03-31T11:40:25.663Z</time>
      </trkpt>
      <trkpt lat="46.83328" lon="7.15379">
        <ele>570.33</ele>
        <time>2021-03-31T11:40:24.666Z</time>
      </trkpt>
      <trkpt lat="46.83328" lon="7.1538">
        <ele>570.33</ele>
        <time>2021-03-31T11:40:23.952Z</time>
      </trkpt>
      <trkpt lat="46.83321" lon="7.15374">
        <ele>570.52</ele>
        <time>2021-03-31T11:40:21.433Z</time>
      </trkpt>
      <trkpt lat="46.83317" lon="7.15375">
        <ele>569.99</ele>
        <time>2021-03-31T11:40:05.740Z</time>
      </trkpt>
      <trkpt lat="46.83315" lon="7.15376">
        <ele>569.19</ele>
        <time>2021-03-31T11:39:57.231Z</time>
      </trkpt>
      <trkpt lat="46.83312" lon="7.15378">
        <ele>568.36</ele>
        <time>2021-03-31T11:39:43.959Z</time>
      </trkpt>
      <trkpt lat="46.83311" lon="7.15375">
        <ele>567.83</ele>
        <time>2021-03-31T11:39:34.769Z</time>
      </trkpt>
      <trkpt lat="46.8331" lon="7.15371">
        <ele>567.21</ele>
        <time>2021-03-31T11:39:23.041Z</time>
      </trkpt>
      <trkpt lat="46.8331" lon="7.15365">
        <ele>566.79</ele>
        <time>2021-03-31T11:39:11.643Z</time>
      </trkpt>
      <trkpt lat="46.83309" lon="7.15359">
        <ele>566.3</ele>
        <time>2021-03-31T11:38:58.063Z</time>
      </trkpt>
      <trkpt lat="46.83311" lon="7.15351">
        <ele>565.4</ele>
        <time>2021-03-31T11:38:34.607Z</time>
      </trkpt>
      <trkpt lat="46.83313" lon="7.15345">
        <ele>563.67</ele>
        <time>2021-03-31T11:38:16.227Z</time>
      </trkpt>
      <trkpt lat="46.83313" lon="7.15336">
        <ele>561.66</ele>
        <time>2021-03-31T11:37:51.443Z</time>
      </trkpt>
      <trkpt lat="46.8331" lon="7.15308">
        <ele>560.31</ele>
        <time>2021-03-31T11:37:10.840Z</time>
      </trkpt>
      <trkpt lat="46.8331" lon="7.15309">
        <ele>560.31</ele>
        <time>2021-03-31T11:37:10.126Z</time>
      </trkpt>
      <trkpt lat="46.83313" lon="7.15336">
        <ele>561.66</ele>
        <time>2021-03-31T11:37:05.865Z</time>
      </trkpt>
      <trkpt lat="46.83313" lon="7.15345">
        <ele>563.67</ele>
        <time>2021-03-31T11:37:04.462Z</time>
      </trkpt>
      <trkpt lat="46.83311" lon="7.15351">
        <ele>565.4</ele>
        <time>2021-03-31T11:37:03.423Z</time>
      </trkpt>
      <trkpt lat="46.83309" lon="7.15359">
        <ele>566.3</ele>
        <time>2021-03-31T11:37:02.096Z</time>
      </trkpt>
      <trkpt lat="46.8331" lon="7.15365">
        <ele>566.79</ele>
        <time>2021-03-31T11:37:01.133Z</time>
      </trkpt>
      <trkpt lat="46.8331" lon="7.15371">
        <ele>567.21</ele>
        <time>2021-03-31T11:37:00.199Z</time>
      </trkpt>
      <trkpt lat="46.83311" lon="7.15375">
        <ele>567.83</ele>
        <time>2021-03-31T11:36:59.535Z</time>
      </trkpt>
      <trkpt lat="46.83312" lon="7.15378">
        <ele>568.36</ele>
        <time>2021-03-31T11:36:59.015Z</time>
      </trkpt>
      <trkpt lat="46.83311" lon="7.15382">
        <ele>568.31</ele>
        <time>2021-03-31T11:36:55.408Z</time>
      </trkpt>
      <trkpt lat="46.83311" lon="7.15383">
        <ele>568.26</ele>
        <time>2021-03-31T11:36:53.937Z</time>
      </trkpt>
      <trkpt lat="46.83308" lon="7.15394">
        <ele>568.54</ele>
        <time>2021-03-31T11:36:51.703Z</time>
      </trkpt>
      <trkpt lat="46.83305" lon="7.15407">
        <ele>567.65</ele>
        <time>2021-03-31T11:36:27.454Z</time>
      </trkpt>
      <trkpt lat="46.83303" lon="7.15412">
        <ele>567.31</ele>
        <time>2021-03-31T11:36:18.007Z</time>
      </trkpt>
      <trkpt lat="46.83303" lon="7.15417">
        <ele>566.97</ele>
        <time>2021-03-31T11:36:08.778Z</time>
      </trkpt>
      <trkpt lat="46.83295" lon="7.15447">
        <ele>566.79</ele>
        <time>2021-03-31T11:35:43.930Z</time>
      </trkpt>
      <trkpt lat="46.83295" lon="7.15452">
        <ele>566.79</ele>
        <time>2021-03-31T11:35:40.360Z</time>
      </trkpt>
      <trkpt lat="46.83297" lon="7.15457">
        <ele>566.84</ele>
        <time>2021-03-31T11:35:38.960Z</time>
      </trkpt>
      <trkpt lat="46.833" lon="7.1546">
        <ele>566.93</ele>
        <time>2021-03-31T11:35:37.849Z</time>
      </trkpt>
      <trkpt lat="46.83303" lon="7.15464">
        <ele>566.33</ele>
        <time>2021-03-31T11:35:21.503Z</time>
      </trkpt>
      <trkpt lat="46.83306" lon="7.15468">
        <ele>565.94</ele>
        <time>2021-03-31T11:35:10.892Z</time>
      </trkpt>
      <trkpt lat="46.83308" lon="7.15473">
        <ele>565.63</ele>
        <time>2021-03-31T11:35:02.020Z</time>
      </trkpt>
      <trkpt lat="46.83297" lon="7.15483">
        <ele>558.82</ele>
        <time>2021-03-31T11:34:09.877Z</time>
      </trkpt>
      <trkpt lat="46.83293" lon="7.1549">
        <ele>554.24</ele>
        <time>2021-03-31T11:33:44.760Z</time>
      </trkpt>
      <trkpt lat="46.83292" lon="7.155">
        <ele>552.47</ele>
        <time>2021-03-31T11:33:16.929Z</time>
      </trkpt>
      <trkpt lat="46.83291" lon="7.15502">
        <ele>551.96</ele>
        <time>2021-03-31T11:33:10.107Z</time>
      </trkpt>
      <trkpt lat="46.83289" lon="7.155">
        <ele>551.33</ele>
        <time>2021-03-31T11:33:00.352Z</time>
      </trkpt>
      <trkpt lat="46.83281" lon="7.15491">
        <ele>548.73</ele>
        <time>2021-03-31T11:32:19.716Z</time>
      </trkpt>
      <trkpt lat="46.83276" lon="7.15488">
        <ele>546.96</ele>
        <time>2021-03-31T11:31:57.960Z</time>
      </trkpt>
      <trkpt lat="46.83274" lon="7.15484">
        <ele>546.13</ele>
        <time>2021-03-31T11:31:44.316Z</time>
      </trkpt>
      <trkpt lat="46.83268" lon="7.15475">
        <ele>543.12</ele>
        <time>2021-03-31T11:31:09.710Z</time>
      </trkpt>
      <trkpt lat="46.83256" lon="7.15447">
        <ele>536.15</ele>
        <time>2021-03-31T11:29:38.721Z</time>
      </trkpt>
      <trkpt lat="46.83251" lon="7.15436">
        <ele>533.97</ele>
        <time>2021-03-31T11:29:02.352Z</time>
      </trkpt>
      <trkpt lat="46.83246" lon="7.15433">
        <ele>533.45</ele>
        <time>2021-03-31T11:28:48.206Z</time>
      </trkpt>
      <trkpt lat="46.8324" lon="7.15436">
        <ele>532.96</ele>
        <time>2021-03-31T11:28:35.258Z</time>
      </trkpt>
      <trkpt lat="46.83236" lon="7.15441">
        <ele>532.88</ele>
        <time>2021-03-31T11:28:28.876Z</time>
      </trkpt>
      <trkpt lat="46.83234" lon="7.15446">
        <ele>533</ele>
        <time>2021-03-31T11:28:27.735Z</time>
      </trkpt>
      <trkpt lat="46.8323" lon="7.15454">
        <ele>533.18</ele>
        <time>2021-03-31T11:28:25.703Z</time>
      </trkpt>
      <trkpt lat="46.83226" lon="7.15468">
        <ele>533.27</ele>
        <time>2021-03-31T11:28:21.839Z</time>
      </trkpt>
      <trkpt lat="46.83221" lon="7.15484">
        <ele>533.58</ele>
        <time>2021-03-31T11:28:18.200Z</time>
      </trkpt>
      <trkpt lat="46.83216" lon="7.15499">
        <ele>534.59</ele>
        <time>2021-03-31T11:28:15.601Z</time>
      </trkpt>
      <trkpt lat="46.83211" lon="7.15513">
        <ele>535.84</ele>
        <time>2021-03-31T11:28:13.140Z</time>
      </trkpt>
      <trkpt lat="46.83209" lon="7.1552">
        <ele>536.35</ele>
        <time>2021-03-31T11:28:11.958Z</time>
      </trkpt>
      <trkpt lat="46.83208" lon="7.15524">
        <ele>536.78</ele>
        <time>2021-03-31T11:28:11.295Z</time>
      </trkpt>
      <trkpt lat="46.83208" lon="7.15527">
        <ele>536.86</ele>
        <time>2021-03-31T11:28:10.753Z</time>
      </trkpt>
      <trkpt lat="46.83209" lon="7.15531">
        <ele>537.11</ele>
        <time>2021-03-31T11:28:10.089Z</time>
      </trkpt>
      <trkpt lat="46.83212" lon="7.15534">
        <ele>537.11</ele>
        <time>2021-03-31T11:28:06.296Z</time>
      </trkpt>
      <trkpt lat="46.83208" lon="7.15538">
        <ele>536.8</ele>
        <time>2021-03-31T11:27:56.562Z</time>
      </trkpt>
      <trkpt lat="46.83176" lon="7.15593">
        <ele>535.92</ele>
        <time>2021-03-31T11:26:54.960Z</time>
      </trkpt>
      <trkpt lat="46.83175" lon="7.15595">
        <ele>535.04</ele>
        <time>2021-03-31T11:26:48.138Z</time>
      </trkpt>
      <trkpt lat="46.8316" lon="7.1562">
        <ele>534.51</ele>
        <time>2021-03-31T11:26:17.956Z</time>
      </trkpt>
      <trkpt lat="46.83147" lon="7.1564">
        <ele>534.05</ele>
        <time>2021-03-31T11:25:52.598Z</time>
      </trkpt>
      <trkpt lat="46.83119" lon="7.1568">
        <ele>533.45</ele>
        <time>2021-03-31T11:25:05.067Z</time>
      </trkpt>
      <trkpt lat="46.83101" lon="7.15705">
        <ele>533.08</ele>
        <time>2021-03-31T11:24:35.058Z</time>
      </trkpt>
      <trkpt lat="46.83089" lon="7.15721">
        <ele>532.87</ele>
        <time>2021-03-31T11:24:15.830Z</time>
      </trkpt>
      <trkpt lat="46.83078" lon="7.15741">
        <ele>532.84</ele>
        <time>2021-03-31T11:23:57.217Z</time>
      </trkpt>
      <trkpt lat="46.83058" lon="7.15778">
        <ele>532.53</ele>
        <time>2021-03-31T11:23:20.299Z</time>
      </trkpt>
      <trkpt lat="46.83037" lon="7.1582">
        <ele>532.44</ele>
        <time>2021-03-31T11:22:42.276Z</time>
      </trkpt>
      <trkpt lat="46.83025" lon="7.15843">
        <ele>532.75</ele>
        <time>2021-03-31T11:22:35.546Z</time>
      </trkpt>
      <trkpt lat="46.83021" lon="7.15853">
        <ele>532.83</ele>
        <time>2021-03-31T11:22:32.652Z</time>
      </trkpt>
      <trkpt lat="46.83004" lon="7.15918">
        <ele>533.63</ele>
        <time>2021-03-31T11:22:16.685Z</time>
      </trkpt>
      <trkpt lat="46.82992" lon="7.15959">
        <ele>533.89</ele>
        <time>2021-03-31T11:22:05.304Z</time>
      </trkpt>
      <trkpt lat="46.82978" lon="7.1601">
        <ele>534.54</ele>
        <time>2021-03-31T11:21:52.769Z</time>
      </trkpt>
      <trkpt lat="46.82938" lon="7.16178">
        <ele>540.77</ele>
        <time>2021-03-31T11:21:24.006Z</time>
      </trkpt>
      <trkpt lat="46.82933" lon="7.16202">
        <ele>542.81</ele>
        <time>2021-03-31T11:21:20.097Z</time>
      </trkpt>
      <trkpt lat="46.82933" lon="7.16205">
        <ele>543.46</ele>
        <time>2021-03-31T11:21:19.630Z</time>
      </trkpt>
      <trkpt lat="46.82931" lon="7.16228">
        <ele>544.2</ele>
        <time>2021-03-31T11:21:15.728Z</time>
      </trkpt>
      <trkpt lat="46.82931" lon="7.1623">
        <ele>544.93</ele>
        <time>2021-03-31T11:21:15.417Z</time>
      </trkpt>
      <trkpt lat="46.82933" lon="7.16245">
        <ele>545.63</ele>
        <time>2021-03-31T11:21:13.036Z</time>
      </trkpt>
      <trkpt lat="46.82938" lon="7.16272">
        <ele>547.28</ele>
        <time>2021-03-31T11:21:08.678Z</time>
      </trkpt>
      <trkpt lat="46.82941" lon="7.16291">
        <ele>548.82</ele>
        <time>2021-03-31T11:21:05.640Z</time>
      </trkpt>
      <trkpt lat="46.82944" lon="7.16308">
        <ele>550.18</ele>
        <time>2021-03-31T11:21:02.904Z</time>
      </trkpt>
      <trkpt lat="46.82943" lon="7.16322">
        <ele>551.6</ele>
        <time>2021-03-31T11:21:00.711Z</time>
      </trkpt>
      <trkpt lat="46.82941" lon="7.16336">
        <ele>552.84</ele>
        <time>2021-03-31T11:20:58.483Z</time>
      </trkpt>
      <trkpt lat="46.82936" lon="7.16351">
        <ele>554.04</ele>
        <time>2021-03-31T11:20:55.883Z</time>
      </trkpt>
      <trkpt lat="46.82929" lon="7.1637">
        <ele>555.29</ele>
        <time>2021-03-31T11:20:52.521Z</time>
      </trkpt>
      <trkpt lat="46.82925" lon="7.16389">
        <ele>556.61</ele>
        <time>2021-03-31T11:20:49.424Z</time>
      </trkpt>
      <trkpt lat="46.82921" lon="7.1641">
        <ele>558.44</ele>
        <time>2021-03-31T11:20:46.027Z</time>
      </trkpt>
      <trkpt lat="46.82918" lon="7.1643">
        <ele>559.57</ele>
        <time>2021-03-31T11:20:42.837Z</time>
      </trkpt>
      <trkpt lat="46.82916" lon="7.16458">
        <ele>561.1</ele>
        <time>2021-03-31T11:20:38.451Z</time>
      </trkpt>
      <trkpt lat="46.82916" lon="7.16488">
        <ele>562.67</ele>
        <time>2021-03-31T11:20:33.777Z</time>
      </trkpt>
      <trkpt lat="46.82917" lon="7.16527">
        <ele>565.45</ele>
        <time>2021-03-31T11:20:27.696Z</time>
      </trkpt>
      <trkpt lat="46.82918" lon="7.16559">
        <ele>567.74</ele>
        <time>2021-03-31T11:20:22.705Z</time>
      </trkpt>
      <trkpt lat="46.82919" lon="7.16568">
        <ele>568.62</ele>
        <time>2021-03-31T11:20:21.284Z</time>
      </trkpt>
      <trkpt lat="46.82922" lon="7.16578">
        <ele>569.16</ele>
        <time>2021-03-31T11:20:19.583Z</time>
      </trkpt>
      <trkpt lat="46.82922" lon="7.16579">
        <ele>569.71</ele>
        <time>2021-03-31T11:20:19.427Z</time>
      </trkpt>
      <trkpt lat="46.8293" lon="7.16589">
        <ele>571.31</ele>
        <time>2021-03-31T11:20:17.030Z</time>
      </trkpt>
      <trkpt lat="46.82942" lon="7.16604">
        <ele>574.11</ele>
        <time>2021-03-31T11:20:13.434Z</time>
      </trkpt>
      <trkpt lat="46.82949" lon="7.16615">
        <ele>575.98</ele>
        <time>2021-03-31T11:20:11.094Z</time>
      </trkpt>
      <trkpt lat="46.82944" lon="7.16619">
        <ele>576.3</ele>
        <time>2021-03-31T11:20:09.801Z</time>
      </trkpt>
      <trkpt lat="46.82937" lon="7.16623">
        <ele>576.65</ele>
        <time>2021-03-31T11:20:07.952Z</time>
      </trkpt>
      <trkpt lat="46.82933" lon="7.16627">
        <ele>577.36</ele>
        <time>2021-03-31T11:20:06.848Z</time>
      </trkpt>
      <trkpt lat="46.82929" lon="7.16627">
        <ele>577.65</ele>
        <time>2021-03-31T11:20:05.937Z</time>
      </trkpt>
      <trkpt lat="46.82927" lon="7.16627">
        <ele>577.79</ele>
        <time>2021-03-31T11:20:05.482Z</time>
      </trkpt>
      <trkpt lat="46.82925" lon="7.16625">
        <ele>577.61</ele>
        <time>2021-03-31T11:20:00.223Z</time>
      </trkpt>
      <trkpt lat="46.8292" lon="7.16619">
        <ele>577.61</ele>
        <time>2021-03-31T11:19:53.472Z</time>
      </trkpt>
      <trkpt lat="46.82907" lon="7.166">
        <ele>577.36</ele>
        <time>2021-03-31T11:19:31.556Z</time>
      </trkpt>
      <trkpt lat="46.82901" lon="7.16586">
        <ele>577.15</ele>
        <time>2021-03-31T11:19:17.341Z</time>
      </trkpt>
      <trkpt lat="46.82898" lon="7.16579">
        <ele>577.14</ele>
        <time>2021-03-31T11:19:11.347Z</time>
      </trkpt>
      <trkpt lat="46.82894" lon="7.16568">
        <ele>577.23</ele>
        <time>2021-03-31T11:19:08.253Z</time>
      </trkpt>
      <trkpt lat="46.82887" lon="7.16541">
        <ele>577.43</ele>
        <time>2021-03-31T11:19:01.041Z</time>
      </trkpt>
      <trkpt lat="46.82885" lon="7.16528">
        <ele>577.81</ele>
        <time>2021-03-31T11:18:58.695Z</time>
      </trkpt>
      <trkpt lat="46.82883" lon="7.16522">
        <ele>578.06</ele>
        <time>2021-03-31T11:18:57.647Z</time>
      </trkpt>
      <trkpt lat="46.82881" lon="7.16519">
        <ele>578.15</ele>
        <time>2021-03-31T11:18:56.831Z</time>
      </trkpt>
      <trkpt lat="46.82875" lon="7.16516">
        <ele>578.56</ele>
        <time>2021-03-31T11:18:55.488Z</time>
      </trkpt>
      <trkpt lat="46.82869" lon="7.16519">
        <ele>578.99</ele>
        <time>2021-03-31T11:18:54.044Z</time>
      </trkpt>
      <trkpt lat="46.82862" lon="7.16528">
        <ele>579.25</ele>
        <time>2021-03-31T11:18:51.289Z</time>
      </trkpt>
      <trkpt lat="46.82862" lon="7.16527">
        <ele>579.25</ele>
        <time>2021-03-31T11:18:50.575Z</time>
      </trkpt>
      <trkpt lat="46.82839" lon="7.16557">
        <ele>579.52</ele>
        <time>2021-03-31T11:18:39.113Z</time>
      </trkpt>
      <trkpt lat="46.82819" lon="7.16587">
        <ele>579.52</ele>
        <time>2021-03-31T11:18:09.205Z</time>
      </trkpt>
      <trkpt lat="46.82796" lon="7.1662">
        <ele>579.73</ele>
        <time>2021-03-31T11:17:38.623Z</time>
      </trkpt>
      <trkpt lat="46.82787" lon="7.16638">
        <ele>579.84</ele>
        <time>2021-03-31T11:17:24.288Z</time>
      </trkpt>
      <trkpt lat="46.82784" lon="7.16648">
        <ele>580.16</ele>
        <time>2021-03-31T11:17:22.386Z</time>
      </trkpt>
      <trkpt lat="46.82781" lon="7.16673">
        <ele>580.32</ele>
        <time>2021-03-31T11:17:15.968Z</time>
      </trkpt>
      <trkpt lat="46.82778" lon="7.16689">
        <ele>580.48</ele>
        <time>2021-03-31T11:17:12.032Z</time>
      </trkpt>
      <trkpt lat="46.82774" lon="7.16728">
        <ele>582.93</ele>
        <time>2021-03-31T11:17:05.887Z</time>
      </trkpt>
      <trkpt lat="46.82771" lon="7.16764">
        <ele>586.03</ele>
        <time>2021-03-31T11:17:00.237Z</time>
      </trkpt>
      <trkpt lat="46.82768" lon="7.16779">
        <ele>586.77</ele>
        <time>2021-03-31T11:16:57.802Z</time>
      </trkpt>
      <trkpt lat="46.8276" lon="7.16805">
        <ele>587.41</ele>
        <time>2021-03-31T11:16:52.328Z</time>
      </trkpt>
      <trkpt lat="46.8275" lon="7.16831">
        <ele>588.27</ele>
        <time>2021-03-31T11:16:47.098Z</time>
      </trkpt>
      <trkpt lat="46.82749" lon="7.16835">
        <ele>588.59</ele>
        <time>2021-03-31T11:16:46.435Z</time>
      </trkpt>
      <trkpt lat="46.8275" lon="7.16839">
        <ele>588.81</ele>
        <time>2021-03-31T11:16:45.771Z</time>
      </trkpt>
      <trkpt lat="46.82751" lon="7.1684">
        <ele>588.91</ele>
        <time>2021-03-31T11:16:45.495Z</time>
      </trkpt>
      <trkpt lat="46.82748" lon="7.16842">
        <ele>588.93</ele>
        <time>2021-03-31T11:16:42.347Z</time>
      </trkpt>
      <trkpt lat="46.82746" lon="7.16845">
        <ele>588.98</ele>
        <time>2021-03-31T11:16:41.393Z</time>
      </trkpt>
      <trkpt lat="46.82743" lon="7.16849">
        <ele>589.23</ele>
        <time>2021-03-31T11:16:40.512Z</time>
      </trkpt>
      <trkpt lat="46.82741" lon="7.16853">
        <ele>588.98</ele>
        <time>2021-03-31T11:16:33.186Z</time>
      </trkpt>
      <trkpt lat="46.82728" lon="7.16842">
        <ele>591.48</ele>
        <time>2021-03-31T11:16:29.765Z</time>
      </trkpt>
      <trkpt lat="46.82674" lon="7.16803">
        <ele>591.61</ele>
        <time>2021-03-31T11:15:28.918Z</time>
      </trkpt>
      <trkpt lat="46.82675" lon="7.16803">
        <ele>591.61</ele>
        <time>2021-03-31T11:15:27.874Z</time>
      </trkpt>
      <trkpt lat="46.82477" lon="7.1666">
        <ele>591.75</ele>
        <time>2021-03-31T11:11:39.605Z</time>
      </trkpt>
      <trkpt lat="46.82462" lon="7.1665">
        <ele>589.26</ele>
        <time>2021-03-31T11:10:33.240Z</time>
      </trkpt>
      <trkpt lat="46.82457" lon="7.16657">
        <ele>589.62</ele>
        <time>2021-03-31T11:10:31.615Z</time>
      </trkpt>
      <trkpt lat="46.82442" lon="7.16665">
        <ele>589.47</ele>
        <time>2021-03-31T11:10:13.382Z</time>
      </trkpt>
      <trkpt lat="46.8244" lon="7.16667">
        <ele>589.42</ele>
        <time>2021-03-31T11:10:10.264Z</time>
      </trkpt>
      <trkpt lat="46.8243" lon="7.16678">
        <ele>589.36</ele>
        <time>2021-03-31T11:09:56.602Z</time>
      </trkpt>
      <trkpt lat="46.82425" lon="7.16683">
        <ele>589.19</ele>
        <time>2021-03-31T11:09:48.092Z</time>
      </trkpt>
      <trkpt lat="46.82422" lon="7.16684">
        <ele>589.24</ele>
        <time>2021-03-31T11:09:47.053Z</time>
      </trkpt>
      <trkpt lat="46.82417" lon="7.16684">
        <ele>589.27</ele>
        <time>2021-03-31T11:09:42.274Z</time>
      </trkpt>
      <trkpt lat="46.82408" lon="7.16681">
        <ele>589.63</ele>
        <time>2021-03-31T11:09:39.838Z</time>
      </trkpt>
      <trkpt lat="46.82397" lon="7.16678">
        <ele>589.8</ele>
        <time>2021-03-31T11:09:36.010Z</time>
      </trkpt>
      <trkpt lat="46.8239" lon="7.16678">
        <ele>589.96</ele>
        <time>2021-03-31T11:09:33.823Z</time>
      </trkpt>
      <trkpt lat="46.8238" lon="7.16681">
        <ele>590.19</ele>
        <time>2021-03-31T11:09:30.623Z</time>
      </trkpt>
      <trkpt lat="46.82374" lon="7.16683">
        <ele>590.31</ele>
        <time>2021-03-31T11:09:28.625Z</time>
      </trkpt>
      <trkpt lat="46.82365" lon="7.16686">
        <ele>590.5</ele>
        <time>2021-03-31T11:09:25.665Z</time>
      </trkpt>
      <trkpt lat="46.82312" lon="7.16707">
        <ele>592.8</ele>
        <time>2021-03-31T11:09:11.559Z</time>
      </trkpt>
      <trkpt lat="46.82287" lon="7.16717">
        <ele>594.08</ele>
        <time>2021-03-31T11:09:05.337Z</time>
      </trkpt>
      <trkpt lat="46.82278" lon="7.16719">
        <ele>594.4</ele>
        <time>2021-03-31T11:09:02.842Z</time>
      </trkpt>
      <trkpt lat="46.82271" lon="7.16721">
        <ele>594.72</ele>
        <time>2021-03-31T11:09:01.059Z</time>
      </trkpt>
      <trkpt lat="46.82264" lon="7.16721">
        <ele>594.96</ele>
        <time>2021-03-31T11:08:59.124Z</time>
      </trkpt>
      <trkpt lat="46.82257" lon="7.16719">
        <ele>595.23</ele>
        <time>2021-03-31T11:08:57.220Z</time>
      </trkpt>
      <trkpt lat="46.82249" lon="7.16714">
        <ele>595.29</ele>
        <time>2021-03-31T11:08:49.007Z</time>
      </trkpt>
      <trkpt lat="46.82243" lon="7.16708">
        <ele>595.79</ele>
        <time>2021-03-31T11:08:47.352Z</time>
      </trkpt>
      <trkpt lat="46.82235" lon="7.16698">
        <ele>596.15</ele>
        <time>2021-03-31T11:08:44.439Z</time>
      </trkpt>
      <trkpt lat="46.82228" lon="7.16686">
        <ele>596.75</ele>
        <time>2021-03-31T11:08:41.982Z</time>
      </trkpt>
      <trkpt lat="46.82217" lon="7.16664">
        <ele>597.32</ele>
        <time>2021-03-31T11:08:36.627Z</time>
      </trkpt>
      <trkpt lat="46.82204" lon="7.16637">
        <ele>597.79</ele>
        <time>2021-03-31T11:08:29.403Z</time>
      </trkpt>
      <trkpt lat="46.82191" lon="7.16602">
        <ele>597.88</ele>
        <time>2021-03-31T11:08:02.334Z</time>
      </trkpt>
      <trkpt lat="46.82163" lon="7.16522">
        <ele>599.04</ele>
        <time>2021-03-31T11:07:42.219Z</time>
      </trkpt>
      <trkpt lat="46.82148" lon="7.16478">
        <ele>599.88</ele>
        <time>2021-03-31T11:07:31.959Z</time>
      </trkpt>
      <trkpt lat="46.82146" lon="7.16475">
        <ele>599.97</ele>
        <time>2021-03-31T11:07:31.143Z</time>
      </trkpt>
      <trkpt lat="46.82147" lon="7.16475">
        <ele>599.97</ele>
        <time>2021-03-31T11:07:30.099Z</time>
      </trkpt>
      <trkpt lat="46.82143" lon="7.16464">
        <ele>600.06</ele>
        <time>2021-03-31T11:07:27.005Z</time>
      </trkpt>
      <trkpt lat="46.8214" lon="7.16453">
        <ele>600.14</ele>
        <time>2021-03-31T11:07:24.037Z</time>
      </trkpt>
      <trkpt lat="46.8214" lon="7.16442">
        <ele>600.27</ele>
        <time>2021-03-31T11:07:21.527Z</time>
      </trkpt>
      <trkpt lat="46.8214" lon="7.16419">
        <ele>599.93</ele>
        <time>2021-03-31T11:07:01.051Z</time>
      </trkpt>
      <trkpt lat="46.82142" lon="7.16366">
        <ele>600.13</ele>
        <time>2021-03-31T11:06:26.094Z</time>
      </trkpt>
      <trkpt lat="46.82142" lon="7.16344">
        <ele>600.33</ele>
        <time>2021-03-31T11:06:20.819Z</time>
      </trkpt>
      <trkpt lat="46.82143" lon="7.16319">
        <ele>601.14</ele>
        <time>2021-03-31T11:06:16.628Z</time>
      </trkpt>
      <trkpt lat="46.82142" lon="7.16301">
        <ele>601.62</ele>
        <time>2021-03-31T11:06:13.361Z</time>
      </trkpt>
      <trkpt lat="46.82139" lon="7.16285">
        <ele>602.03</ele>
        <time>2021-03-31T11:06:10.279Z</time>
      </trkpt>
      <trkpt lat="46.82128" lon="7.16258">
        <ele>602.59</ele>
        <time>2021-03-31T11:06:03.798Z</time>
      </trkpt>
      <trkpt lat="46.82123" lon="7.16245">
        <ele>602.86</ele>
        <time>2021-03-31T11:06:00.736Z</time>
      </trkpt>
      <trkpt lat="46.82113" lon="7.16225">
        <ele>603.37</ele>
        <time>2021-03-31T11:05:55.843Z</time>
      </trkpt>
      <trkpt lat="46.82099" lon="7.16202">
        <ele>603.87</ele>
        <time>2021-03-31T11:05:49.329Z</time>
      </trkpt>
      <trkpt lat="46.82083" lon="7.16181">
        <ele>604.12</ele>
        <time>2021-03-31T11:05:41.631Z</time>
      </trkpt>
      <trkpt lat="46.82061" lon="7.16152">
        <ele>605.27</ele>
        <time>2021-03-31T11:05:33.796Z</time>
      </trkpt>
      <trkpt lat="46.82047" lon="7.1614">
        <ele>606.32</ele>
        <time>2021-03-31T11:05:30.359Z</time>
      </trkpt>
      <trkpt lat="46.82012" lon="7.16116">
        <ele>608.48</ele>
        <time>2021-03-31T11:05:21.574Z</time>
      </trkpt>
      <trkpt lat="46.81999" lon="7.16108">
        <ele>609.35</ele>
        <time>2021-03-31T11:05:18.516Z</time>
      </trkpt>
      <trkpt lat="46.81945" lon="7.16075">
        <ele>611.66</ele>
        <time>2021-03-31T11:05:03.134Z</time>
      </trkpt>
      <trkpt lat="46.81896" lon="7.16044">
        <ele>612.28</ele>
        <time>2021-03-31T11:04:44.017Z</time>
      </trkpt>
      <trkpt lat="46.81897" lon="7.16044">
        <ele>612.28</ele>
        <time>2021-03-31T11:04:42.973Z</time>
      </trkpt>
      <trkpt lat="46.81887" lon="7.16038">
        <ele>612.89</ele>
        <time>2021-03-31T11:04:40.529Z</time>
      </trkpt>
      <trkpt lat="46.81881" lon="7.16034">
        <ele>612.76</ele>
        <time>2021-03-31T11:04:32.130Z</time>
      </trkpt>
      <trkpt lat="46.81867" lon="7.16026">
        <ele>612.58</ele>
        <time>2021-03-31T11:04:14.509Z</time>
      </trkpt>
      <trkpt lat="46.81846" lon="7.16012">
        <ele>612.36</ele>
        <time>2021-03-31T11:03:48.116Z</time>
      </trkpt>
      <trkpt lat="46.81841" lon="7.16008">
        <ele>612.29</ele>
        <time>2021-03-31T11:03:41.414Z</time>
      </trkpt>
      <trkpt lat="46.81837" lon="7.16005">
        <ele>612.25</ele>
        <time>2021-03-31T11:03:36.305Z</time>
      </trkpt>
      <trkpt lat="46.8181" lon="7.15988">
        <ele>611.8</ele>
        <time>2021-03-31T11:03:00.621Z</time>
      </trkpt>
      <trkpt lat="46.81778" lon="7.15968">
        <ele>611.41</ele>
        <time>2021-03-31T11:02:20.145Z</time>
      </trkpt>
      <trkpt lat="46.81769" lon="7.15962">
        <ele>611.16</ele>
        <time>2021-03-31T11:02:06.711Z</time>
      </trkpt>
      <trkpt lat="46.81758" lon="7.15955">
        <ele>610.46</ele>
        <time>2021-03-31T11:01:43.551Z</time>
      </trkpt>
      <trkpt lat="46.81751" lon="7.15949">
        <ele>609.85</ele>
        <time>2021-03-31T11:01:25.819Z</time>
      </trkpt>
      <trkpt lat="46.81745" lon="7.15941">
        <ele>609.16</ele>
        <time>2021-03-31T11:01:06.595Z</time>
      </trkpt>
      <trkpt lat="46.81738" lon="7.1593">
        <ele>608.19</ele>
        <time>2021-03-31T11:00:40.150Z</time>
      </trkpt>
      <trkpt lat="46.8173" lon="7.15913">
        <ele>606.79</ele>
        <time>2021-03-31T11:00:02.145Z</time>
      </trkpt>
      <trkpt lat="46.81723" lon="7.15917">
        <ele>606.96</ele>
        <time>2021-03-31T10:59:59.791Z</time>
      </trkpt>
      <trkpt lat="46.81716" lon="7.15923">
        <ele>606.79</ele>
        <time>2021-03-31T10:59:49.311Z</time>
      </trkpt>
      <trkpt lat="46.81661" lon="7.15957">
        <ele>606.87</ele>
        <time>2021-03-31T10:58:48.241Z</time>
      </trkpt>
      <trkpt lat="46.81647" lon="7.15966">
        <ele>607.17</ele>
        <time>2021-03-31T10:58:43.281Z</time>
      </trkpt>
      <trkpt lat="46.81635" lon="7.15973">
        <ele>607.51</ele>
        <time>2021-03-31T10:58:39.398Z</time>
      </trkpt>
      <trkpt lat="46.81616" lon="7.15985">
        <ele>608.53</ele>
        <time>2021-03-31T10:58:34.424Z</time>
      </trkpt>
      <trkpt lat="46.8161" lon="7.1599">
        <ele>609.36</ele>
        <time>2021-03-31T10:58:32.851Z</time>
      </trkpt>
      <trkpt lat="46.81603" lon="7.15997">
        <ele>609.63</ele>
        <time>2021-03-31T10:58:30.447Z</time>
      </trkpt>
      <trkpt lat="46.81593" lon="7.16009">
        <ele>610.36</ele>
        <time>2021-03-31T10:58:27.520Z</time>
      </trkpt>
      <trkpt lat="46.81579" lon="7.16026">
        <ele>610.12</ele>
        <time>2021-03-31T10:58:05.914Z</time>
      </trkpt>
      <trkpt lat="46.81555" lon="7.16056">
        <ele>608.34</ele>
        <time>2021-03-31T10:57:05.775Z</time>
      </trkpt>
      <trkpt lat="46.81545" lon="7.16071">
        <ele>607.25</ele>
        <time>2021-03-31T10:56:34.240Z</time>
      </trkpt>
      <trkpt lat="46.81534" lon="7.16088">
        <ele>605.93</ele>
        <time>2021-03-31T10:55:57.135Z</time>
      </trkpt>
      <trkpt lat="46.81523" lon="7.16105">
        <ele>604.63</ele>
        <time>2021-03-31T10:55:20.413Z</time>
      </trkpt>
      <trkpt lat="46.81499" lon="7.16145">
        <ele>601.34</ele>
        <time>2021-03-31T10:53:50.088Z</time>
      </trkpt>
      <trkpt lat="46.81494" lon="7.16153">
        <ele>600.65</ele>
        <time>2021-03-31T10:53:31.240Z</time>
      </trkpt>
      <trkpt lat="46.81492" lon="7.16156">
        <ele>600.34</ele>
        <time>2021-03-31T10:53:22.790Z</time>
      </trkpt>
      <trkpt lat="46.81486" lon="7.16163">
        <ele>599.68</ele>
        <time>2021-03-31T10:53:04.460Z</time>
      </trkpt>
      <trkpt lat="46.8148" lon="7.16169">
        <ele>599.09</ele>
        <time>2021-03-31T10:52:47.791Z</time>
      </trkpt>
      <trkpt lat="46.81473" lon="7.16173">
        <ele>598.72</ele>
        <time>2021-03-31T10:52:34.144Z</time>
      </trkpt>
      <trkpt lat="46.81465" lon="7.16175">
        <ele>598.18</ele>
        <time>2021-03-31T10:52:17.534Z</time>
      </trkpt>
      <trkpt lat="46.81459" lon="7.16177">
        <ele>597.96</ele>
        <time>2021-03-31T10:52:07.985Z</time>
      </trkpt>
      <trkpt lat="46.8145" lon="7.16177">
        <ele>597.17</ele>
        <time>2021-03-31T10:51:46.159Z</time>
      </trkpt>
      <trkpt lat="46.81419" lon="7.16179">
        <ele>596.38</ele>
        <time>2021-03-31T10:51:03.928Z</time>
      </trkpt>
      <trkpt lat="46.81405" lon="7.16181">
        <ele>595.99</ele>
        <time>2021-03-31T10:50:44.251Z</time>
      </trkpt>
      <trkpt lat="46.81398" lon="7.16181">
        <ele>596.1</ele>
        <time>2021-03-31T10:50:41.871Z</time>
      </trkpt>
      <trkpt lat="46.81393" lon="7.16181">
        <ele>595.58</ele>
        <time>2021-03-31T10:50:27.752Z</time>
      </trkpt>
      <trkpt lat="46.81387" lon="7.16179">
        <ele>595.34</ele>
        <time>2021-03-31T10:50:17.760Z</time>
      </trkpt>
      <trkpt lat="46.81382" lon="7.16176">
        <ele>595.06</ele>
        <time>2021-03-31T10:50:07.779Z</time>
      </trkpt>
      <trkpt lat="46.81377" lon="7.16172">
        <ele>594.87</ele>
        <time>2021-03-31T10:49:59.215Z</time>
      </trkpt>
      <trkpt lat="46.81373" lon="7.16166">
        <ele>594.42</ele>
        <time>2021-03-31T10:49:46.353Z</time>
      </trkpt>
      <trkpt lat="46.81361" lon="7.16147">
        <ele>592.86</ele>
        <time>2021-03-31T10:49:03.298Z</time>
      </trkpt>
      <trkpt lat="46.81348" lon="7.16127">
        <ele>590.86</ele>
        <time>2021-03-31T10:48:08.916Z</time>
      </trkpt>
      <trkpt lat="46.81331" lon="7.16102">
        <ele>588.24</ele>
        <time>2021-03-31T10:46:57.451Z</time>
      </trkpt>
      <trkpt lat="46.81306" lon="7.16063">
        <ele>584.51</ele>
        <time>2021-03-31T10:45:16.235Z</time>
      </trkpt>
      <trkpt lat="46.81299" lon="7.1605">
        <ele>583.54</ele>
        <time>2021-03-31T10:44:49.273Z</time>
      </trkpt>
      <trkpt lat="46.81294" lon="7.16039">
        <ele>583.15</ele>
        <time>2021-03-31T10:44:33.677Z</time>
      </trkpt>
      <trkpt lat="46.8129" lon="7.16026">
        <ele>582.84</ele>
        <time>2021-03-31T10:44:19.317Z</time>
      </trkpt>
      <trkpt lat="46.81276" lon="7.15956">
        <ele>582.94</ele>
        <time>2021-03-31T10:43:28.781Z</time>
      </trkpt>
      <trkpt lat="46.8126" lon="7.15877">
        <ele>584.45</ele>
        <time>2021-03-31T10:43:11.921Z</time>
      </trkpt>
      <trkpt lat="46.81256" lon="7.15864">
        <ele>584.72</ele>
        <time>2021-03-31T10:43:09.032Z</time>
      </trkpt>
      <trkpt lat="46.81254" lon="7.15856">
        <ele>584.72</ele>
        <time>2021-03-31T10:43:02.949Z</time>
      </trkpt>
      <trkpt lat="46.81249" lon="7.15847">
        <ele>584.81</ele>
        <time>2021-03-31T10:43:00.099Z</time>
      </trkpt>
      <trkpt lat="46.81243" lon="7.15839">
        <ele>584.72</ele>
        <time>2021-03-31T10:42:50.665Z</time>
      </trkpt>
      <trkpt lat="46.81237" lon="7.15832">
        <ele>584.42</ele>
        <time>2021-03-31T10:42:38.186Z</time>
      </trkpt>
      <trkpt lat="46.81231" lon="7.15826">
        <ele>584.36</ele>
        <time>2021-03-31T10:42:29.977Z</time>
      </trkpt>
      <trkpt lat="46.81208" lon="7.15812">
        <ele>584.19</ele>
        <time>2021-03-31T10:42:01.343Z</time>
      </trkpt>
      <trkpt lat="46.81209" lon="7.15812">
        <ele>584.24</ele>
        <time>2021-03-31T10:42:01.105Z</time>
      </trkpt>
      <trkpt lat="46.81208" lon="7.15812">
        <ele>584.11</ele>
        <time>2021-03-31T10:41:57.270Z</time>
      </trkpt>
      <trkpt lat="46.8119" lon="7.158">
        <ele>584.27</ele>
        <time>2021-03-31T10:41:49.846Z</time>
      </trkpt>
      <trkpt lat="46.81182" lon="7.15794">
        <ele>584.34</ele>
        <time>2021-03-31T10:41:46.458Z</time>
      </trkpt>
      <trkpt lat="46.81179" lon="7.15792">
        <ele>584.53</ele>
        <time>2021-03-31T10:41:45.719Z</time>
      </trkpt>
      <trkpt lat="46.81176" lon="7.15789">
        <ele>584.78</ele>
        <time>2021-03-31T10:41:44.891Z</time>
      </trkpt>
      <trkpt lat="46.81175" lon="7.15785">
        <ele>584.91</ele>
        <time>2021-03-31T10:41:44.161Z</time>
      </trkpt>
      <trkpt lat="46.81174" lon="7.1578">
        <ele>585.11</ele>
        <time>2021-03-31T10:41:43.353Z</time>
      </trkpt>
      <trkpt lat="46.81173" lon="7.15776">
        <ele>585.15</ele>
        <time>2021-03-31T10:41:42.337Z</time>
      </trkpt>
      <trkpt lat="46.81173" lon="7.15764">
        <ele>585.46</ele>
        <time>2021-03-31T10:41:40.143Z</time>
      </trkpt>
      <trkpt lat="46.8117" lon="7.15742">
        <ele>585.71</ele>
        <time>2021-03-31T10:41:34.961Z</time>
      </trkpt>
      <trkpt lat="46.81169" lon="7.15734">
        <ele>585.81</ele>
        <time>2021-03-31T10:41:33.120Z</time>
      </trkpt>
      <trkpt lat="46.81149" lon="7.15674">
        <ele>586.5</ele>
        <time>2021-03-31T10:41:17.479Z</time>
      </trkpt>
      <trkpt lat="46.81149" lon="7.15675">
        <ele>586.5</ele>
        <time>2021-03-31T10:41:16.764Z</time>
      </trkpt>
      <trkpt lat="46.81143" lon="7.15658">
        <ele>587.2</ele>
        <time>2021-03-31T10:41:13.730Z</time>
      </trkpt>
      <trkpt lat="46.81139" lon="7.15649">
        <ele>587.55</ele>
        <time>2021-03-31T10:41:11.940Z</time>
      </trkpt>
      <trkpt lat="46.81135" lon="7.15641">
        <ele>587.83</ele>
        <time>2021-03-31T10:41:10.188Z</time>
      </trkpt>
      <trkpt lat="46.81105" lon="7.15636">
        <ele>589.62</ele>
        <time>2021-03-31T10:41:03.516Z</time>
      </trkpt>
      <trkpt lat="46.81097" lon="7.15632">
        <ele>590.66</ele>
        <time>2021-03-31T10:41:01.590Z</time>
      </trkpt>
      <trkpt lat="46.81093" lon="7.15626">
        <ele>591.29</ele>
        <time>2021-03-31T10:41:00.285Z</time>
      </trkpt>
      <trkpt lat="46.8109" lon="7.15621">
        <ele>591.83</ele>
        <time>2021-03-31T10:40:59.248Z</time>
      </trkpt>
      <trkpt lat="46.81088" lon="7.15612">
        <ele>593.96</ele>
        <time>2021-03-31T10:40:57.773Z</time>
      </trkpt>
      <trkpt lat="46.81088" lon="7.15609">
        <ele>595.02</ele>
        <time>2021-03-31T10:40:57.306Z</time>
      </trkpt>
      <trkpt lat="46.81088" lon="7.1561">
        <ele>595.02</ele>
        <time>2021-03-31T10:40:56.592Z</time>
      </trkpt>
      <trkpt lat="46.81086" lon="7.15577">
        <ele>596.08</ele>
        <time>2021-03-31T10:40:51.020Z</time>
      </trkpt>
      <trkpt lat="46.81084" lon="7.15567">
        <ele>596.94</ele>
        <time>2021-03-31T10:40:49.397Z</time>
      </trkpt>
      <trkpt lat="46.81078" lon="7.15555">
        <ele>597.92</ele>
        <time>2021-03-31T10:40:47.080Z</time>
      </trkpt>
      <trkpt lat="46.8107" lon="7.15543">
        <ele>599.3</ele>
        <time>2021-03-31T10:40:44.469Z</time>
      </trkpt>
      <trkpt lat="46.81063" lon="7.15538">
        <ele>600.2</ele>
        <time>2021-03-31T10:40:42.695Z</time>
      </trkpt>
      <trkpt lat="46.8105" lon="7.15534">
        <ele>601.57</ele>
        <time>2021-03-31T10:40:39.670Z</time>
      </trkpt>
      <trkpt lat="46.81044" lon="7.1553">
        <ele>602.05</ele>
        <time>2021-03-31T10:40:38.168Z</time>
      </trkpt>
      <trkpt lat="46.81039" lon="7.15525">
        <ele>602.59</ele>
        <time>2021-03-31T10:40:36.788Z</time>
      </trkpt>
      <trkpt lat="46.81035" lon="7.15517">
        <ele>603.32</ele>
        <time>2021-03-31T10:40:35.244Z</time>
      </trkpt>
      <trkpt lat="46.81031" lon="7.15507">
        <ele>604.61</ele>
        <time>2021-03-31T10:40:33.438Z</time>
      </trkpt>
      <trkpt lat="46.81031" lon="7.15505">
        <ele>604.95</ele>
        <time>2021-03-31T10:40:33.127Z</time>
      </trkpt>
      <trkpt lat="46.81031" lon="7.15506">
        <ele>604.95</ele>
        <time>2021-03-31T10:40:32.412Z</time>
      </trkpt>
      <trkpt lat="46.81029" lon="7.15501">
        <ele>605.29</ele>
        <time>2021-03-31T10:40:31.510Z</time>
      </trkpt>
      <trkpt lat="46.81025" lon="7.15497">
        <ele>606.22</ele>
        <time>2021-03-31T10:40:30.406Z</time>
      </trkpt>
      <trkpt lat="46.8102" lon="7.15495">
        <ele>607.25</ele>
        <time>2021-03-31T10:40:29.225Z</time>
      </trkpt>
      <trkpt lat="46.81017" lon="7.15495">
        <ele>607.85</ele>
        <time>2021-03-31T10:40:28.542Z</time>
      </trkpt>
      <trkpt lat="46.81012" lon="7.15496">
        <ele>608.79</ele>
        <time>2021-03-31T10:40:27.393Z</time>
      </trkpt>
      <trkpt lat="46.81006" lon="7.15499">
        <ele>610.28</ele>
        <time>2021-03-31T10:40:25.949Z</time>
      </trkpt>
      <trkpt lat="46.81004" lon="7.15503">
        <ele>610.71</ele>
        <time>2021-03-31T10:40:25.177Z</time>
      </trkpt>
      <trkpt lat="46.81005" lon="7.15513">
        <ele>611.45</ele>
        <time>2021-03-31T10:40:23.602Z</time>
      </trkpt>
      <trkpt lat="46.81012" lon="7.1557">
        <ele>615.98</ele>
        <time>2021-03-31T10:40:14.576Z</time>
      </trkpt>
      <trkpt lat="46.81012" lon="7.15575">
        <ele>616.57</ele>
        <time>2021-03-31T10:40:13.796Z</time>
      </trkpt>
      <trkpt lat="46.81012" lon="7.15576">
        <ele>616.57</ele>
        <time>2021-03-31T10:40:13.082Z</time>
      </trkpt>
      <trkpt lat="46.81013" lon="7.15582">
        <ele>617.16</ele>
        <time>2021-03-31T10:40:12.120Z</time>
      </trkpt>
      <trkpt lat="46.81011" lon="7.15588">
        <ele>617.67</ele>
        <time>2021-03-31T10:40:11.079Z</time>
      </trkpt>
      <trkpt lat="46.81007" lon="7.15595">
        <ele>618.27</ele>
        <time>2021-03-31T10:40:09.658Z</time>
      </trkpt>
      <trkpt lat="46.80998" lon="7.15599">
        <ele>619.25</ele>
        <time>2021-03-31T10:40:07.516Z</time>
      </trkpt>
      <trkpt lat="46.80982" lon="7.15604">
        <ele>620.75</ele>
        <time>2021-03-31T10:40:03.790Z</time>
      </trkpt>
      <trkpt lat="46.80979" lon="7.15608">
        <ele>621.04</ele>
        <time>2021-03-31T10:40:02.865Z</time>
      </trkpt>
      <trkpt lat="46.80977" lon="7.15609">
        <ele>621.24</ele>
        <time>2021-03-31T10:40:02.384Z</time>
      </trkpt>
      <trkpt lat="46.80965" lon="7.15612">
        <ele>622.08</ele>
        <time>2021-03-31T10:39:59.611Z</time>
      </trkpt>
      <trkpt lat="46.80959" lon="7.15614">
        <ele>622.59</ele>
        <time>2021-03-31T10:39:58.210Z</time>
      </trkpt>
      <trkpt lat="46.80959" lon="7.15613">
        <ele>622.59</ele>
        <time>2021-03-31T10:39:57.495Z</time>
      </trkpt>
      <trkpt lat="46.80952" lon="7.15615">
        <ele>623.1</ele>
        <time>2021-03-31T10:39:55.871Z</time>
      </trkpt>
      <trkpt lat="46.80946" lon="7.15615">
        <ele>623.36</ele>
        <time>2021-03-31T10:39:54.350Z</time>
      </trkpt>
      <trkpt lat="46.80938" lon="7.15617">
        <ele>623.82</ele>
        <time>2021-03-31T10:39:52.518Z</time>
      </trkpt>
      <trkpt lat="46.80938" lon="7.15622">
        <ele>623.81</ele>
        <time>2021-03-31T10:39:48.849Z</time>
      </trkpt>
      <trkpt lat="46.80886" lon="7.15632">
        <ele>625.84</ele>
        <time>2021-03-31T10:39:34.964Z</time>
      </trkpt>
      <trkpt lat="46.80865" lon="7.15635">
        <ele>626.7</ele>
        <time>2021-03-31T10:39:29.487Z</time>
      </trkpt>
      <trkpt lat="46.80857" lon="7.15636">
        <ele>627.21</ele>
        <time>2021-03-31T10:39:27.771Z</time>
      </trkpt>
      <trkpt lat="46.80849" lon="7.15635">
        <ele>627.46</ele>
        <time>2021-03-31T10:39:25.478Z</time>
      </trkpt>
      <trkpt lat="46.8084" lon="7.15633">
        <ele>627.67</ele>
        <time>2021-03-31T10:39:22.642Z</time>
      </trkpt>
      <trkpt lat="46.80793" lon="7.15615">
        <ele>628</ele>
        <time>2021-03-31T10:38:36.714Z</time>
      </trkpt>
      <trkpt lat="46.80783" lon="7.15612">
        <ele>627.87</ele>
        <time>2021-03-31T10:38:24.654Z</time>
      </trkpt>
      <trkpt lat="46.80738" lon="7.15597">
        <ele>627.29</ele>
        <time>2021-03-31T10:37:30.219Z</time>
      </trkpt>
      <trkpt lat="46.80721" lon="7.15591">
        <ele>627.22</ele>
        <time>2021-03-31T10:37:11.273Z</time>
      </trkpt>
      <trkpt lat="46.80714" lon="7.1559">
        <ele>627.26</ele>
        <time>2021-03-31T10:37:04.521Z</time>
      </trkpt>
      <trkpt lat="46.80701" lon="7.15594">
        <ele>626.91</ele>
        <time>2021-03-31T10:36:46.247Z</time>
      </trkpt>
      <trkpt lat="46.80696" lon="7.15596">
        <ele>626.56</ele>
        <time>2021-03-31T10:36:35.561Z</time>
      </trkpt>
      <trkpt lat="46.80689" lon="7.15597">
        <ele>626.28</ele>
        <time>2021-03-31T10:36:24.008Z</time>
      </trkpt>
      <trkpt lat="46.80685" lon="7.15598">
        <ele>626.28</ele>
        <time>2021-03-31T10:36:19.773Z</time>
      </trkpt>
      <trkpt lat="46.8068" lon="7.15598">
        <ele>625.72</ele>
        <time>2021-03-31T10:36:04.407Z</time>
      </trkpt>
      <trkpt lat="46.80677" lon="7.15611">
        <ele>624.99</ele>
        <time>2021-03-31T10:35:43.465Z</time>
      </trkpt>
      <trkpt lat="46.80677" lon="7.1562">
        <ele>624.4</ele>
        <time>2021-03-31T10:35:27.408Z</time>
      </trkpt>
      <trkpt lat="46.80679" lon="7.15638">
        <ele>622.93</ele>
        <time>2021-03-31T10:34:46.439Z</time>
      </trkpt>
      <trkpt lat="46.80664" lon="7.15642">
        <ele>622.93</ele>
        <time>2021-03-31T10:34:30.526Z</time>
      </trkpt>
      <trkpt lat="46.80655" lon="7.15643">
        <ele>622.64</ele>
        <time>2021-03-31T10:34:17.178Z</time>
      </trkpt>
      <trkpt lat="46.8065" lon="7.15642">
        <ele>622.1</ele>
        <time>2021-03-31T10:34:02.479Z</time>
      </trkpt>
      <trkpt lat="46.80639" lon="7.15696">
        <ele>626.7</ele>
        <time>2021-03-31T10:33:53.668Z</time>
      </trkpt>
      <trkpt lat="46.80609" lon="7.15684">
        <ele>623.52</ele>
        <time>2021-03-31T10:32:34.563Z</time>
      </trkpt>
      <trkpt lat="46.80608" lon="7.15681">
        <ele>623.24</ele>
        <time>2021-03-31T10:32:26.615Z</time>
      </trkpt>
      <trkpt lat="46.80605" lon="7.15679">
        <ele>622.88</ele>
        <time>2021-03-31T10:32:16.787Z</time>
      </trkpt>
      <trkpt lat="46.80601" lon="7.15679">
        <ele>622.71</ele>
        <time>2021-03-31T10:32:09.952Z</time>
      </trkpt>
      <trkpt lat="46.80602" lon="7.15667">
        <ele>620.91</ele>
        <time>2021-03-31T10:31:36.645Z</time>
      </trkpt>
      <trkpt lat="46.80605" lon="7.15635">
        <ele>619.11</ele>
        <time>2021-03-31T10:30:45.845Z</time>
      </trkpt>
      <trkpt lat="46.80593" lon="7.15632">
        <ele>618.29</ele>
        <time>2021-03-31T10:30:20.779Z</time>
      </trkpt>
      <trkpt lat="46.80571" lon="7.15627">
        <ele>617.54</ele>
        <time>2021-03-31T10:29:47.175Z</time>
      </trkpt>
      <trkpt lat="46.80572" lon="7.15627">
        <ele>617.54</ele>
        <time>2021-03-31T10:29:46.131Z</time>
      </trkpt>
      <trkpt lat="46.80568" lon="7.15627">
        <ele>616.79</ele>
        <time>2021-03-31T10:29:30.030Z</time>
      </trkpt>
      <trkpt lat="46.80524" lon="7.15619">
        <ele>614.38</ele>
        <time>2021-03-31T10:28:06.743Z</time>
      </trkpt>
      <trkpt lat="46.80509" lon="7.15617">
        <ele>614.27</ele>
        <time>2021-03-31T10:27:49.897Z</time>
      </trkpt>
      <trkpt lat="46.80507" lon="7.15596">
        <ele>614.5</ele>
        <time>2021-03-31T10:27:44.973Z</time>
      </trkpt>
      <trkpt lat="46.80507" lon="7.15597">
        <ele>614.5</ele>
        <time>2021-03-31T10:27:44.259Z</time>
      </trkpt>
      <trkpt lat="46.80501" lon="7.15557">
        <ele>614.72</ele>
        <time>2021-03-31T10:27:33.707Z</time>
      </trkpt>
      <trkpt lat="46.80499" lon="7.1554">
        <ele>614.67</ele>
        <time>2021-03-31T10:27:20.888Z</time>
      </trkpt>
      <trkpt lat="46.80494" lon="7.15524">
        <ele>614.61</ele>
        <time>2021-03-31T10:27:07.723Z</time>
      </trkpt>
      <trkpt lat="46.8047" lon="7.15478">
        <ele>614.85</ele>
        <time>2021-03-31T10:26:29.918Z</time>
      </trkpt>
      <trkpt lat="46.80461" lon="7.1546">
        <ele>615.08</ele>
        <time>2021-03-31T10:26:24.691Z</time>
      </trkpt>
      <trkpt lat="46.80461" lon="7.15461">
        <ele>615.08</ele>
        <time>2021-03-31T10:26:23.976Z</time>
      </trkpt>
      <trkpt lat="46.80457" lon="7.15454">
        <ele>615.31</ele>
        <time>2021-03-31T10:26:22.294Z</time>
      </trkpt>
      <trkpt lat="46.80444" lon="7.1543">
        <ele>615.76</ele>
        <time>2021-03-31T10:26:15.647Z</time>
      </trkpt>
      <trkpt lat="46.80435" lon="7.15414">
        <ele>616.17</ele>
        <time>2021-03-31T10:26:11.505Z</time>
      </trkpt>
      <trkpt lat="46.80417" lon="7.15379">
        <ele>617.27</ele>
        <time>2021-03-31T10:26:03.417Z</time>
      </trkpt>
      <trkpt lat="46.80393" lon="7.15338">
        <ele>618.45</ele>
        <time>2021-03-31T10:25:52.962Z</time>
      </trkpt>
      <trkpt lat="46.80394" lon="7.15337">
        <ele>618.49</ele>
        <time>2021-03-31T10:25:52.623Z</time>
      </trkpt>
      <trkpt lat="46.80394" lon="7.15335">
        <ele>618.52</ele>
        <time>2021-03-31T10:25:52.191Z</time>
      </trkpt>
      <trkpt lat="46.80393" lon="7.15334">
        <ele>618.55</ele>
        <time>2021-03-31T10:25:51.820Z</time>
      </trkpt>
      <trkpt lat="46.80393" lon="7.15333">
        <ele>618.57</ele>
        <time>2021-03-31T10:25:51.621Z</time>
      </trkpt>
      <trkpt lat="46.80392" lon="7.15333">
        <ele>618.58</ele>
        <time>2021-03-31T10:25:51.255Z</time>
      </trkpt>
      <trkpt lat="46.80391" lon="7.15332">
        <ele>618.58</ele>
        <time>2021-03-31T10:25:49.990Z</time>
      </trkpt>
      <trkpt lat="46.80391" lon="7.15333">
        <ele>618.58</ele>
        <time>2021-03-31T10:25:49.276Z</time>
      </trkpt>
      <trkpt lat="46.8039" lon="7.15333">
        <ele>618.59</ele>
        <time>2021-03-31T10:25:48.910Z</time>
      </trkpt>
      <trkpt lat="46.80378" lon="7.15317">
        <ele>619.09</ele>
        <time>2021-03-31T10:25:44.254Z</time>
      </trkpt>
      <trkpt lat="46.80335" lon="7.15237">
        <ele>620.85</ele>
        <time>2021-03-31T10:25:23.090Z</time>
      </trkpt>
      <trkpt lat="46.8032" lon="7.1521">
        <ele>621.52</ele>
        <time>2021-03-31T10:25:16.076Z</time>
      </trkpt>
      <trkpt lat="46.80318" lon="7.15205">
        <ele>621.59</ele>
        <time>2021-03-31T10:25:14.760Z</time>
      </trkpt>
      <trkpt lat="46.80318" lon="7.15206">
        <ele>621.59</ele>
        <time>2021-03-31T10:25:14.046Z</time>
      </trkpt>
      <trkpt lat="46.8032" lon="7.1521">
        <ele>621.52</ele>
        <time>2021-03-31T10:25:09.682Z</time>
      </trkpt>
      <trkpt lat="46.80335" lon="7.15237">
        <ele>620.85</ele>
        <time>2021-03-31T10:24:36.212Z</time>
      </trkpt>
      <trkpt lat="46.80378" lon="7.15317">
        <ele>619.09</ele>
        <time>2021-03-31T10:23:01.657Z</time>
      </trkpt>
      <trkpt lat="46.8039" lon="7.15333">
        <ele>618.59</ele>
        <time>2021-03-31T10:22:38.047Z</time>
      </trkpt>
      <trkpt lat="46.8039" lon="7.15334">
        <ele>618.57</ele>
        <time>2021-03-31T10:22:37.071Z</time>
      </trkpt>
      <trkpt lat="46.80389" lon="7.15336">
        <ele>618.54</ele>
        <time>2021-03-31T10:22:34.960Z</time>
      </trkpt>
      <trkpt lat="46.8039" lon="7.15337">
        <ele>618.5</ele>
        <time>2021-03-31T10:22:33.147Z</time>
      </trkpt>
      <trkpt lat="46.80391" lon="7.15338">
        <ele>618.47</ele>
        <time>2021-03-31T10:22:31.512Z</time>
      </trkpt>
      <trkpt lat="46.80384" lon="7.15355">
        <ele>618.16</ele>
        <time>2021-03-31T10:22:13.593Z</time>
      </trkpt>
      <trkpt lat="46.80377" lon="7.15366">
        <ele>618.11</ele>
        <time>2021-03-31T10:22:02.364Z</time>
      </trkpt>
      <trkpt lat="46.80362" lon="7.15383">
        <ele>618</ele>
        <time>2021-03-31T10:21:41.441Z</time>
      </trkpt>
      <trkpt lat="46.80358" lon="7.15388">
        <ele>617.89</ele>
        <time>2021-03-31T10:21:34.647Z</time>
      </trkpt>
      <trkpt lat="46.80352" lon="7.15396">
        <ele>617.78</ele>
        <time>2021-03-31T10:21:24.969Z</time>
      </trkpt>
      <trkpt lat="46.80346" lon="7.15405">
        <ele>617.67</ele>
        <time>2021-03-31T10:21:14.803Z</time>
      </trkpt>
      <trkpt lat="46.80346" lon="7.15406">
        <ele>617.65</ele>
        <time>2021-03-31T10:21:13.828Z</time>
      </trkpt>
      <trkpt lat="46.80346" lon="7.15407">
        <ele>617.63</ele>
        <time>2021-03-31T10:21:12.853Z</time>
      </trkpt>
      <trkpt lat="46.80346" lon="7.15408">
        <ele>617.6</ele>
        <time>2021-03-31T10:21:11.877Z</time>
      </trkpt>
      <trkpt lat="46.80345" lon="7.15409">
        <ele>617.56</ele>
        <time>2021-03-31T10:21:10.387Z</time>
      </trkpt>
      <trkpt lat="46.80348" lon="7.15419">
        <ele>617.13</ele>
        <time>2021-03-31T10:20:56.041Z</time>
      </trkpt>
      <trkpt lat="46.80382" lon="7.15507">
        <ele>615.68</ele>
        <time>2021-03-31T10:19:26.701Z</time>
      </trkpt>
      <trkpt lat="46.80401" lon="7.15556">
        <ele>614.89</ele>
        <time>2021-03-31T10:18:37.175Z</time>
      </trkpt>
      <trkpt lat="46.80417" lon="7.15594">
        <ele>614.5</ele>
        <time>2021-03-31T10:18:01.083Z</time>
      </trkpt>
      <trkpt lat="46.80417" lon="7.15595">
        <ele>614.5</ele>
        <time>2021-03-31T10:18:00.369Z</time>
      </trkpt>
      <trkpt lat="46.80418" lon="7.15597">
        <ele>614.11</ele>
        <time>2021-03-31T10:17:53.545Z</time>
      </trkpt>
      <trkpt lat="46.80424" lon="7.15608">
        <ele>613.97</ele>
        <time>2021-03-31T10:17:41.953Z</time>
      </trkpt>
      <trkpt lat="46.80424" lon="7.1561">
        <ele>613.97</ele>
        <time>2021-03-31T10:17:40.525Z</time>
      </trkpt>
      <trkpt lat="46.80424" lon="7.15611">
        <ele>613.96</ele>
        <time>2021-03-31T10:17:39.700Z</time>
      </trkpt>
      <trkpt lat="46.80425" lon="7.15612">
        <ele>613.95</ele>
        <time>2021-03-31T10:17:38.332Z</time>
      </trkpt>
      <trkpt lat="46.80422" lon="7.15627">
        <ele>613.93</ele>
        <time>2021-03-31T10:17:26.974Z</time>
      </trkpt>
      <trkpt lat="46.80421" lon="7.15635">
        <ele>613.8</ele>
        <time>2021-03-31T10:17:19.584Z</time>
      </trkpt>
      <trkpt lat="46.80421" lon="7.15661">
        <ele>612.78</ele>
        <time>2021-03-31T10:16:45.474Z</time>
      </trkpt>
      <trkpt lat="46.80421" lon="7.15663">
        <ele>612.31</ele>
        <time>2021-03-31T10:16:39.963Z</time>
      </trkpt>
      <trkpt lat="46.80421" lon="7.15664">
        <ele>612.31</ele>
        <time>2021-03-31T10:16:39.249Z</time>
      </trkpt>
      <trkpt lat="46.80421" lon="7.15683">
        <ele>611.84</ele>
        <time>2021-03-31T10:16:18.961Z</time>
      </trkpt>
      <trkpt lat="46.80423" lon="7.15698">
        <ele>610.83</ele>
        <time>2021-03-31T10:15:51.494Z</time>
      </trkpt>
      <trkpt lat="46.80425" lon="7.1571">
        <ele>610.22</ele>
        <time>2021-03-31T10:15:33.448Z</time>
      </trkpt>
      <trkpt lat="46.80428" lon="7.15721">
        <ele>609.54</ele>
        <time>2021-03-31T10:15:14.435Z</time>
      </trkpt>
      <trkpt lat="46.80453" lon="7.15793">
        <ele>606.91</ele>
        <time>2021-03-31T10:13:35.160Z</time>
      </trkpt>
      <trkpt lat="46.80453" lon="7.15794">
        <ele>606.91</ele>
        <time>2021-03-31T10:13:34.445Z</time>
      </trkpt>
      <trkpt lat="46.80459" lon="7.15813">
        <ele>604.28</ele>
        <time>2021-03-31T10:12:36.792Z</time>
      </trkpt>
      <trkpt lat="46.80475" lon="7.15858">
        <ele>601.19</ele>
        <time>2021-03-31T10:11:11.695Z</time>
      </trkpt>
      <trkpt lat="46.80492" lon="7.15906">
        <ele>598.8</ele>
        <time>2021-03-31T10:09:57.046Z</time>
      </trkpt>
      <trkpt lat="46.80498" lon="7.15922">
        <ele>598.26</ele>
        <time>2021-03-31T10:09:35.466Z</time>
      </trkpt>
      <trkpt lat="46.80498" lon="7.15923">
        <ele>598.26</ele>
        <time>2021-03-31T10:09:34.752Z</time>
      </trkpt>
      <trkpt lat="46.80499" lon="7.15925">
        <ele>597.72</ele>
        <time>2021-03-31T10:09:27.928Z</time>
      </trkpt>
      <trkpt lat="46.80506" lon="7.15939">
        <ele>596.9</ele>
        <time>2021-03-31T10:09:03.175Z</time>
      </trkpt>
      <trkpt lat="46.80517" lon="7.1596">
        <ele>595.51</ele>
        <time>2021-03-31T10:08:23.113Z</time>
      </trkpt>
      <trkpt lat="46.80527" lon="7.15977">
        <ele>594.27</ele>
        <time>2021-03-31T10:07:48.031Z</time>
      </trkpt>
      <trkpt lat="46.80532" lon="7.15985">
        <ele>593.67</ele>
        <time>2021-03-31T10:07:31.062Z</time>
      </trkpt>
      <trkpt lat="46.80539" lon="7.15996">
        <ele>593.27</ele>
        <time>2021-03-31T10:07:14.393Z</time>
      </trkpt>
      <trkpt lat="46.80548" lon="7.16012">
        <ele>592.31</ele>
        <time>2021-03-31T10:06:45.127Z</time>
      </trkpt>
      <trkpt lat="46.80559" lon="7.1603">
        <ele>591.19</ele>
        <time>2021-03-31T10:06:11.006Z</time>
      </trkpt>
      <trkpt lat="46.80563" lon="7.16038">
        <ele>590.84</ele>
        <time>2021-03-31T10:05:58.499Z</time>
      </trkpt>
      <trkpt lat="46.80567" lon="7.16048">
        <ele>590.39</ele>
        <time>2021-03-31T10:05:43.362Z</time>
      </trkpt>
      <trkpt lat="46.8057" lon="7.16053">
        <ele>590.21</ele>
        <time>2021-03-31T10:05:35.914Z</time>
      </trkpt>
      <trkpt lat="46.8057" lon="7.16054">
        <ele>590.21</ele>
        <time>2021-03-31T10:05:35.200Z</time>
      </trkpt>
      <trkpt lat="46.80578" lon="7.16075">
        <ele>590.03</ele>
        <time>2021-03-31T10:05:16.120Z</time>
      </trkpt>
      <trkpt lat="46.80587" lon="7.16094">
        <ele>589.47</ele>
        <time>2021-03-31T10:04:51.692Z</time>
      </trkpt>
      <trkpt lat="46.80577" lon="7.16103">
        <ele>589.09</ele>
        <time>2021-03-31T10:04:34.272Z</time>
      </trkpt>
      <trkpt lat="46.80577" lon="7.16102">
        <ele>589.09</ele>
        <time>2021-03-31T10:04:33.558Z</time>
      </trkpt>
      <trkpt lat="46.80576" lon="7.16103">
        <ele>588.71</ele>
        <time>2021-03-31T10:04:28.680Z</time>
      </trkpt>
      <trkpt lat="46.80566" lon="7.16114">
        <ele>590.09</ele>
        <time>2021-03-31T10:04:25.829Z</time>
      </trkpt>
      <trkpt lat="46.8056" lon="7.16122">
        <ele>590.87</ele>
        <time>2021-03-31T10:04:23.980Z</time>
      </trkpt>
      <trkpt lat="46.80555" lon="7.1613">
        <ele>591.37</ele>
        <time>2021-03-31T10:04:22.291Z</time>
      </trkpt>
      <trkpt lat="46.80553" lon="7.16143">
        <ele>591.67</ele>
        <time>2021-03-31T10:04:19.734Z</time>
      </trkpt>
      <trkpt lat="46.80552" lon="7.16147">
        <ele>591.98</ele>
        <time>2021-03-31T10:04:19.070Z</time>
      </trkpt>
      <trkpt lat="46.80552" lon="7.16155">
        <ele>591.72</ele>
        <time>2021-03-31T10:04:09.240Z</time>
      </trkpt>
      <trkpt lat="46.80553" lon="7.16162">
        <ele>591.67</ele>
        <time>2021-03-31T10:04:03.604Z</time>
      </trkpt>
      <trkpt lat="46.80558" lon="7.16187">
        <ele>591.32</ele>
        <time>2021-03-31T10:03:40.920Z</time>
      </trkpt>
      <trkpt lat="46.80559" lon="7.16194">
        <ele>591.19</ele>
        <time>2021-03-31T10:03:34.170Z</time>
      </trkpt>
      <trkpt lat="46.8056" lon="7.16207">
        <ele>590.7</ele>
        <time>2021-03-31T10:03:17.309Z</time>
      </trkpt>
      <trkpt lat="46.8056" lon="7.16208">
        <ele>590.47</ele>
        <time>2021-03-31T10:03:14.554Z</time>
      </trkpt>
      <trkpt lat="46.8056" lon="7.16209">
        <ele>590.47</ele>
        <time>2021-03-31T10:03:13.839Z</time>
      </trkpt>
      <trkpt lat="46.8056" lon="7.16227">
        <ele>590.24</ele>
        <time>2021-03-31T10:02:58.329Z</time>
      </trkpt>
      <trkpt lat="46.80561" lon="7.16247">
        <ele>589.98</ele>
        <time>2021-03-31T10:02:40.998Z</time>
      </trkpt>
      <trkpt lat="46.8056" lon="7.16249">
        <ele>589.94</ele>
        <time>2021-03-31T10:02:38.741Z</time>
      </trkpt>
      <trkpt lat="46.8056" lon="7.16265">
        <ele>589.49</ele>
        <time>2021-03-31T10:02:20.414Z</time>
      </trkpt>
      <trkpt lat="46.80559" lon="7.16272">
        <ele>589.44</ele>
        <time>2021-03-31T10:02:14.778Z</time>
      </trkpt>
      <trkpt lat="46.80559" lon="7.16273">
        <ele>589.4</ele>
        <time>2021-03-31T10:02:13.456Z</time>
      </trkpt>
      <trkpt lat="46.80557" lon="7.16281">
        <ele>589.36</ele>
        <time>2021-03-31T10:02:06.964Z</time>
      </trkpt>
      <trkpt lat="46.80554" lon="7.16297">
        <ele>588.67</ele>
        <time>2021-03-31T10:01:44.671Z</time>
      </trkpt>
      <trkpt lat="46.80575" lon="7.16301">
        <ele>589.14</ele>
        <time>2021-03-31T10:01:38.006Z</time>
      </trkpt>
      <trkpt lat="46.8058" lon="7.16301">
        <ele>589.08</ele>
        <time>2021-03-31T10:01:32.144Z</time>
      </trkpt>
      <trkpt lat="46.80581" lon="7.16301">
        <ele>589.08</ele>
        <time>2021-03-31T10:01:31.100Z</time>
      </trkpt>
      <trkpt lat="46.80586" lon="7.16302">
        <ele>589.02</ele>
        <time>2021-03-31T10:01:25.190Z</time>
      </trkpt>
      <trkpt lat="46.80599" lon="7.16303">
        <ele>587.31</ele>
        <time>2021-03-31T10:00:34.316Z</time>
      </trkpt>
      <trkpt lat="46.80597" lon="7.16315">
        <ele>586.7</ele>
        <time>2021-03-31T10:00:16.269Z</time>
      </trkpt>
      <trkpt lat="46.80592" lon="7.16346">
        <ele>586.09</ele>
        <time>2021-03-31T09:59:45.678Z</time>
      </trkpt>
      <trkpt lat="46.80587" lon="7.16375">
        <ele>585.51</ele>
        <time>2021-03-31T09:59:16.828Z</time>
      </trkpt>
      <trkpt lat="46.80586" lon="7.1638">
        <ele>584.92</ele>
        <time>2021-03-31T09:59:02.476Z</time>
      </trkpt>
      <trkpt lat="46.80585" lon="7.16385">
        <ele>584.69</ele>
        <time>2021-03-31T09:58:55.287Z</time>
      </trkpt>
      <trkpt lat="46.80581" lon="7.16404">
        <ele>584.01</ele>
        <time>2021-03-31T09:58:30.462Z</time>
      </trkpt>
      <trkpt lat="46.80579" lon="7.16418">
        <ele>583.7</ele>
        <time>2021-03-31T09:58:16.071Z</time>
      </trkpt>
      <trkpt lat="46.80578" lon="7.16428">
        <ele>583.45</ele>
        <time>2021-03-31T09:58:05.280Z</time>
      </trkpt>
      <trkpt lat="46.80577" lon="7.16447">
        <ele>582.93</ele>
        <time>2021-03-31T09:57:43.838Z</time>
      </trkpt>
      <trkpt lat="46.80574" lon="7.16459">
        <ele>582.6</ele>
        <time>2021-03-31T09:57:29.891Z</time>
      </trkpt>
      <trkpt lat="46.80573" lon="7.16461">
        <ele>582.14</ele>
        <time>2021-03-31T09:57:23.067Z</time>
      </trkpt>
      <trkpt lat="46.80568" lon="7.16485">
        <ele>581.68</ele>
        <time>2021-03-31T09:56:59.320Z</time>
      </trkpt>
      <trkpt lat="46.80562" lon="7.16501">
        <ele>581.34</ele>
        <time>2021-03-31T09:56:41.958Z</time>
      </trkpt>
      <trkpt lat="46.80561" lon="7.16509">
        <ele>581.25</ele>
        <time>2021-03-31T09:56:35.139Z</time>
      </trkpt>
      <trkpt lat="46.8056" lon="7.16513">
        <ele>581.13</ele>
        <time>2021-03-31T09:56:30.255Z</time>
      </trkpt>
      <trkpt lat="46.8056" lon="7.16518">
        <ele>581.02</ele>
        <time>2021-03-31T09:56:25.193Z</time>
      </trkpt>
      <trkpt lat="46.80561" lon="7.16524">
        <ele>581.07</ele>
        <time>2021-03-31T09:56:23.684Z</time>
      </trkpt>
      <trkpt lat="46.80574" lon="7.16549">
        <ele>580.92</ele>
        <time>2021-03-31T09:55:59.726Z</time>
      </trkpt>
      <trkpt lat="46.80578" lon="7.16555">
        <ele>580.62</ele>
        <time>2021-03-31T09:55:49.102Z</time>
      </trkpt>
      <trkpt lat="46.80579" lon="7.16557">
        <ele>580.75</ele>
        <time>2021-03-31T09:55:48.716Z</time>
      </trkpt>
      <trkpt lat="46.8058" lon="7.16557">
        <ele>580.75</ele>
        <time>2021-03-31T09:55:47.672Z</time>
      </trkpt>
      <trkpt lat="46.80594" lon="7.1658">
        <ele>580.88</ele>
        <time>2021-03-31T09:55:27.585Z</time>
      </trkpt>
      <trkpt lat="46.80597" lon="7.16584">
        <ele>580.68</ele>
        <time>2021-03-31T09:55:20.210Z</time>
      </trkpt>
      <trkpt lat="46.80597" lon="7.16585">
        <ele>580.68</ele>
        <time>2021-03-31T09:55:19.496Z</time>
      </trkpt>
      <trkpt lat="46.80636" lon="7.16646">
        <ele>580.68</ele>
        <time>2021-03-31T09:54:19.871Z</time>
      </trkpt>
      <trkpt lat="46.80636" lon="7.16647">
        <ele>580.68</ele>
        <time>2021-03-31T09:54:19.157Z</time>
      </trkpt>
      <trkpt lat="46.80663" lon="7.1669">
        <ele>580.68</ele>
        <time>2021-03-31T09:53:37.475Z</time>
      </trkpt>
      <trkpt lat="46.80663" lon="7.16691">
        <ele>580.68</ele>
        <time>2021-03-31T09:53:36.760Z</time>
      </trkpt>
      <trkpt lat="46.80687" lon="7.1673">
        <ele>580.68</ele>
        <time>2021-03-31T09:52:59.298Z</time>
      </trkpt>
      <trkpt lat="46.80688" lon="7.1673">
        <ele>580.68</ele>
        <time>2021-03-31T09:52:58.255Z</time>
      </trkpt>
      <trkpt lat="46.80708" lon="7.16764">
        <ele>580.68</ele>
        <time>2021-03-31T09:52:26.232Z</time>
      </trkpt>
      <trkpt lat="46.80709" lon="7.16764">
        <ele>580.68</ele>
        <time>2021-03-31T09:52:25.188Z</time>
      </trkpt>
      <trkpt lat="46.80728" lon="7.16796">
        <ele>580.48</ele>
        <time>2021-03-31T09:51:52.888Z</time>
      </trkpt>
      <trkpt lat="46.80733" lon="7.16803">
        <ele>580.79</ele>
        <time>2021-03-31T09:51:51.156Z</time>
      </trkpt>
      <trkpt lat="46.80743" lon="7.16819">
        <ele>581.48</ele>
        <time>2021-03-31T09:51:47.504Z</time>
      </trkpt>
      <trkpt lat="46.80743" lon="7.1682">
        <ele>581.49</ele>
        <time>2021-03-31T09:51:47.269Z</time>
      </trkpt>
      <trkpt lat="46.80742" lon="7.16821">
        <ele>581.52</ele>
        <time>2021-03-31T09:51:46.898Z</time>
      </trkpt>
      <trkpt lat="46.80742" lon="7.16823">
        <ele>581.55</ele>
        <time>2021-03-31T09:51:46.466Z</time>
      </trkpt>
      <trkpt lat="46.80742" lon="7.16824">
        <ele>581.57</ele>
        <time>2021-03-31T09:51:46.266Z</time>
      </trkpt>
      <trkpt lat="46.80736" lon="7.1683">
        <ele>581.5</ele>
        <time>2021-03-31T09:51:37.945Z</time>
      </trkpt>
      <trkpt lat="46.80724" lon="7.16839">
        <ele>582.32</ele>
        <time>2021-03-31T09:51:35.000Z</time>
      </trkpt>
      <trkpt lat="46.80704" lon="7.16852">
        <ele>582.94</ele>
        <time>2021-03-31T09:51:28.562Z</time>
      </trkpt>
      <trkpt lat="46.807" lon="7.16855">
        <ele>583.55</ele>
        <time>2021-03-31T09:51:27.538Z</time>
      </trkpt>
      <trkpt lat="46.80668" lon="7.16874">
        <ele>585.53</ele>
        <time>2021-03-31T09:51:19.782Z</time>
      </trkpt>
      <trkpt lat="46.8066" lon="7.1688">
        <ele>586.08</ele>
        <time>2021-03-31T09:51:17.825Z</time>
      </trkpt>
      <trkpt lat="46.80651" lon="7.16886">
        <ele>586.63</ele>
        <time>2021-03-31T09:51:15.572Z</time>
      </trkpt>
      <trkpt lat="46.80638" lon="7.16896">
        <ele>587.52</ele>
        <time>2021-03-31T09:51:12.359Z</time>
      </trkpt>
      <trkpt lat="46.80633" lon="7.16901">
        <ele>587.71</ele>
        <time>2021-03-31T09:51:10.633Z</time>
      </trkpt>
      <trkpt lat="46.80626" lon="7.1691">
        <ele>588.29</ele>
        <time>2021-03-31T09:51:08.619Z</time>
      </trkpt>
      <trkpt lat="46.80619" lon="7.16921">
        <ele>588.72</ele>
        <time>2021-03-31T09:51:05.354Z</time>
      </trkpt>
      <trkpt lat="46.80616" lon="7.16928">
        <ele>589.12</ele>
        <time>2021-03-31T09:51:04.067Z</time>
      </trkpt>
      <trkpt lat="46.80613" lon="7.16935">
        <ele>589.51</ele>
        <time>2021-03-31T09:51:02.780Z</time>
      </trkpt>
      <trkpt lat="46.80608" lon="7.16948">
        <ele>590.12</ele>
        <time>2021-03-31T09:51:00.533Z</time>
      </trkpt>
      <trkpt lat="46.80603" lon="7.1696">
        <ele>590.72</ele>
        <time>2021-03-31T09:50:58.460Z</time>
      </trkpt>
      <trkpt lat="46.80606" lon="7.16962">
        <ele>590.73</ele>
        <time>2021-03-31T09:50:55.171Z</time>
      </trkpt>
      <trkpt lat="46.80609" lon="7.16964">
        <ele>590.74</ele>
        <time>2021-03-31T09:50:51.882Z</time>
      </trkpt>
      <trkpt lat="46.80612" lon="7.16968">
        <ele>591.23</ele>
        <time>2021-03-31T09:50:50.957Z</time>
      </trkpt>
      <trkpt lat="46.80615" lon="7.16975">
        <ele>591.84</ele>
        <time>2021-03-31T09:50:49.670Z</time>
      </trkpt>
      <trkpt lat="46.80616" lon="7.16987">
        <ele>593.03</ele>
        <time>2021-03-31T09:50:47.786Z</time>
      </trkpt>
      <trkpt lat="46.80617" lon="7.17008">
        <ele>594.71</ele>
        <time>2021-03-31T09:50:44.505Z</time>
      </trkpt>
      <trkpt lat="46.80616" lon="7.17024">
        <ele>596.17</ele>
        <time>2021-03-31T09:50:42.000Z</time>
      </trkpt>
      <trkpt lat="46.80613" lon="7.17035">
        <ele>596.85</ele>
        <time>2021-03-31T09:50:40.155Z</time>
      </trkpt>
      <trkpt lat="46.80608" lon="7.17043">
        <ele>597.97</ele>
        <time>2021-03-31T09:50:38.466Z</time>
      </trkpt>
      <trkpt lat="46.80601" lon="7.1705">
        <ele>599.67</ele>
        <time>2021-03-31T09:50:36.534Z</time>
      </trkpt>
      <trkpt lat="46.80598" lon="7.17053">
        <ele>600.42</ele>
        <time>2021-03-31T09:50:35.706Z</time>
      </trkpt>
      <trkpt lat="46.80593" lon="7.17059">
        <ele>602.19</ele>
        <time>2021-03-31T09:50:34.233Z</time>
      </trkpt>
      <trkpt lat="46.80591" lon="7.17064">
        <ele>603.05</ele>
        <time>2021-03-31T09:50:33.330Z</time>
      </trkpt>
      <trkpt lat="46.80585" lon="7.17083">
        <ele>607.17</ele>
        <time>2021-03-31T09:50:30.069Z</time>
      </trkpt>
      <trkpt lat="46.80581" lon="7.17096">
        <ele>609.68</ele>
        <time>2021-03-31T09:50:27.847Z</time>
      </trkpt>
      <trkpt lat="46.80581" lon="7.171">
        <ele>610.33</ele>
        <time>2021-03-31T09:50:27.223Z</time>
      </trkpt>
      <trkpt lat="46.80581" lon="7.17107">
        <ele>611.31</ele>
        <time>2021-03-31T09:50:26.132Z</time>
      </trkpt>
      <trkpt lat="46.80583" lon="7.17114">
        <ele>613.89</ele>
        <time>2021-03-31T09:50:24.950Z</time>
      </trkpt>
      <trkpt lat="46.8059" lon="7.17132">
        <ele>619.1</ele>
        <time>2021-03-31T09:50:21.723Z</time>
      </trkpt>
      <trkpt lat="46.80593" lon="7.17131">
        <ele>619.21</ele>
        <time>2021-03-31T09:50:20.885Z</time>
      </trkpt>
      <trkpt lat="46.80597" lon="7.17129">
        <ele>619.11</ele>
        <time>2021-03-31T09:50:15.252Z</time>
      </trkpt>
      <trkpt lat="46.80598" lon="7.17133">
        <ele>619.34</ele>
        <time>2021-03-31T09:50:14.588Z</time>
      </trkpt>
      <trkpt lat="46.80602" lon="7.1714">
        <ele>619.89</ele>
        <time>2021-03-31T09:50:13.167Z</time>
      </trkpt>
      <trkpt lat="46.80608" lon="7.17146">
        <ele>620.58</ele>
        <time>2021-03-31T09:50:11.511Z</time>
      </trkpt>
      <trkpt lat="46.80615" lon="7.17146">
        <ele>621.13</ele>
        <time>2021-03-31T09:50:09.917Z</time>
      </trkpt>
      <trkpt lat="46.80621" lon="7.17144">
        <ele>621.67</ele>
        <time>2021-03-31T09:50:08.516Z</time>
      </trkpt>
      <trkpt lat="46.80627" lon="7.17137">
        <ele>622.05</ele>
        <time>2021-03-31T09:50:06.674Z</time>
      </trkpt>
      <trkpt lat="46.80641" lon="7.17117">
        <ele>623.75</ele>
        <time>2021-03-31T09:50:02.215Z</time>
      </trkpt>
      <trkpt lat="46.80654" lon="7.17097">
        <ele>625.27</ele>
        <time>2021-03-31T09:49:57.916Z</time>
      </trkpt>
      <trkpt lat="46.8067" lon="7.17075">
        <ele>627.06</ele>
        <time>2021-03-31T09:49:52.912Z</time>
      </trkpt>
      <trkpt lat="46.80678" lon="7.17066">
        <ele>627.86</ele>
        <time>2021-03-31T09:49:50.613Z</time>
      </trkpt>
      <trkpt lat="46.80682" lon="7.17062">
        <ele>628.29</ele>
        <time>2021-03-31T09:49:49.509Z</time>
      </trkpt>
      <trkpt lat="46.80687" lon="7.17059">
        <ele>628.71</ele>
        <time>2021-03-31T09:49:48.278Z</time>
      </trkpt>
      <trkpt lat="46.80693" lon="7.17057">
        <ele>629.43</ele>
        <time>2021-03-31T09:49:46.877Z</time>
      </trkpt>
      <trkpt lat="46.80697" lon="7.17058">
        <ele>629.7</ele>
        <time>2021-03-31T09:49:46.029Z</time>
      </trkpt>
      <trkpt lat="46.807" lon="7.1706">
        <ele>630.11</ele>
        <time>2021-03-31T09:49:45.278Z</time>
      </trkpt>
      <trkpt lat="46.80705" lon="7.17064">
        <ele>630.49</ele>
        <time>2021-03-31T09:49:44.089Z</time>
      </trkpt>
      <trkpt lat="46.80715" lon="7.1705">
        <ele>630.08</ele>
        <time>2021-03-31T09:49:24.258Z</time>
      </trkpt>
      <trkpt lat="46.80722" lon="7.17044">
        <ele>629.91</ele>
        <time>2021-03-31T09:49:13.777Z</time>
      </trkpt>
      <trkpt lat="46.8073" lon="7.17038">
        <ele>629.65</ele>
        <time>2021-03-31T09:49:01.012Z</time>
      </trkpt>
      <trkpt lat="46.80739" lon="7.17032">
        <ele>629.58</ele>
        <time>2021-03-31T09:48:49.972Z</time>
      </trkpt>
      <trkpt lat="46.80744" lon="7.17031">
        <ele>629.44</ele>
        <time>2021-03-31T09:48:42.911Z</time>
      </trkpt>
      <trkpt lat="46.80748" lon="7.1703">
        <ele>629.33</ele>
        <time>2021-03-31T09:48:37.277Z</time>
      </trkpt>
      <trkpt lat="46.80757" lon="7.17029">
        <ele>629.07</ele>
        <time>2021-03-31T09:48:24.482Z</time>
      </trkpt>
      <trkpt lat="46.80786" lon="7.17027">
        <ele>628.07</ele>
        <time>2021-03-31T09:47:40.218Z</time>
      </trkpt>
      <trkpt lat="46.80801" lon="7.17026">
        <ele>627.47</ele>
        <time>2021-03-31T09:47:15.501Z</time>
      </trkpt>
      <trkpt lat="46.80815" lon="7.17025">
        <ele>626.87</ele>
        <time>2021-03-31T09:46:51.438Z</time>
      </trkpt>
      <trkpt lat="46.8082" lon="7.17025">
        <ele>626.67</ele>
        <time>2021-03-31T09:46:43.203Z</time>
      </trkpt>
      <trkpt lat="46.80829" lon="7.17025">
        <ele>626.37</ele>
        <time>2021-03-31T09:46:29.682Z</time>
      </trkpt>
      <trkpt lat="46.80841" lon="7.17026">
        <ele>626.13</ele>
        <time>2021-03-31T09:46:14.331Z</time>
      </trkpt>
      <trkpt lat="46.80857" lon="7.17028">
        <ele>625.85</ele>
        <time>2021-03-31T09:45:54.387Z</time>
      </trkpt>
      <trkpt lat="46.80878" lon="7.17034">
        <ele>625.59</ele>
        <time>2021-03-31T09:45:29.260Z</time>
      </trkpt>
      <trkpt lat="46.80903" lon="7.17039">
        <ele>625.17</ele>
        <time>2021-03-31T09:44:58.189Z</time>
      </trkpt>
      <trkpt lat="46.80911" lon="7.1704">
        <ele>624.99</ele>
        <time>2021-03-31T09:44:47.645Z</time>
      </trkpt>
      <trkpt lat="46.80921" lon="7.17042">
        <ele>624.99</ele>
        <time>2021-03-31T09:44:37.111Z</time>
      </trkpt>
      <trkpt lat="46.80932" lon="7.17044">
        <ele>624.78</ele>
        <time>2021-03-31T09:44:23.114Z</time>
      </trkpt>
      <trkpt lat="46.80942" lon="7.17047">
        <ele>624.67</ele>
        <time>2021-03-31T09:44:11.294Z</time>
      </trkpt>
      <trkpt lat="46.80947" lon="7.17048">
        <ele>624.57</ele>
        <time>2021-03-31T09:44:04.859Z</time>
      </trkpt>
      <trkpt lat="46.80963" lon="7.17057">
        <ele>623.88</ele>
        <time>2021-03-31T09:43:36.520Z</time>
      </trkpt>
      <trkpt lat="46.8097" lon="7.17063">
        <ele>623.61</ele>
        <time>2021-03-31T09:43:24.338Z</time>
      </trkpt>
      <trkpt lat="46.80977" lon="7.1707">
        <ele>623.42</ele>
        <time>2021-03-31T09:43:13.200Z</time>
      </trkpt>
      <trkpt lat="46.80991" lon="7.17086">
        <ele>622.75</ele>
        <time>2021-03-31T09:42:44.869Z</time>
      </trkpt>
      <trkpt lat="46.81005" lon="7.17103">
        <ele>621.81</ele>
        <time>2021-03-31T09:42:11.290Z</time>
      </trkpt>
      <trkpt lat="46.81006" lon="7.17103">
        <ele>621.81</ele>
        <time>2021-03-31T09:42:10.247Z</time>
      </trkpt>
      <trkpt lat="46.81035" lon="7.17137">
        <ele>620.88</ele>
        <time>2021-03-31T09:41:19.911Z</time>
      </trkpt>
      <trkpt lat="46.81071" lon="7.17178">
        <ele>619.48</ele>
        <time>2021-03-31T09:40:13.665Z</time>
      </trkpt>
      <trkpt lat="46.81081" lon="7.17188">
        <ele>619.09</ele>
        <time>2021-03-31T09:39:55.732Z</time>
      </trkpt>
      <trkpt lat="46.81089" lon="7.17195">
        <ele>618.72</ele>
        <time>2021-03-31T09:39:40.444Z</time>
      </trkpt>
      <trkpt lat="46.81091" lon="7.17196">
        <ele>618.67</ele>
        <time>2021-03-31T09:39:37.628Z</time>
      </trkpt>
      <trkpt lat="46.81093" lon="7.17197">
        <ele>618.61</ele>
        <time>2021-03-31T09:39:34.647Z</time>
      </trkpt>
      <trkpt lat="46.811" lon="7.17199">
        <ele>618.58</ele>
        <time>2021-03-31T09:39:26.905Z</time>
      </trkpt>
      <trkpt lat="46.81118" lon="7.17206">
        <ele>618.2</ele>
        <time>2021-03-31T09:39:02.999Z</time>
      </trkpt>
      <trkpt lat="46.81117" lon="7.17207">
        <ele>618.26</ele>
        <time>2021-03-31T09:39:02.709Z</time>
      </trkpt>
      <trkpt lat="46.81118" lon="7.1721">
        <ele>618.3</ele>
        <time>2021-03-31T09:39:01.949Z</time>
      </trkpt>
      <trkpt lat="46.81118" lon="7.17212">
        <ele>618.28</ele>
        <time>2021-03-31T09:39:00.300Z</time>
      </trkpt>
      <trkpt lat="46.81119" lon="7.17213">
        <ele>618.39</ele>
        <time>2021-03-31T09:39:00.024Z</time>
      </trkpt>
      <trkpt lat="46.81119" lon="7.17214">
        <ele>618.38</ele>
        <time>2021-03-31T09:38:59.199Z</time>
      </trkpt>
      <trkpt lat="46.8112" lon="7.17215">
        <ele>618.33</ele>
        <time>2021-03-31T09:38:57.166Z</time>
      </trkpt>
      <trkpt lat="46.81121" lon="7.17216">
        <ele>618.35</ele>
        <time>2021-03-31T09:38:56.759Z</time>
      </trkpt>
      <trkpt lat="46.81122" lon="7.17216">
        <ele>618.4</ele>
        <time>2021-03-31T09:38:56.520Z</time>
      </trkpt>
      <trkpt lat="46.81123" lon="7.17216">
        <ele>618.43</ele>
        <time>2021-03-31T09:38:56.231Z</time>
      </trkpt>
      <trkpt lat="46.81124" lon="7.17216">
        <ele>618.32</ele>
        <time>2021-03-31T09:38:54.406Z</time>
      </trkpt>
      <trkpt lat="46.81125" lon="7.17216">
        <ele>618.3</ele>
        <time>2021-03-31T09:38:53.128Z</time>
      </trkpt>
      <trkpt lat="46.81128" lon="7.17229">
        <ele>618.63</ele>
        <time>2021-03-31T09:38:50.555Z</time>
      </trkpt>
      <trkpt lat="46.81135" lon="7.17256">
        <ele>619.33</ele>
        <time>2021-03-31T09:38:45.153Z</time>
      </trkpt>
      <trkpt lat="46.81137" lon="7.17256">
        <ele>619.27</ele>
        <time>2021-03-31T09:38:42.275Z</time>
      </trkpt>
      <trkpt lat="46.81138" lon="7.17256">
        <ele>619.35</ele>
        <time>2021-03-31T09:38:42.047Z</time>
      </trkpt>
      <trkpt lat="46.81139" lon="7.17256">
        <ele>619.27</ele>
        <time>2021-03-31T09:38:39.776Z</time>
      </trkpt>
      <trkpt lat="46.8114" lon="7.17257">
        <ele>619.23</ele>
        <time>2021-03-31T09:38:37.963Z</time>
      </trkpt>
      <trkpt lat="46.81141" lon="7.17258">
        <ele>619.23</ele>
        <time>2021-03-31T09:38:36.699Z</time>
      </trkpt>
      <trkpt lat="46.81142" lon="7.1726">
        <ele>619.3</ele>
        <time>2021-03-31T09:38:36.261Z</time>
      </trkpt>
      <trkpt lat="46.81143" lon="7.17262">
        <ele>619.39</ele>
        <time>2021-03-31T09:38:35.867Z</time>
      </trkpt>
      <trkpt lat="46.81143" lon="7.17264">
        <ele>619.38</ele>
        <time>2021-03-31T09:38:34.336Z</time>
      </trkpt>
      <trkpt lat="46.81143" lon="7.17266">
        <ele>619.52</ele>
        <time>2021-03-31T09:38:34.024Z</time>
      </trkpt>
      <trkpt lat="46.81143" lon="7.17267">
        <ele>619.53</ele>
        <time>2021-03-31T09:38:33.788Z</time>
      </trkpt>
      <trkpt lat="46.81143" lon="7.17269">
        <ele>619.58</ele>
        <time>2021-03-31T09:38:33.418Z</time>
      </trkpt>
      <trkpt lat="46.81142" lon="7.1727">
        <ele>619.58</ele>
        <time>2021-03-31T09:38:32.153Z</time>
      </trkpt>
      <trkpt lat="46.81141" lon="7.17272">
        <ele>619.58</ele>
        <time>2021-03-31T09:38:30.384Z</time>
      </trkpt>
      <trkpt lat="46.81147" lon="7.17281">
        <ele>619.8</ele>
        <time>2021-03-31T09:38:27.779Z</time>
      </trkpt>
      <trkpt lat="46.81152" lon="7.17287">
        <ele>619.92</ele>
        <time>2021-03-31T09:38:25.655Z</time>
      </trkpt>
      <trkpt lat="46.81163" lon="7.17299">
        <ele>620.29</ele>
        <time>2021-03-31T09:38:21.557Z</time>
      </trkpt>
      <trkpt lat="46.81165" lon="7.17301">
        <ele>620.31</ele>
        <time>2021-03-31T09:38:20.650Z</time>
      </trkpt>
      <trkpt lat="46.81174" lon="7.17308">
        <ele>620.74</ele>
        <time>2021-03-31T09:38:18.038Z</time>
      </trkpt>
      <trkpt lat="46.81185" lon="7.17314">
        <ele>621.12</ele>
        <time>2021-03-31T09:38:14.728Z</time>
      </trkpt>
      <trkpt lat="46.81192" lon="7.17316">
        <ele>621.24</ele>
        <time>2021-03-31T09:38:12.336Z</time>
      </trkpt>
      <trkpt lat="46.81202" lon="7.17318">
        <ele>621.4</ele>
        <time>2021-03-31T09:38:08.912Z</time>
      </trkpt>
      <trkpt lat="46.8121" lon="7.1732">
        <ele>621.78</ele>
        <time>2021-03-31T09:38:06.919Z</time>
      </trkpt>
      <trkpt lat="46.81232" lon="7.1732">
        <ele>622.29</ele>
        <time>2021-03-31T09:38:00.073Z</time>
      </trkpt>
      <trkpt lat="46.81232" lon="7.17321">
        <ele>622.31</ele>
        <time>2021-03-31T09:37:59.873Z</time>
      </trkpt>
      <trkpt lat="46.81233" lon="7.17327">
        <ele>622.41</ele>
        <time>2021-03-31T09:37:58.565Z</time>
      </trkpt>
      <trkpt lat="46.81237" lon="7.17331">
        <ele>623.17</ele>
        <time>2021-03-31T09:37:57.461Z</time>
      </trkpt>
      <trkpt lat="46.81263" lon="7.17355">
        <ele>627.66</ele>
        <time>2021-03-31T09:37:50.458Z</time>
      </trkpt>
      <trkpt lat="46.81273" lon="7.17364">
        <ele>629.48</ele>
        <time>2021-03-31T09:37:47.783Z</time>
      </trkpt>
      <trkpt lat="46.81283" lon="7.17376">
        <ele>631.56</ele>
        <time>2021-03-31T09:37:44.836Z</time>
      </trkpt>
      <trkpt lat="46.81291" lon="7.17386">
        <ele>633.12</ele>
        <time>2021-03-31T09:37:42.439Z</time>
      </trkpt>
      <trkpt lat="46.813" lon="7.17401">
        <ele>635.16</ele>
        <time>2021-03-31T09:37:39.330Z</time>
      </trkpt>
      <trkpt lat="46.81311" lon="7.1742">
        <ele>637.75</ele>
        <time>2021-03-31T09:37:35.451Z</time>
      </trkpt>
      <trkpt lat="46.81319" lon="7.17436">
        <ele>639.76</ele>
        <time>2021-03-31T09:37:32.363Z</time>
      </trkpt>
      <trkpt lat="46.8133" lon="7.17461">
        <ele>642.4</ele>
        <time>2021-03-31T09:37:27.731Z</time>
      </trkpt>
      <trkpt lat="46.81334" lon="7.17473">
        <ele>643.58</ele>
        <time>2021-03-31T09:37:25.651Z</time>
      </trkpt>
      <trkpt lat="46.81351" lon="7.1752">
        <ele>645.69</ele>
        <time>2021-03-31T09:37:17.527Z</time>
      </trkpt>
      <trkpt lat="46.81351" lon="7.17521">
        <ele>645.69</ele>
        <time>2021-03-31T09:37:16.813Z</time>
      </trkpt>
      <trkpt lat="46.81353" lon="7.17526">
        <ele>647.81</ele>
        <time>2021-03-31T09:37:15.910Z</time>
      </trkpt>
      <trkpt lat="46.81362" lon="7.17552">
        <ele>649.9</ele>
        <time>2021-03-31T09:37:11.369Z</time>
      </trkpt>
      <trkpt lat="46.81365" lon="7.17562">
        <ele>650.61</ele>
        <time>2021-03-31T09:37:09.667Z</time>
      </trkpt>
      <trkpt lat="46.81368" lon="7.17571">
        <ele>651.28</ele>
        <time>2021-03-31T09:37:08.107Z</time>
      </trkpt>
      <trkpt lat="46.81371" lon="7.17587">
        <ele>652.04</ele>
        <time>2021-03-31T09:37:05.522Z</time>
      </trkpt>
      <trkpt lat="46.81374" lon="7.17616">
        <ele>653.35</ele>
        <time>2021-03-31T09:37:01.289Z</time>
      </trkpt>
      <trkpt lat="46.81379" lon="7.1767">
        <ele>655.09</ele>
        <time>2021-03-31T09:36:52.118Z</time>
      </trkpt>
      <trkpt lat="46.81381" lon="7.177">
        <ele>655.82</ele>
        <time>2021-03-31T09:36:46.477Z</time>
      </trkpt>
      <trkpt lat="46.81382" lon="7.17729">
        <ele>656.51</ele>
        <time>2021-03-31T09:36:41.007Z</time>
      </trkpt>
      <trkpt lat="46.81386" lon="7.17753">
        <ele>656.95</ele>
        <time>2021-03-31T09:36:35.911Z</time>
      </trkpt>
      <trkpt lat="46.8139" lon="7.17765">
        <ele>657.38</ele>
        <time>2021-03-31T09:36:33.672Z</time>
      </trkpt>
      <trkpt lat="46.81392" lon="7.17772">
        <ele>657.56</ele>
        <time>2021-03-31T09:36:32.243Z</time>
      </trkpt>
      <trkpt lat="46.81393" lon="7.17774">
        <ele>657.69</ele>
        <time>2021-03-31T09:36:31.857Z</time>
      </trkpt>
      <trkpt lat="46.81406" lon="7.17797">
        <ele>659.11</ele>
        <time>2021-03-31T09:36:27.208Z</time>
      </trkpt>
      <trkpt lat="46.81443" lon="7.17859">
        <ele>664.51</ele>
        <time>2021-03-31T09:36:14.387Z</time>
      </trkpt>
      <trkpt lat="46.81451" lon="7.17875">
        <ele>665.48</ele>
        <time>2021-03-31T09:36:11.299Z</time>
      </trkpt>
      <trkpt lat="46.81461" lon="7.1789">
        <ele>666.71</ele>
        <time>2021-03-31T09:36:08.036Z</time>
      </trkpt>
      <trkpt lat="46.81468" lon="7.17901">
        <ele>667.49</ele>
        <time>2021-03-31T09:36:05.695Z</time>
      </trkpt>
      <trkpt lat="46.81477" lon="7.1791">
        <ele>668.26</ele>
        <time>2021-03-31T09:36:03.211Z</time>
      </trkpt>
      <trkpt lat="46.8149" lon="7.17918">
        <ele>669.25</ele>
        <time>2021-03-31T09:35:59.999Z</time>
      </trkpt>
      <trkpt lat="46.81502" lon="7.17924">
        <ele>670.13</ele>
        <time>2021-03-31T09:35:57.111Z</time>
      </trkpt>
      <trkpt lat="46.8151" lon="7.17928">
        <ele>670.73</ele>
        <time>2021-03-31T09:35:55.185Z</time>
      </trkpt>
      <trkpt lat="46.81511" lon="7.17928">
        <ele>670.73</ele>
        <time>2021-03-31T09:35:54.141Z</time>
      </trkpt>
      <trkpt lat="46.81518" lon="7.17931">
        <ele>671.33</ele>
        <time>2021-03-31T09:35:52.480Z</time>
      </trkpt>
      <trkpt lat="46.81579" lon="7.17955">
        <ele>676.58</ele>
        <time>2021-03-31T09:35:38.094Z</time>
      </trkpt>
      <trkpt lat="46.81598" lon="7.17966">
        <ele>678.08</ele>
        <time>2021-03-31T09:35:33.440Z</time>
      </trkpt>
      <trkpt lat="46.81624" lon="7.17981">
        <ele>680.32</ele>
        <time>2021-03-31T09:35:27.074Z</time>
      </trkpt>
      <trkpt lat="46.81647" lon="7.17996">
        <ele>682.69</ele>
        <time>2021-03-31T09:35:21.339Z</time>
      </trkpt>
      <trkpt lat="46.81659" lon="7.18005">
        <ele>684.05</ele>
        <time>2021-03-31T09:35:18.267Z</time>
      </trkpt>
      <trkpt lat="46.81669" lon="7.18014">
        <ele>684.54</ele>
        <time>2021-03-31T09:35:15.245Z</time>
      </trkpt>
      <trkpt lat="46.81676" lon="7.18018">
        <ele>684.7</ele>
        <time>2021-03-31T09:35:12.855Z</time>
      </trkpt>
      <trkpt lat="46.81685" lon="7.18022">
        <ele>684.87</ele>
        <time>2021-03-31T09:35:09.748Z</time>
      </trkpt>
      <trkpt lat="46.81686" lon="7.18023">
        <ele>684.9</ele>
        <time>2021-03-31T09:35:09.378Z</time>
      </trkpt>
      <trkpt lat="46.81702" lon="7.18027">
        <ele>685.15</ele>
        <time>2021-03-31T09:35:03.839Z</time>
      </trkpt>
      <trkpt lat="46.81754" lon="7.18038">
        <ele>685.23</ele>
        <time>2021-03-31T09:34:10.256Z</time>
      </trkpt>
      <trkpt lat="46.81777" lon="7.18045">
        <ele>685.14</ele>
        <time>2021-03-31T09:33:44.847Z</time>
      </trkpt>
      <trkpt lat="46.81803" lon="7.18054">
        <ele>685.52</ele>
        <time>2021-03-31T09:33:35.595Z</time>
      </trkpt>
      <trkpt lat="46.8183" lon="7.18064">
        <ele>686.32</ele>
        <time>2021-03-31T09:33:27.438Z</time>
      </trkpt>
      <trkpt lat="46.81847" lon="7.18072">
        <ele>687.33</ele>
        <time>2021-03-31T09:33:23.403Z</time>
      </trkpt>
      <trkpt lat="46.81861" lon="7.1808">
        <ele>687.86</ele>
        <time>2021-03-31T09:33:19.287Z</time>
      </trkpt>
      <trkpt lat="46.8187" lon="7.18084">
        <ele>687.83</ele>
        <time>2021-03-31T09:33:09.174Z</time>
      </trkpt>
      <trkpt lat="46.81876" lon="7.18085">
        <ele>687.66</ele>
        <time>2021-03-31T09:33:00.682Z</time>
      </trkpt>
      <trkpt lat="46.81883" lon="7.18085">
        <ele>687.05</ele>
        <time>2021-03-31T09:32:43.800Z</time>
      </trkpt>
      <trkpt lat="46.81917" lon="7.18075">
        <ele>683.72</ele>
        <time>2021-03-31T09:31:13.195Z</time>
      </trkpt>
      <trkpt lat="46.81934" lon="7.18072">
        <ele>682.34</ele>
        <time>2021-03-31T09:30:34.115Z</time>
      </trkpt>
      <trkpt lat="46.81957" lon="7.18069">
        <ele>680.19</ele>
        <time>2021-03-31T09:29:35.391Z</time>
      </trkpt>
      <trkpt lat="46.8198" lon="7.18068">
        <ele>677.87</ele>
        <time>2021-03-31T09:28:32.438Z</time>
      </trkpt>
      <trkpt lat="46.81995" lon="7.18068">
        <ele>676.52</ele>
        <time>2021-03-31T09:27:55.344Z</time>
      </trkpt>
      <trkpt lat="46.81996" lon="7.18068">
        <ele>676.52</ele>
        <time>2021-03-31T09:27:54.301Z</time>
      </trkpt>
      <trkpt lat="46.81998" lon="7.18068">
        <ele>675.18</ele>
        <time>2021-03-31T09:27:46.250Z</time>
      </trkpt>
      <trkpt lat="46.8203" lon="7.18073">
        <ele>670.98</ele>
        <time>2021-03-31T09:25:41.964Z</time>
      </trkpt>
      <trkpt lat="46.82057" lon="7.18074">
        <ele>668.36</ele>
        <time>2021-03-31T09:24:30.744Z</time>
      </trkpt>
      <trkpt lat="46.8209" lon="7.18073">
        <ele>665.64</ele>
        <time>2021-03-31T09:23:14.276Z</time>
      </trkpt>
      <trkpt lat="46.82112" lon="7.18073">
        <ele>663.74</ele>
        <time>2021-03-31T09:22:21.573Z</time>
      </trkpt>
      <trkpt lat="46.82147" lon="7.18073">
        <ele>661.18</ele>
        <time>2021-03-31T09:21:06.289Z</time>
      </trkpt>
      <trkpt lat="46.82158" lon="7.18073">
        <ele>660.5</ele>
        <time>2021-03-31T09:20:44.532Z</time>
      </trkpt>
      <trkpt lat="46.82173" lon="7.18074">
        <ele>659.91</ele>
        <time>2021-03-31T09:20:20.050Z</time>
      </trkpt>
      <trkpt lat="46.82185" lon="7.18101">
        <ele>659.91</ele>
        <time>2021-03-31T09:19:57.059Z</time>
      </trkpt>
      <trkpt lat="46.82192" lon="7.18115">
        <ele>659.94</ele>
        <time>2021-03-31T09:19:45.139Z</time>
      </trkpt>
      <trkpt lat="46.82199" lon="7.18127">
        <ele>659.98</ele>
        <time>2021-03-31T09:19:34.484Z</time>
      </trkpt>
      <trkpt lat="46.82201" lon="7.1813">
        <ele>660.05</ele>
        <time>2021-03-31T09:19:33.604Z</time>
      </trkpt>
      <trkpt lat="46.82211" lon="7.18143">
        <ele>660.26</ele>
        <time>2021-03-31T09:19:29.054Z</time>
      </trkpt>
      <trkpt lat="46.8222" lon="7.18154">
        <ele>660.36</ele>
        <time>2021-03-31T09:19:24.678Z</time>
      </trkpt>
      <trkpt lat="46.82228" lon="7.18161">
        <ele>660.75</ele>
        <time>2021-03-31T09:19:22.281Z</time>
      </trkpt>
      <trkpt lat="46.82237" lon="7.1817">
        <ele>660.85</ele>
        <time>2021-03-31T09:19:18.249Z</time>
      </trkpt>
      <trkpt lat="46.82262" lon="7.18191">
        <ele>661.64</ele>
        <time>2021-03-31T09:19:09.684Z</time>
      </trkpt>
      <trkpt lat="46.82282" lon="7.18207">
        <ele>661.94</ele>
        <time>2021-03-31T09:19:01.681Z</time>
      </trkpt>
      <trkpt lat="46.82289" lon="7.18213">
        <ele>662.21</ele>
        <time>2021-03-31T09:18:59.415Z</time>
      </trkpt>
      <trkpt lat="46.82291" lon="7.18206">
        <ele>662.21</ele>
        <time>2021-03-31T09:18:53.998Z</time>
      </trkpt>
      <trkpt lat="46.82297" lon="7.18197">
        <ele>661.82</ele>
        <time>2021-03-31T09:18:38.771Z</time>
      </trkpt>
      <trkpt lat="46.82299" lon="7.18196">
        <ele>661.92</ele>
        <time>2021-03-31T09:18:38.254Z</time>
      </trkpt>
      <trkpt lat="46.82304" lon="7.18196">
        <ele>661.83</ele>
        <time>2021-03-31T09:18:32.006Z</time>
      </trkpt>
      <trkpt lat="46.82309" lon="7.18195">
        <ele>661.94</ele>
        <time>2021-03-31T09:18:30.411Z</time>
      </trkpt>
      <trkpt lat="46.82318" lon="7.18196">
        <ele>662.05</ele>
        <time>2021-03-31T09:18:27.203Z</time>
      </trkpt>
      <trkpt lat="46.82318" lon="7.18191">
        <ele>662.07</ele>
        <time>2021-03-31T09:18:23.926Z</time>
      </trkpt>
      <trkpt lat="46.8232" lon="7.1819">
        <ele>661.87</ele>
        <time>2021-03-31T09:18:18.476Z</time>
      </trkpt>
      <trkpt lat="46.82328" lon="7.18189">
        <ele>661.51</ele>
        <time>2021-03-31T09:18:04.303Z</time>
      </trkpt>
      <trkpt lat="46.82333" lon="7.18188">
        <ele>661.22</ele>
        <time>2021-03-31T09:17:54.621Z</time>
      </trkpt>
      <trkpt lat="46.82349" lon="7.18187">
        <ele>660.33</ele>
        <time>2021-03-31T09:17:24.290Z</time>
      </trkpt>
      <trkpt lat="46.82355" lon="7.18186">
        <ele>660.05</ele>
        <time>2021-03-31T09:17:13.526Z</time>
      </trkpt>
      <trkpt lat="46.82361" lon="7.18183">
        <ele>659.66</ele>
        <time>2021-03-31T09:17:01.011Z</time>
      </trkpt>
      <trkpt lat="46.82365" lon="7.18179">
        <ele>659.4</ele>
        <time>2021-03-31T09:16:51.950Z</time>
      </trkpt>
      <trkpt lat="46.82372" lon="7.18173">
        <ele>658.92</ele>
        <time>2021-03-31T09:16:36.198Z</time>
      </trkpt>
      <trkpt lat="46.8238" lon="7.18164">
        <ele>658.57</ele>
        <time>2021-03-31T09:16:20.759Z</time>
      </trkpt>
      <trkpt lat="46.82391" lon="7.18149">
        <ele>658.1</ele>
        <time>2021-03-31T09:15:58.765Z</time>
      </trkpt>
      <trkpt lat="46.82403" lon="7.18132">
        <ele>657.51</ele>
        <time>2021-03-31T09:15:32.988Z</time>
      </trkpt>
      <trkpt lat="46.82417" lon="7.18114">
        <ele>656.88</ele>
        <time>2021-03-31T09:15:04.807Z</time>
      </trkpt>
      <trkpt lat="46.82442" lon="7.18082">
        <ele>655.47</ele>
        <time>2021-03-31T09:14:08.079Z</time>
      </trkpt>
      <trkpt lat="46.82448" lon="7.18073">
        <ele>655.08</ele>
        <time>2021-03-31T09:13:52.853Z</time>
      </trkpt>
      <trkpt lat="46.8246" lon="7.18055">
        <ele>653.9</ele>
        <time>2021-03-31T09:13:17.113Z</time>
      </trkpt>
      <trkpt lat="46.82473" lon="7.18035">
        <ele>652.55</ele>
        <time>2021-03-31T09:12:37.016Z</time>
      </trkpt>
      <trkpt lat="46.82501" lon="7.17993">
        <ele>650.08</ele>
        <time>2021-03-31T09:11:17.799Z</time>
      </trkpt>
      <trkpt lat="46.82539" lon="7.17932">
        <ele>646.7</ele>
        <time>2021-03-31T09:09:27.667Z</time>
      </trkpt>
      <trkpt lat="46.82551" lon="7.17909">
        <ele>645.5</ele>
        <time>2021-03-31T09:08:48.849Z</time>
      </trkpt>
      <trkpt lat="46.82563" lon="7.17883">
        <ele>644.11</ele>
        <time>2021-03-31T09:08:05.494Z</time>
      </trkpt>
      <trkpt lat="46.82572" lon="7.17861">
        <ele>642.99</ele>
        <time>2021-03-31T09:07:30.293Z</time>
      </trkpt>
      <trkpt lat="46.82591" lon="7.17793">
        <ele>639.62</ele>
        <time>2021-03-31T09:05:47.046Z</time>
      </trkpt>
      <trkpt lat="46.82601" lon="7.17767">
        <ele>638.33</ele>
        <time>2021-03-31T09:05:06.277Z</time>
      </trkpt>
      <trkpt lat="46.82611" lon="7.17742">
        <ele>636.83</ele>
        <time>2021-03-31T09:04:22.798Z</time>
      </trkpt>
      <trkpt lat="46.82616" lon="7.17728">
        <ele>636.26</ele>
        <time>2021-03-31T09:04:02.718Z</time>
      </trkpt>
      <trkpt lat="46.82619" lon="7.1772">
        <ele>635.68</ele>
        <time>2021-03-31T09:03:46.872Z</time>
      </trkpt>
      <trkpt lat="46.8263" lon="7.17698">
        <ele>634.3</ele>
        <time>2021-03-31T09:03:06.497Z</time>
      </trkpt>
      <trkpt lat="46.8264" lon="7.17679">
        <ele>633.2</ele>
        <time>2021-03-31T09:02:32.799Z</time>
      </trkpt>
      <trkpt lat="46.8265" lon="7.17659">
        <ele>632.04</ele>
        <time>2021-03-31T09:01:57.620Z</time>
      </trkpt>
      <trkpt lat="46.82665" lon="7.17634">
        <ele>630.59</ele>
        <time>2021-03-31T09:01:12.000Z</time>
      </trkpt>
      <trkpt lat="46.82676" lon="7.17617">
        <ele>629.59</ele>
        <time>2021-03-31T09:00:40.188Z</time>
      </trkpt>
      <trkpt lat="46.82695" lon="7.1759">
        <ele>627.82</ele>
        <time>2021-03-31T08:59:45.852Z</time>
      </trkpt>
      <trkpt lat="46.82709" lon="7.17571">
        <ele>626.45</ele>
        <time>2021-03-31T08:59:05.208Z</time>
      </trkpt>
      <trkpt lat="46.82726" lon="7.1755">
        <ele>624.79</ele>
        <time>2021-03-31T08:58:16.794Z</time>
      </trkpt>
      <trkpt lat="46.82766" lon="7.17506">
        <ele>621.47</ele>
        <time>2021-03-31T08:56:34.504Z</time>
      </trkpt>
      <trkpt lat="46.82788" lon="7.17482">
        <ele>619.67</ele>
        <time>2021-03-31T08:55:38.718Z</time>
      </trkpt>
      <trkpt lat="46.82806" lon="7.17461">
        <ele>618.23</ele>
        <time>2021-03-31T08:54:52.934Z</time>
      </trkpt>
      <trkpt lat="46.8282" lon="7.17448">
        <ele>617.19</ele>
        <time>2021-03-31T08:54:19.919Z</time>
      </trkpt>
      <trkpt lat="46.82828" lon="7.17444">
        <ele>616.69</ele>
        <time>2021-03-31T08:54:03.508Z</time>
      </trkpt>
      <trkpt lat="46.82835" lon="7.17441">
        <ele>616.28</ele>
        <time>2021-03-31T08:53:49.632Z</time>
      </trkpt>
      <trkpt lat="46.82854" lon="7.17439">
        <ele>615.14</ele>
        <time>2021-03-31T08:53:12.474Z</time>
      </trkpt>
      <trkpt lat="46.82863" lon="7.17438">
        <ele>614.6</ele>
        <time>2021-03-31T08:52:54.870Z</time>
      </trkpt>
      <trkpt lat="46.82883" lon="7.17435">
        <ele>613.67</ele>
        <time>2021-03-31T08:52:19.060Z</time>
      </trkpt>
      <trkpt lat="46.82903" lon="7.17432">
        <ele>612.97</ele>
        <time>2021-03-31T08:51:48.254Z</time>
      </trkpt>
      <trkpt lat="46.82908" lon="7.17448">
        <ele>613.46</ele>
        <time>2021-03-31T08:51:45.129Z</time>
      </trkpt>
      <trkpt lat="46.82912" lon="7.17462">
        <ele>614.63</ele>
        <time>2021-03-31T08:51:42.765Z</time>
      </trkpt>
      <trkpt lat="46.82913" lon="7.17471">
        <ele>615.7</ele>
        <time>2021-03-31T08:51:41.344Z</time>
      </trkpt>
      <trkpt lat="46.82913" lon="7.17479">
        <ele>616.65</ele>
        <time>2021-03-31T08:51:40.098Z</time>
      </trkpt>
      <trkpt lat="46.82912" lon="7.17484">
        <ele>616.77</ele>
        <time>2021-03-31T08:51:39.106Z</time>
      </trkpt>
      <trkpt lat="46.82918" lon="7.17483">
        <ele>617.09</ele>
        <time>2021-03-31T08:51:37.701Z</time>
      </trkpt>
      <trkpt lat="46.82932" lon="7.17483">
        <ele>617.04</ele>
        <time>2021-03-31T08:51:22.596Z</time>
      </trkpt>
      <trkpt lat="46.82944" lon="7.17482">
        <ele>616.98</ele>
        <time>2021-03-31T08:51:09.451Z</time>
      </trkpt>
      <trkpt lat="46.82967" lon="7.17487">
        <ele>617.01</ele>
        <time>2021-03-31T08:50:45.655Z</time>
      </trkpt>
      <trkpt lat="46.83014" lon="7.17502">
        <ele>617.61</ele>
        <time>2021-03-31T08:50:28.622Z</time>
      </trkpt>
      <trkpt lat="46.83031" lon="7.17509">
        <ele>617.27</ele>
        <time>2021-03-31T08:50:06.244Z</time>
      </trkpt>
      <trkpt lat="46.83053" lon="7.17519">
        <ele>617.05</ele>
        <time>2021-03-31T08:49:39.896Z</time>
      </trkpt>
      <trkpt lat="46.83075" lon="7.17532">
        <ele>617.18</ele>
        <time>2021-03-31T08:49:17.049Z</time>
      </trkpt>
      <trkpt lat="46.83105" lon="7.17553">
        <ele>617.76</ele>
        <time>2021-03-31T08:49:05.979Z</time>
      </trkpt>
      <trkpt lat="46.83106" lon="7.17553">
        <ele>617.76</ele>
        <time>2021-03-31T08:49:04.935Z</time>
      </trkpt>
      <trkpt lat="46.83115" lon="7.17559">
        <ele>618.34</ele>
        <time>2021-03-31T08:49:02.738Z</time>
      </trkpt>
      <trkpt lat="46.83146" lon="7.17581">
        <ele>621.22</ele>
        <time>2021-03-31T08:48:54.890Z</time>
      </trkpt>
      <trkpt lat="46.83165" lon="7.17596">
        <ele>623.52</ele>
        <time>2021-03-31T08:48:49.973Z</time>
      </trkpt>
      <trkpt lat="46.83184" lon="7.17615">
        <ele>625.72</ele>
        <time>2021-03-31T08:48:44.730Z</time>
      </trkpt>
      <trkpt lat="46.83201" lon="7.17633">
        <ele>627.69</ele>
        <time>2021-03-31T08:48:39.950Z</time>
      </trkpt>
      <trkpt lat="46.83212" lon="7.17647">
        <ele>628.88</ele>
        <time>2021-03-31T08:48:36.628Z</time>
      </trkpt>
      <trkpt lat="46.83255" lon="7.17718">
        <ele>630.07</ele>
        <time>2021-03-31T08:48:15.273Z</time>
      </trkpt>
      <trkpt lat="46.83267" lon="7.17744">
        <ele>630.01</ele>
        <time>2021-03-31T08:47:52.292Z</time>
      </trkpt>
      <trkpt lat="46.83283" lon="7.17775">
        <ele>629.05</ele>
        <time>2021-03-31T08:47:10.850Z</time>
      </trkpt>
      <trkpt lat="46.83291" lon="7.17793">
        <ele>629.07</ele>
        <time>2021-03-31T08:46:55.838Z</time>
      </trkpt>
      <trkpt lat="46.83306" lon="7.17821">
        <ele>628.46</ele>
        <time>2021-03-31T08:46:22.878Z</time>
      </trkpt>
      <trkpt lat="46.83333" lon="7.17871">
        <ele>627.12</ele>
        <time>2021-03-31T08:45:19.567Z</time>
      </trkpt>
      <trkpt lat="46.83336" lon="7.17886">
        <ele>627.34</ele>
        <time>2021-03-31T08:45:16.139Z</time>
      </trkpt>
      <trkpt lat="46.83345" lon="7.17931">
        <ele>626.93</ele>
        <time>2021-03-31T08:44:38.228Z</time>
      </trkpt>
      <trkpt lat="46.83348" lon="7.17952">
        <ele>626.91</ele>
        <time>2021-03-31T08:44:22.718Z</time>
      </trkpt>
      <trkpt lat="46.83351" lon="7.17973">
        <ele>627.09</ele>
        <time>2021-03-31T08:44:17.508Z</time>
      </trkpt>
      <trkpt lat="46.83353" lon="7.17995">
        <ele>627.3</ele>
        <time>2021-03-31T08:44:12.224Z</time>
      </trkpt>
      <trkpt lat="46.83356" lon="7.18027">
        <ele>627.71</ele>
        <time>2021-03-31T08:44:04.969Z</time>
      </trkpt>
      <trkpt lat="46.83358" lon="7.18051">
        <ele>628.06</ele>
        <time>2021-03-31T08:43:59.701Z</time>
      </trkpt>
      <trkpt lat="46.83375" lon="7.1806">
        <ele>625.65</ele>
        <time>2021-03-31T08:42:47.070Z</time>
      </trkpt>
      <trkpt lat="46.83383" lon="7.18064">
        <ele>624.06</ele>
        <time>2021-03-31T08:42:13.035Z</time>
      </trkpt>
      <trkpt lat="46.83415" lon="7.1809">
        <ele>617.59</ele>
        <time>2021-03-31T08:39:45.663Z</time>
      </trkpt>
      <trkpt lat="46.83444" lon="7.18127">
        <ele>611.23</ele>
        <time>2021-03-31T08:37:10.716Z</time>
      </trkpt>
      <trkpt lat="46.83447" lon="7.1813">
        <ele>610.66</ele>
        <time>2021-03-31T08:36:56.085Z</time>
      </trkpt>
      <trkpt lat="46.83462" lon="7.18137">
        <ele>607.42</ele>
        <time>2021-03-31T08:35:52.703Z</time>
      </trkpt>
      <trkpt lat="46.83467" lon="7.18138">
        <ele>606.44</ele>
        <time>2021-03-31T08:35:32.388Z</time>
      </trkpt>
      <trkpt lat="46.83475" lon="7.1814">
        <ele>605.49</ele>
        <time>2021-03-31T08:35:05.973Z</time>
      </trkpt>
      <trkpt lat="46.83492" lon="7.1814">
        <ele>604.36</ele>
        <time>2021-03-31T08:34:31.199Z</time>
      </trkpt>
      <trkpt lat="46.83498" lon="7.18139">
        <ele>604.05</ele>
        <time>2021-03-31T08:34:20.082Z</time>
      </trkpt>
      <trkpt lat="46.83504" lon="7.18135">
        <ele>603.63</ele>
        <time>2021-03-31T08:34:06.862Z</time>
      </trkpt>
      <trkpt lat="46.8351" lon="7.18129">
        <ele>603.42</ele>
        <time>2021-03-31T08:33:56.546Z</time>
      </trkpt>
      <trkpt lat="46.83519" lon="7.18117">
        <ele>603.01</ele>
        <time>2021-03-31T08:33:38.167Z</time>
      </trkpt>
      <trkpt lat="46.83537" lon="7.1809">
        <ele>602.49</ele>
        <time>2021-03-31T08:33:05.155Z</time>
      </trkpt>
      <trkpt lat="46.83546" lon="7.18078">
        <ele>602.28</ele>
        <time>2021-03-31T08:32:50.059Z</time>
      </trkpt>
      <trkpt lat="46.83555" lon="7.18068">
        <ele>601.86</ele>
        <time>2021-03-31T08:32:32.175Z</time>
      </trkpt>
      <trkpt lat="46.83567" lon="7.18058">
        <ele>601.55</ele>
        <time>2021-03-31T08:32:14.029Z</time>
      </trkpt>
      <trkpt lat="46.83571" lon="7.18054">
        <ele>601.38</ele>
        <time>2021-03-31T08:32:06.577Z</time>
      </trkpt>
      <trkpt lat="46.83581" lon="7.18048">
        <ele>601.07</ele>
        <time>2021-03-31T08:31:51.277Z</time>
      </trkpt>
      <trkpt lat="46.83638" lon="7.18024">
        <ele>600.13</ele>
        <time>2021-03-31T08:30:38.862Z</time>
      </trkpt>
      <trkpt lat="46.83683" lon="7.18008">
        <ele>599.94</ele>
        <time>2021-03-31T08:29:48.643Z</time>
      </trkpt>
      <trkpt lat="46.83725" lon="7.17992">
        <ele>601.88</ele>
        <time>2021-03-31T08:29:37.780Z</time>
      </trkpt>
      <trkpt lat="46.83729" lon="7.1799">
        <ele>602.16</ele>
        <time>2021-03-31T08:29:36.895Z</time>
      </trkpt>
      <trkpt lat="46.83766" lon="7.17976">
        <ele>602.43</ele>
        <time>2021-03-31T08:29:00.905Z</time>
      </trkpt>
      <trkpt lat="46.83775" lon="7.17972">
        <ele>602.42</ele>
        <time>2021-03-31T08:28:50.991Z</time>
      </trkpt>
      <trkpt lat="46.83781" lon="7.17967">
        <ele>602.3</ele>
        <time>2021-03-31T08:28:42.419Z</time>
      </trkpt>
      <trkpt lat="46.83786" lon="7.1796">
        <ele>602.33</ele>
        <time>2021-03-31T08:28:35.644Z</time>
      </trkpt>
      <trkpt lat="46.83789" lon="7.17955">
        <ele>602.41</ele>
        <time>2021-03-31T08:28:34.133Z</time>
      </trkpt>
      <trkpt lat="46.83791" lon="7.17949">
        <ele>602.58</ele>
        <time>2021-03-31T08:28:32.907Z</time>
      </trkpt>
      <trkpt lat="46.838" lon="7.17924">
        <ele>603.09</ele>
        <time>2021-03-31T08:28:27.103Z</time>
      </trkpt>
      <trkpt lat="46.83804" lon="7.17914">
        <ele>602.58</ele>
        <time>2021-03-31T08:28:11.141Z</time>
      </trkpt>
      <trkpt lat="46.83825" lon="7.17853">
        <ele>599.96</ele>
        <time>2021-03-31T08:26:42.357Z</time>
      </trkpt>
      <trkpt lat="46.83815" lon="7.17844">
        <ele>599.77</ele>
        <time>2021-03-31T08:26:27.970Z</time>
      </trkpt>
      <trkpt lat="46.83804" lon="7.17835">
        <ele>599.68</ele>
        <time>2021-03-31T08:26:13.894Z</time>
      </trkpt>
      <trkpt lat="46.83806" lon="7.1783">
        <ele>599.9</ele>
        <time>2021-03-31T08:26:12.991Z</time>
      </trkpt>
      <trkpt lat="46.83813" lon="7.17823">
        <ele>600</ele>
        <time>2021-03-31T08:26:09.962Z</time>
      </trkpt>
      <trkpt lat="46.83837" lon="7.17804">
        <ele>600.63</ele>
        <time>2021-03-31T08:26:01.459Z</time>
      </trkpt>
      <trkpt lat="46.83838" lon="7.17802">
        <ele>600.52</ele>
        <time>2021-03-31T08:25:58.031Z</time>
      </trkpt>
      <trkpt lat="46.83855" lon="7.17779">
        <ele>601.17</ele>
        <time>2021-03-31T08:25:51.200Z</time>
      </trkpt>
      <trkpt lat="46.83873" lon="7.17754">
        <ele>601.63</ele>
        <time>2021-03-31T08:25:43.045Z</time>
      </trkpt>
      <trkpt lat="46.83886" lon="7.17739">
        <ele>601.55</ele>
        <time>2021-03-31T08:25:24.961Z</time>
      </trkpt>
      <trkpt lat="46.83899" lon="7.17726">
        <ele>601.88</ele>
        <time>2021-03-31T08:25:19.933Z</time>
      </trkpt>
      <trkpt lat="46.8391" lon="7.17716">
        <ele>601.56</ele>
        <time>2021-03-31T08:25:02.461Z</time>
      </trkpt>
      <trkpt lat="46.83916" lon="7.17712">
        <ele>601.4</ele>
        <time>2021-03-31T08:24:53.612Z</time>
      </trkpt>
      <trkpt lat="46.83922" lon="7.17708">
        <ele>601.23</ele>
        <time>2021-03-31T08:24:44.603Z</time>
      </trkpt>
      <trkpt lat="46.83927" lon="7.17705">
        <ele>601.09</ele>
        <time>2021-03-31T08:24:37.208Z</time>
      </trkpt>
      <trkpt lat="46.83935" lon="7.17701">
        <ele>600.9</ele>
        <time>2021-03-31T08:24:26.097Z</time>
      </trkpt>
      <trkpt lat="46.83949" lon="7.17693">
        <ele>600.54</ele>
        <time>2021-03-31T08:24:06.002Z</time>
      </trkpt>
      <trkpt lat="46.83962" lon="7.17688">
        <ele>600.2</ele>
        <time>2021-03-31T08:23:47.743Z</time>
      </trkpt>
      <trkpt lat="46.83971" lon="7.17686">
        <ele>599.27</ele>
        <time>2021-03-31T08:23:22.506Z</time>
      </trkpt>
      <trkpt lat="46.83982" lon="7.17683">
        <ele>598.23</ele>
        <time>2021-03-31T08:22:54.093Z</time>
      </trkpt>
      <trkpt lat="46.83986" lon="7.17682">
        <ele>597.92</ele>
        <time>2021-03-31T08:22:45.139Z</time>
      </trkpt>
      <trkpt lat="46.83991" lon="7.17679">
        <ele>597.4</ele>
        <time>2021-03-31T08:22:30.994Z</time>
      </trkpt>
      <trkpt lat="46.83996" lon="7.17675">
        <ele>596.67</ele>
        <time>2021-03-31T08:22:09.699Z</time>
      </trkpt>
      <trkpt lat="46.84" lon="7.1767">
        <ele>596.25</ele>
        <time>2021-03-31T08:21:57.765Z</time>
      </trkpt>
      <trkpt lat="46.84004" lon="7.17663">
        <ele>595.5</ele>
        <time>2021-03-31T08:21:36.681Z</time>
      </trkpt>
      <trkpt lat="46.8401" lon="7.17651">
        <ele>594.59</ele>
        <time>2021-03-31T08:21:11.648Z</time>
      </trkpt>
      <trkpt lat="46.84026" lon="7.17614">
        <ele>591.98</ele>
        <time>2021-03-31T08:19:59.420Z</time>
      </trkpt>
      <trkpt lat="46.84025" lon="7.17611">
        <ele>591.83</ele>
        <time>2021-03-31T08:19:54.776Z</time>
      </trkpt>
      <trkpt lat="46.84029" lon="7.17597">
        <ele>591.26</ele>
        <time>2021-03-31T08:19:35.207Z</time>
      </trkpt>
      <trkpt lat="46.84035" lon="7.17578">
        <ele>590.69</ele>
        <time>2021-03-31T08:19:11.691Z</time>
      </trkpt>
      <trkpt lat="46.84041" lon="7.17555">
        <ele>590.56</ele>
        <time>2021-03-31T08:18:52.781Z</time>
      </trkpt>
      <trkpt lat="46.84043" lon="7.17539">
        <ele>590.16</ele>
        <time>2021-03-31T08:18:35.469Z</time>
      </trkpt>
      <trkpt lat="46.84045" lon="7.17525">
        <ele>590.07</ele>
        <time>2021-03-31T08:18:24.320Z</time>
      </trkpt>
      <trkpt lat="46.84046" lon="7.17509">
        <ele>589.48</ele>
        <time>2021-03-31T08:18:03.769Z</time>
      </trkpt>
      <trkpt lat="46.84046" lon="7.17491">
        <ele>588.65</ele>
        <time>2021-03-31T08:17:38.408Z</time>
      </trkpt>
      <trkpt lat="46.84045" lon="7.17461">
        <ele>586.97</ele>
        <time>2021-03-31T08:16:51.061Z</time>
      </trkpt>
      <trkpt lat="46.84044" lon="7.1745">
        <ele>586.54</ele>
        <time>2021-03-31T08:16:36.579Z</time>
      </trkpt>
      <trkpt lat="46.84042" lon="7.17443">
        <ele>586.22</ele>
        <time>2021-03-31T08:16:26.326Z</time>
      </trkpt>
      <trkpt lat="46.84039" lon="7.17438">
        <ele>585.7</ele>
        <time>2021-03-31T08:16:11.980Z</time>
      </trkpt>
      <trkpt lat="46.84033" lon="7.17429">
        <ele>585.5</ele>
        <time>2021-03-31T08:16:00.579Z</time>
      </trkpt>
      <trkpt lat="46.84024" lon="7.17414">
        <ele>585.08</ele>
        <time>2021-03-31T08:15:40.745Z</time>
      </trkpt>
      <trkpt lat="46.84018" lon="7.17399">
        <ele>584.86</ele>
        <time>2021-03-31T08:15:25.808Z</time>
      </trkpt>
      <trkpt lat="46.84015" lon="7.17384">
        <ele>584.63</ele>
        <time>2021-03-31T08:15:11.914Z</time>
      </trkpt>
      <trkpt lat="46.84015" lon="7.17369">
        <ele>584.57</ele>
        <time>2021-03-31T08:15:00.600Z</time>
      </trkpt>
      <trkpt lat="46.84018" lon="7.17332">
        <ele>584.25</ele>
        <time>2021-03-31T08:14:30.545Z</time>
      </trkpt>
      <trkpt lat="46.84016" lon="7.17319">
        <ele>583.88</ele>
        <time>2021-03-31T08:14:15.403Z</time>
      </trkpt>
      <trkpt lat="46.84003" lon="7.17265">
        <ele>581.21</ele>
        <time>2021-03-31T08:12:54.280Z</time>
      </trkpt>
      <trkpt lat="46.83997" lon="7.1725">
        <ele>580.52</ele>
        <time>2021-03-31T08:12:31.383Z</time>
      </trkpt>
      <trkpt lat="46.83979" lon="7.17205">
        <ele>577.42</ele>
        <time>2021-03-31T08:11:05.538Z</time>
      </trkpt>
      <trkpt lat="46.83972" lon="7.17185">
        <ele>575.91</ele>
        <time>2021-03-31T08:10:24.528Z</time>
      </trkpt>
      <trkpt lat="46.83968" lon="7.17174">
        <ele>575.57</ele>
        <time>2021-03-31T08:10:10.513Z</time>
      </trkpt>
      <trkpt lat="46.83957" lon="7.17154">
        <ele>575.39</ele>
        <time>2021-03-31T08:09:50.294Z</time>
      </trkpt>
      <trkpt lat="46.8394" lon="7.17121">
        <ele>575.7</ele>
        <time>2021-03-31T08:09:40.091Z</time>
      </trkpt>
      <trkpt lat="46.83917" lon="7.1708">
        <ele>575.92</ele>
        <time>2021-03-31T08:09:05.457Z</time>
      </trkpt>
      <trkpt lat="46.83941" lon="7.17052">
        <ele>575.64</ele>
        <time>2021-03-31T08:08:30.492Z</time>
      </trkpt>
      <trkpt lat="46.83955" lon="7.17035">
        <ele>575.61</ele>
        <time>2021-03-31T08:08:11.208Z</time>
      </trkpt>
      <trkpt lat="46.83983" lon="7.17003">
        <ele>575.19</ele>
        <time>2021-03-31T08:07:29.615Z</time>
      </trkpt>
      <trkpt lat="46.84001" lon="7.16984">
        <ele>574.67</ele>
        <time>2021-03-31T08:07:00.117Z</time>
      </trkpt>
      <trkpt lat="46.84001" lon="7.16983">
        <ele>574.67</ele>
        <time>2021-03-31T08:06:59.403Z</time>
      </trkpt>
      <trkpt lat="46.84004" lon="7.1698">
        <ele>574.15</ele>
        <time>2021-03-31T08:06:44.772Z</time>
      </trkpt>
      <trkpt lat="46.84013" lon="7.16971">
        <ele>573.7</ele>
        <time>2021-03-31T08:06:26.476Z</time>
      </trkpt>
      <trkpt lat="46.84021" lon="7.1697">
        <ele>573.16</ele>
        <time>2021-03-31T08:06:09.957Z</time>
      </trkpt>
      <trkpt lat="46.84031" lon="7.1697">
        <ele>572.74</ele>
        <time>2021-03-31T08:05:52.996Z</time>
      </trkpt>
      <trkpt lat="46.84041" lon="7.16975">
        <ele>572.41</ele>
        <time>2021-03-31T08:05:37.548Z</time>
      </trkpt>
      <trkpt lat="46.8406" lon="7.16982">
        <ele>572.11</ele>
        <time>2021-03-31T08:05:13.764Z</time>
      </trkpt>
      <trkpt lat="46.84078" lon="7.1699">
        <ele>571.9</ele>
        <time>2021-03-31T08:04:51.894Z</time>
      </trkpt>
      <trkpt lat="46.84086" lon="7.16992">
        <ele>571.91</ele>
        <time>2021-03-31T08:04:43.581Z</time>
      </trkpt>
      <trkpt lat="46.84104" lon="7.16999">
        <ele>572.21</ele>
        <time>2021-03-31T08:04:37.281Z</time>
      </trkpt>
      <trkpt lat="46.84125" lon="7.17005">
        <ele>573.45</ele>
        <time>2021-03-31T08:04:32.501Z</time>
      </trkpt>
      <trkpt lat="46.84162" lon="7.17025">
        <ele>577.18</ele>
        <time>2021-03-31T08:04:23.518Z</time>
      </trkpt>
      <trkpt lat="46.8419" lon="7.17044">
        <ele>576.41</ele>
        <time>2021-03-31T08:03:41.763Z</time>
      </trkpt>
      <trkpt lat="46.84204" lon="7.17052">
        <ele>577.18</ele>
        <time>2021-03-31T08:03:38.211Z</time>
      </trkpt>
      <trkpt lat="46.84219" lon="7.17052">
        <ele>577.96</ele>
        <time>2021-03-31T08:03:34.690Z</time>
      </trkpt>
      <trkpt lat="46.84233" lon="7.17051">
        <ele>578.27</ele>
        <time>2021-03-31T08:03:30.275Z</time>
      </trkpt>
      <trkpt lat="46.84244" lon="7.17048">
        <ele>577.96</ele>
        <time>2021-03-31T08:03:14.627Z</time>
      </trkpt>
      <trkpt lat="46.84257" lon="7.17048">
        <ele>577.18</ele>
        <time>2021-03-31T08:02:49.241Z</time>
      </trkpt>
      <trkpt lat="46.84274" lon="7.17049">
        <ele>577.77</ele>
        <time>2021-03-31T08:02:44.555Z</time>
      </trkpt>
      <trkpt lat="46.84275" lon="7.1705">
        <ele>577.88</ele>
        <time>2021-03-31T08:02:44.279Z</time>
      </trkpt>
      <trkpt lat="46.84276" lon="7.1705">
        <ele>577.88</ele>
        <time>2021-03-31T08:02:43.236Z</time>
      </trkpt>
      <trkpt lat="46.84282" lon="7.17055">
        <ele>578</ele>
        <time>2021-03-31T08:02:40.936Z</time>
      </trkpt>
      <trkpt lat="46.84291" lon="7.1706">
        <ele>577.93</ele>
        <time>2021-03-31T08:02:30.171Z</time>
      </trkpt>
      <trkpt lat="46.843" lon="7.17063">
        <ele>577.96</ele>
        <time>2021-03-31T08:02:20.995Z</time>
      </trkpt>
      <trkpt lat="46.84311" lon="7.17065">
        <ele>578.16</ele>
        <time>2021-03-31T08:02:17.332Z</time>
      </trkpt>
      <trkpt lat="46.84321" lon="7.17066">
        <ele>578.78</ele>
        <time>2021-03-31T08:02:15.162Z</time>
      </trkpt>
      <trkpt lat="46.8433" lon="7.17065">
        <ele>578.81</ele>
        <time>2021-03-31T08:02:06.199Z</time>
      </trkpt>
      <trkpt lat="46.84343" lon="7.17063">
        <ele>579.15</ele>
        <time>2021-03-31T08:02:02.257Z</time>
      </trkpt>
      <trkpt lat="46.84365" lon="7.17062">
        <ele>579.51</ele>
        <time>2021-03-31T08:01:54.835Z</time>
      </trkpt>
      <trkpt lat="46.84386" lon="7.17062">
        <ele>580.2</ele>
        <time>2021-03-31T08:01:48.944Z</time>
      </trkpt>
      <trkpt lat="46.8439" lon="7.17065">
        <ele>580.34</ele>
        <time>2021-03-31T08:01:47.661Z</time>
      </trkpt>
      <trkpt lat="46.84393" lon="7.17069">
        <ele>580.07</ele>
        <time>2021-03-31T08:01:39.354Z</time>
      </trkpt>
      <trkpt lat="46.84393" lon="7.1707">
        <ele>580</ele>
        <time>2021-03-31T08:01:37.454Z</time>
      </trkpt>
      <trkpt lat="46.84395" lon="7.17076">
        <ele>579.76</ele>
        <time>2021-03-31T08:01:28.981Z</time>
      </trkpt>
      <trkpt lat="46.84397" lon="7.17086">
        <ele>579.88</ele>
        <time>2021-03-31T08:01:26.592Z</time>
      </trkpt>
      <trkpt lat="46.84394" lon="7.17093">
        <ele>579.77</ele>
        <time>2021-03-31T08:01:19.416Z</time>
      </trkpt>
      <trkpt lat="46.84391" lon="7.17102">
        <ele>579.54</ele>
        <time>2021-03-31T08:01:09.093Z</time>
      </trkpt>
      <trkpt lat="46.8439" lon="7.1711">
        <ele>579.53</ele>
        <time>2021-03-31T08:01:03.191Z</time>
      </trkpt>
      <trkpt lat="46.84391" lon="7.17114">
        <ele>579.61</ele>
        <time>2021-03-31T08:01:02.327Z</time>
      </trkpt>
      <trkpt lat="46.84394" lon="7.17123">
        <ele>580.18</ele>
        <time>2021-03-31T08:01:00.767Z</time>
      </trkpt>
      <trkpt lat="46.84396" lon="7.17128">
        <ele>580.57</ele>
        <time>2021-03-31T08:00:59.865Z</time>
      </trkpt>
      <trkpt lat="46.84399" lon="7.17132">
        <ele>580.99</ele>
        <time>2021-03-31T08:00:58.940Z</time>
      </trkpt>
      <trkpt lat="46.84403" lon="7.17136">
        <ele>581.34</ele>
        <time>2021-03-31T08:00:57.837Z</time>
      </trkpt>
      <trkpt lat="46.84409" lon="7.1714">
        <ele>581.69</ele>
        <time>2021-03-31T08:00:56.303Z</time>
      </trkpt>
      <trkpt lat="46.84416" lon="7.17145">
        <ele>581.81</ele>
        <time>2021-03-31T08:00:53.645Z</time>
      </trkpt>
      <trkpt lat="46.8442" lon="7.17149">
        <ele>581.81</ele>
        <time>2021-03-31T08:00:48.587Z</time>
      </trkpt>
      <trkpt lat="46.84424" lon="7.17155">
        <ele>581.69</ele>
        <time>2021-03-31T08:00:41.187Z</time>
      </trkpt>
      <trkpt lat="46.84426" lon="7.17159">
        <ele>581.36</ele>
        <time>2021-03-31T08:00:32.219Z</time>
      </trkpt>
      <trkpt lat="46.84428" lon="7.17161">
        <ele>581.11</ele>
        <time>2021-03-31T08:00:25.433Z</time>
      </trkpt>
      <trkpt lat="46.84431" lon="7.1717">
        <ele>581.22</ele>
        <time>2021-03-31T08:00:23.116Z</time>
      </trkpt>
      <trkpt lat="46.84435" lon="7.17183">
        <ele>581.11</ele>
        <time>2021-03-31T08:00:11.768Z</time>
      </trkpt>
      <trkpt lat="46.84439" lon="7.17198">
        <ele>581.11</ele>
        <time>2021-03-31T08:00:00.276Z</time>
      </trkpt>
      <trkpt lat="46.8444" lon="7.17199">
        <ele>581.22</ele>
        <time>2021-03-31T08:00:00.000Z</time>
      </trkpt>
    </trkseg>
  </trk>
</gpx>